Darstellungsparameter: Aktuell verwendete Einstellungen:
Skalierung der Graphiken ... ?
xyx+y,   Skalierungsfaktor:      Skalierung: Modus: x, Faktor: 1
Darstellungszeitraum ... ?
Vom - - bis: - -   Zeitraum: 20.04.2015 - 19.05.2015
Min/Max/Avg-Anzeige ... ?
Zeige MMA aktuell
Zeige MMA Monat
Zeige MMA alles
Zeige --A aktuell
Zeige --A Monat
Zeige --A alles
Keine MMA-Anzeige
MMA:
Average (ber die Originaldaten)
MMA-Basis: 20.04.2015 - 19.05.2015
Quicknavigation für Darstellung... ?
Tage:      1T, 2T, 3T, 5T -1T -2T -3T -5T +1T +2T +3T +5T
Wochen: 1W, 2W, 3W -1W -2W -3W +1W +2W +3W
Monate: 1M, 3M, 6M -1M -3M -6M +1M +3M +6M
Jahre:    1J, 3J, 5J, 10J -1J -3J -5J -10J +1J +3J +5J +10J
Nutze für die Darstellung ... ?
Originaldaten oder Mittelwerte auf ...
Stundenbasis Tagesbasis Wochenbasis
Monatsbasis Jahresbasis      Datenbasis: Original-Daten
Darstellen als:
Statistik (Auto) Statistik J:M      Darstellung:
Zur Graphik,    zurück zur Übersicht aller Sensoren.
 
Tabellarische Datenbersicht: ?
 
Sensor: Nr:Datum:Temp:Abs-Feuchte:Windchill:Wind:
Aussen-T/F 1 20-04-2015 00:00:00 7.6 C 5.72 g/m*3 7.6 C 0 km/h
2 20-04-2015 00:05:00 7.7 C 5.84 g/m*3 7.7 C 0 km/h
3 20-04-2015 00:10:00 7.6 C 5.8 g/m*3 7.6 C 0 km/h
4 20-04-2015 00:15:00 7.6 C 5.72 g/m*3 7.6 C 0 km/h
5 20-04-2015 00:20:00 7.4 C 5.65 g/m*3 7.4 C 0 km/h
6 20-04-2015 00:25:00 7.2 C 5.65 g/m*3 7.2 C 1.6 km/h
7 20-04-2015 00:30:00 7.1 C 5.62 g/m*3 7.1 C 0 km/h
8 20-04-2015 00:35:00 7.1 C 5.54 g/m*3 7.1 C 0 km/h
9 20-04-2015 00:40:00 7.1 C 5.54 g/m*3 7.1 C 0 km/h
10 20-04-2015 00:45:00 7.1 C 5.69 g/m*3 7.1 C 0 km/h
11 20-04-2015 00:50:00 7 C 5.66 g/m*3 7 C 0 km/h
12 20-04-2015 00:55:00 6.9 C 5.62 g/m*3 6.9 C 0 km/h
13 20-04-2015 01:00:00 6.8 C 5.66 g/m*3 6.8 C 0 km/h
14 20-04-2015 01:05:00 6.6 C 5.59 g/m*3 6.6 C 0 km/h
15 20-04-2015 01:10:00 6.5 C 5.62 g/m*3 6.5 C 0 km/h
16 20-04-2015 01:15:00 6.4 C 5.66 g/m*3 6.4 C 0 km/h
17 20-04-2015 01:20:00 6.4 C 5.66 g/m*3 6.4 C 0 km/h
18 20-04-2015 01:25:00 6.3 C 5.63 g/m*3 6.3 C 0 km/h
19 20-04-2015 01:30:00 6.3 C 5.55 g/m*3 6.3 C 0 km/h
20 20-04-2015 01:35:00 6.2 C 5.52 g/m*3 6.2 C 1.6 km/h
21 20-04-2015 01:40:00 6.1 C 5.48 g/m*3 6.1 C 0 km/h
22 20-04-2015 01:45:00 6 C 5.52 g/m*3 6 C 0 km/h
23 20-04-2015 01:50:00 5.9 C 5.55 g/m*3 5.9 C 0 km/h
24 20-04-2015 01:55:00 5.8 C 5.52 g/m*3 5.8 C 0 km/h
25 20-04-2015 02:00:00 5.7 C 5.55 g/m*3 5.7 C 0 km/h
Sensor: Nr:Datum:Temp:Abs-Feuchte:Windchill:Wind:
Aussen-T/F 26 20-04-2015 02:05:00 5.6 C 5.51 g/m*3 5.6 C 0 km/h
27 20-04-2015 02:10:00 5.4 C 5.44 g/m*3 5.4 C 0 km/h
28 20-04-2015 02:15:00 5.3 C 5.48 g/m*3 5.3 C 0 km/h
29 20-04-2015 02:20:00 5.3 C 5.48 g/m*3 5.3 C 0 km/h
30 20-04-2015 02:25:00 5.2 C 5.44 g/m*3 5.2 C 0 km/h
31 20-04-2015 02:30:00 5.1 C 5.47 g/m*3 5.1 C 0 km/h
32 20-04-2015 02:35:00 5 C 5.44 g/m*3 5 C 0 km/h
33 20-04-2015 02:40:00 4.9 C 5.4 g/m*3 4.9 C 0 km/h
34 20-04-2015 02:45:00 4.9 C 5.4 g/m*3 4.9 C 0 km/h
35 20-04-2015 02:50:00 4.9 C 5.47 g/m*3 4.9 C 0 km/h
36 20-04-2015 02:55:00 4.8 C 5.43 g/m*3 4.8 C 0 km/h
37 20-04-2015 03:00:00 4.8 C 5.43 g/m*3 4.8 C 0 km/h
38 20-04-2015 03:05:00 4.7 C 5.46 g/m*3 4.7 C 0 km/h
39 20-04-2015 03:10:00 4.7 C 5.46 g/m*3 4.7 C 0 km/h
40 20-04-2015 03:15:00 4.6 C 5.49 g/m*3 4.6 C 0 km/h
41 20-04-2015 03:20:00 4.6 C 5.49 g/m*3 4.6 C 0 km/h
42 20-04-2015 03:25:00 4.6 C 5.49 g/m*3 4.6 C 0 km/h
43 20-04-2015 03:30:00 4.4 C 5.42 g/m*3 4.4 C 0 km/h
44 20-04-2015 03:35:00 4.4 C 5.42 g/m*3 4.4 C 0 km/h
45 20-04-2015 03:40:00 4.4 C 5.42 g/m*3 4.4 C 0 km/h
46 20-04-2015 03:45:00 4.4 C 5.42 g/m*3 4.4 C 1.6 km/h
47 20-04-2015 03:50:00 4.3 C 5.38 g/m*3 4.3 C 0 km/h
48 20-04-2015 03:55:00 4.3 C 5.38 g/m*3 4.3 C 0 km/h
49 20-04-2015 04:00:00 4.3 C 5.38 g/m*3 4.3 C 0 km/h
50 20-04-2015 04:05:00 4.2 C 5.35 g/m*3 4.2 C 0 km/h
Sensor: Nr:Datum:Temp:Abs-Feuchte:Windchill:Wind:
Aussen-T/F 51 20-04-2015 04:10:00 4.2 C 5.35 g/m*3 4.2 C 0 km/h
52 20-04-2015 04:15:00 4.2 C 5.41 g/m*3 4.2 C 0 km/h
53 20-04-2015 04:20:00 4.2 C 5.41 g/m*3 4.2 C 0 km/h
54 20-04-2015 04:25:00 4.2 C 5.41 g/m*3 4.2 C 0 km/h
55 20-04-2015 04:30:00 4.1 C 5.38 g/m*3 4.1 C 0 km/h
56 20-04-2015 04:35:00 3.9 C 5.31 g/m*3 3.9 C 0 km/h
57 20-04-2015 04:40:00 3.9 C 5.37 g/m*3 3.9 C 0 km/h
58 20-04-2015 04:45:00 3.9 C 5.37 g/m*3 3.9 C 0 km/h
59 20-04-2015 04:50:00 3.9 C 5.37 g/m*3 3.9 C 0 km/h
60 20-04-2015 04:55:00 3.9 C 5.43 g/m*3 3.9 C 0 km/h
61 20-04-2015 05:00:00 3.8 C 5.4 g/m*3 3.8 C 0 km/h
62 20-04-2015 05:05:00 3.8 C 5.4 g/m*3 3.8 C 0 km/h
63 20-04-2015 05:10:00 3.8 C 5.4 g/m*3 3.8 C 0 km/h
64 20-04-2015 05:15:00 3.7 C 5.36 g/m*3 3.7 C 0 km/h
65 20-04-2015 05:20:00 3.7 C 5.42 g/m*3 3.7 C 0 km/h
66 20-04-2015 05:25:00 3.6 C 5.39 g/m*3 3.6 C 0 km/h
67 20-04-2015 05:30:00 3.6 C 5.39 g/m*3 3.6 C 0 km/h
68 20-04-2015 05:35:00 3.5 C 5.35 g/m*3 3.5 C 0 km/h
69 20-04-2015 05:40:00 3.4 C 5.31 g/m*3 3.4 C 0 km/h
70 20-04-2015 05:45:00 3.4 C 5.37 g/m*3 3.4 C 0 km/h
71 20-04-2015 05:50:00 3.4 C 5.37 g/m*3 3.4 C 0 km/h
72 20-04-2015 05:55:00 3.4 C 5.37 g/m*3 3.4 C 0 km/h
73 20-04-2015 06:00:00 3.4 C 5.37 g/m*3 3.4 C 0 km/h
74 20-04-2015 06:05:00 3.4 C 5.37 g/m*3 3.4 C 0 km/h
75 20-04-2015 06:10:00 3.4 C 5.44 g/m*3 3.4 C 0 km/h
Sensor: Nr:Datum:Temp:Abs-Feuchte:Windchill:Wind:
Aussen-T/F 76 20-04-2015 06:15:00 3.4 C 5.37 g/m*3 3.4 C 0 km/h
77 20-04-2015 06:20:00 3.4 C 5.37 g/m*3 3.4 C 1.6 km/h
78 20-04-2015 06:25:00 3.4 C 5.44 g/m*3 3.4 C 0 km/h
79 20-04-2015 06:30:00 3.4 C 5.44 g/m*3 3.4 C 0 km/h
80 20-04-2015 06:35:00 3.4 C 5.44 g/m*3 3.4 C 0 km/h
81 20-04-2015 06:40:00 3.4 C 5.44 g/m*3 3.4 C 0 km/h
82 20-04-2015 06:45:00 3.4 C 5.44 g/m*3 3.4 C 0 km/h
83 20-04-2015 06:50:00 3.4 C 5.44 g/m*3 3.4 C 0 km/h
84 20-04-2015 06:55:00 3.4 C 5.44 g/m*3 3.4 C 0 km/h
85 20-04-2015 07:00:00 3.4 C 5.44 g/m*3 3.4 C 0 km/h
86 20-04-2015 07:05:00 3.4 C 5.44 g/m*3 3.4 C 1.6 km/h
87 20-04-2015 07:10:00 3.5 C 5.47 g/m*3 3.5 C 0 km/h
88 20-04-2015 07:15:00 3.6 C 5.51 g/m*3 3.6 C 0 km/h
89 20-04-2015 07:20:00 3.7 C 5.55 g/m*3 3.7 C 0 km/h
90 20-04-2015 07:25:00 3.8 C 5.58 g/m*3 3.8 C 1.6 km/h
91 20-04-2015 07:30:00 3.9 C 5.56 g/m*3 3.9 C 1.6 km/h
92 20-04-2015 07:35:00 4 C 5.59 g/m*3 4 C 0 km/h
93 20-04-2015 07:40:00 4.1 C 5.63 g/m*3 4.1 C 0 km/h
94 20-04-2015 07:45:00 4.3 C 5.71 g/m*3 4.3 C 0 km/h
95 20-04-2015 07:50:00 4.4 C 5.68 g/m*3 4.4 C 0 km/h
96 20-04-2015 07:55:00 4.5 C 5.72 g/m*3 4.5 C 0 km/h
97 20-04-2015 08:00:00 4.7 C 5.8 g/m*3 4.7 C 0 km/h
98 20-04-2015 08:05:00 4.7 C 5.73 g/m*3 4.7 C 0 km/h
99 20-04-2015 08:10:00 4.8 C 5.77 g/m*3 4.8 C 0 km/h
100 20-04-2015 08:15:00 4.9 C 5.81 g/m*3 4.9 C 0 km/h
Sensor: Nr:Datum:Temp:Abs-Feuchte:Windchill:Wind:
Aussen-T/F 101 20-04-2015 08:20:00 4.9 C 5.81 g/m*3 4.9 C 0 km/h
102 20-04-2015 08:25:00 5 C 5.78 g/m*3 5 C 0 km/h
103 20-04-2015 08:30:00 5.1 C 5.88 g/m*3 5.1 C 0 km/h
104 20-04-2015 08:35:00 5.1 C 5.88 g/m*3 5.1 C 1.6 km/h
105 20-04-2015 08:40:00 5.2 C 5.92 g/m*3 5.2 C 0 km/h
106 20-04-2015 08:45:00 5.3 C 6.03 g/m*3 5.3 C 0 km/h
107 20-04-2015 08:50:00 5.4 C 6.14 g/m*3 5.4 C 0 km/h
108 20-04-2015 08:55:00 5.7 C 6.12 g/m*3 5.7 C 0 km/h
109 20-04-2015 09:00:00 5.8 C 6.16 g/m*3 5.8 C 0 km/h
110 20-04-2015 09:05:00 6 C 6.24 g/m*3 6 C 0 km/h
111 20-04-2015 09:10:00 6.2 C 6.25 g/m*3 6.2 C 0 km/h
112 20-04-2015 09:15:00 6.5 C 6.37 g/m*3 6.5 C 0 km/h
113 20-04-2015 09:20:00 6.8 C 6.35 g/m*3 6.8 C 0 km/h
114 20-04-2015 09:25:00 7.1 C 6.32 g/m*3 7.1 C 0 km/h
115 20-04-2015 09:30:00 7.4 C 6.44 g/m*3 7.4 C 0 km/h
116 20-04-2015 09:35:00 7.7 C 6.57 g/m*3 7.7 C 0 km/h
117 20-04-2015 09:40:00 7.9 C 6.65 g/m*3 7.9 C 0 km/h
118 20-04-2015 09:45:00 8.1 C 6.66 g/m*3 8.1 C 0 km/h
119 20-04-2015 09:50:00 8.3 C 6.66 g/m*3 8.3 C 0 km/h
120 20-04-2015 09:55:00 8.4 C 6.7 g/m*3 8.4 C 1.6 km/h
121 20-04-2015 10:00:00 8.6 C 6.7 g/m*3 8.6 C 0 km/h
122 20-04-2015 10:05:00 8.7 C 6.75 g/m*3 8.7 C 0 km/h
123 20-04-2015 10:10:00 8.8 C 6.88 g/m*3 8.8 C 0 km/h
124 20-04-2015 10:15:00 8.9 C 6.83 g/m*3 8.9 C 0 km/h
125 20-04-2015 10:20:00 9.1 C 6.83 g/m*3 9.1 C 1.6 km/h
Sensor: Nr:Datum:Temp:Abs-Feuchte:Windchill:Wind:
Aussen-T/F 126 20-04-2015 10:25:00 9.3 C 6.83 g/m*3 9.3 C 0 km/h
127 20-04-2015 10:30:00 9.4 C 6.78 g/m*3 9.4 C 0 km/h
128 20-04-2015 10:35:00 9.7 C 6.82 g/m*3 9.7 C 0 km/h
129 20-04-2015 10:40:00 9.9 C 6.72 g/m*3 9.9 C 0 km/h
130 20-04-2015 10:45:00 10.3 C 6.61 g/m*3 10.3 C 0 km/h
131 20-04-2015 10:50:00 10.6 C 6.64 g/m*3 10.6 C 3.2 km/h
132 20-04-2015 10:55:00 10.8 C 6.52 g/m*3 10.8 C 3.2 km/h
133 20-04-2015 11:00:00 11.2 C 6.59 g/m*3 11.2 C 3.2 km/h
134 20-04-2015 11:05:00 11.5 C 6.3 g/m*3 11.5 C 1.6 km/h
135 20-04-2015 11:10:00 11.8 C 6.53 g/m*3 11.8 C 1.6 km/h
136 20-04-2015 11:15:00 12.3 C 6.52 g/m*3 12.3 C 3.2 km/h
137 20-04-2015 11:20:00 12.8 C 6.72 g/m*3 12.8 C 1.6 km/h
138 20-04-2015 11:25:00 13.1 C 6.62 g/m*3 13.1 C 3.2 km/h
139 20-04-2015 11:30:00 13.5 C 7.13 g/m*3 13.5 C 3.2 km/h
140 20-04-2015 11:35:00 13.8 C 6.67 g/m*3 13.8 C 3.2 km/h
141 20-04-2015 11:40:00 14.1 C 6.55 g/m*3 14.1 C 1.6 km/h
142 20-04-2015 11:45:00 14.5 C 6.72 g/m*3 14.5 C 4.8 km/h
143 20-04-2015 11:50:00 14.8 C 6.71 g/m*3 14.8 C 4.8 km/h
144 20-04-2015 11:55:00 14.9 C 6.37 g/m*3 14.9 C 3.2 km/h
145 20-04-2015 12:00:00 14.9 C 6.5 g/m*3 14.9 C 4.8 km/h
146 20-04-2015 12:05:00 15.2 C 6.75 g/m*3 15.2 C 8.1 km/h
147 20-04-2015 12:10:00 15.5 C 6.87 g/m*3 15.5 C 11.3 km/h
148 20-04-2015 12:15:00 15.9 C 6.37 g/m*3 15.9 C 11.3 km/h
149 20-04-2015 12:20:00 16.3 C 6.8 g/m*3 16.3 C 16.1 km/h
150 20-04-2015 12:25:00 16.4 C 6.98 g/m*3 16.4 C 9.7 km/h
Sensor: Nr:Datum:Temp:Abs-Feuchte:Windchill:Wind:
Aussen-T/F 151 20-04-2015 12:30:00 16.8 C 6.43 g/m*3 16.8 C 9.7 km/h
152 20-04-2015 12:35:00 16.9 C 6.47 g/m*3 16.9 C 11.3 km/h
153 20-04-2015 12:40:00 17.4 C 6.97 g/m*3 17.4 C 9.7 km/h
154 20-04-2015 12:45:00 17.7 C 6.94 g/m*3 17.7 C 12.9 km/h
155 20-04-2015 12:50:00 17.9 C 6.87 g/m*3 17.9 C 6.4 km/h
156 20-04-2015 12:55:00 18.3 C 7.19 g/m*3 18.3 C 9.7 km/h
157 20-04-2015 13:00:00 18.4 C 6.92 g/m*3 18.4 C 9.7 km/h
158 20-04-2015 13:05:00 18.6 C 6.68 g/m*3 18.6 C 11.3 km/h
159 20-04-2015 13:10:00 18.7 C 7.04 g/m*3 18.7 C 11.3 km/h
160 20-04-2015 13:15:00 18.8 C 6.6 g/m*3 18.8 C 14.5 km/h
161 20-04-2015 13:20:00 18.8 C 6.93 g/m*3 18.8 C 6.4 km/h
162 20-04-2015 13:25:00 19 C 6.52 g/m*3 19 C 6.4 km/h
163 20-04-2015 13:30:00 19.2 C 7.09 g/m*3 19.2 C 6.4 km/h
164 20-04-2015 13:35:00 19.2 C 7.26 g/m*3 19.2 C 12.9 km/h
165 20-04-2015 13:40:00 19.3 C 6.47 g/m*3 19.3 C 4.8 km/h
166 20-04-2015 13:45:00 19.3 C 7.13 g/m*3 19.3 C 6.4 km/h
167 20-04-2015 13:50:00 19.6 C 7.26 g/m*3 19.6 C 8.1 km/h
168 20-04-2015 13:55:00 19.8 C 7.52 g/m*3 19.8 C 4.8 km/h
169 20-04-2015 14:00:00 20 C 7.43 g/m*3 20 C 9.7 km/h
170 20-04-2015 14:05:00 20.1 C 6.61 g/m*3 20.1 C 6.4 km/h
171 20-04-2015 14:10:00 19.9 C 6.7 g/m*3 19.9 C 8.1 km/h
172 20-04-2015 14:15:00 20.1 C 7.3 g/m*3 20.1 C 9.7 km/h
173 20-04-2015 14:20:00 20.1 C 6.78 g/m*3 20.1 C 12.9 km/h
174 20-04-2015 14:25:00 20.1 C 6.95 g/m*3 20.1 C 9.7 km/h
175 20-04-2015 14:30:00 20.1 C 6.43 g/m*3 20.1 C 8.1 km/h
Sensor: Nr:Datum:Temp:Abs-Feuchte:Windchill:Wind:
Aussen-T/F 176 20-04-2015 14:35:00 20.2 C 7.52 g/m*3 20.2 C 9.7 km/h
177 20-04-2015 14:40:00 20.4 C 6.72 g/m*3 20.4 C 11.3 km/h
178 20-04-2015 14:45:00 20.7 C 6.66 g/m*3 20.7 C 16.1 km/h
179 20-04-2015 14:50:00 20.8 C 6.16 g/m*3 20.8 C 17.7 km/h
180 20-04-2015 14:55:00 20.8 C 5.79 g/m*3 20.8 C 6.4 km/h
181 20-04-2015 15:00:00 20.8 C 6.7 g/m*3 20.8 C 4.8 km/h
182 20-04-2015 15:05:00 20.8 C 6.7 g/m*3 20.8 C 6.4 km/h
183 20-04-2015 15:10:00 20.9 C 6.19 g/m*3 20.9 C 16.1 km/h
184 20-04-2015 15:15:00 21.2 C 6.3 g/m*3 21.2 C 6.4 km/h
185 20-04-2015 15:20:00 21.3 C 6.52 g/m*3 21.3 C 9.7 km/h
186 20-04-2015 15:25:00 21.4 C 6.19 g/m*3 21.4 C 6.4 km/h
187 20-04-2015 15:30:00 21.6 C 5.88 g/m*3 21.6 C 12.9 km/h
188 20-04-2015 15:35:00 21.8 C 6.33 g/m*3 21.8 C 11.3 km/h
189 20-04-2015 15:40:00 21.9 C 6.18 g/m*3 21.9 C 11.3 km/h
190 20-04-2015 15:45:00 21.9 C 6.75 g/m*3 21.9 C 12.9 km/h
191 20-04-2015 15:50:00 21.9 C 6.56 g/m*3 21.9 C 14.5 km/h
192 20-04-2015 15:55:00 22 C 6.99 g/m*3 22 C 9.7 km/h
193 20-04-2015 16:00:00 22.2 C 6.68 g/m*3 22.2 C 11.3 km/h
194 20-04-2015 16:05:00 22.3 C 5.92 g/m*3 22.3 C 12.9 km/h
195 20-04-2015 16:10:00 22.2 C 6.68 g/m*3 22.2 C 11.3 km/h
196 20-04-2015 16:15:00 22.4 C 5.76 g/m*3 22.4 C 12.9 km/h
197 20-04-2015 16:20:00 22.6 C 6.23 g/m*3 22.6 C 14.5 km/h
198 20-04-2015 16:25:00 22.5 C 5.59 g/m*3 22.5 C 8.1 km/h
199 20-04-2015 16:30:00 22.4 C 5.96 g/m*3 22.4 C 9.7 km/h
200 20-04-2015 16:35:00 22.6 C 5.83 g/m*3 22.6 C 9.7 km/h
Sensor: Nr:Datum:Temp:Abs-Feuchte:Windchill:Wind:
Aussen-T/F 201 20-04-2015 16:40:00 22.6 C 6.03 g/m*3 22.6 C 14.5 km/h
202 20-04-2015 16:45:00 22.5 C 6.39 g/m*3 22.5 C 6.4 km/h
203 20-04-2015 16:50:00 22.7 C 5.66 g/m*3 22.7 C 8.1 km/h
204 20-04-2015 16:55:00 22.7 C 6.06 g/m*3 22.7 C 16.1 km/h
205 20-04-2015 17:00:00 22.6 C 6.23 g/m*3 22.6 C 16.1 km/h
206 20-04-2015 17:05:00 22.3 C 6.12 g/m*3 22.3 C 12.9 km/h
207 20-04-2015 17:10:00 22.5 C 6.19 g/m*3 22.5 C 11.3 km/h
208 20-04-2015 17:15:00 22.7 C 6.47 g/m*3 22.7 C 12.9 km/h
209 20-04-2015 17:20:00 22.8 C 6.1 g/m*3 22.8 C 11.3 km/h
210 20-04-2015 17:25:00 22.8 C 5.89 g/m*3 22.8 C 11.3 km/h
211 20-04-2015 17:30:00 22.7 C 5.86 g/m*3 22.7 C 12.9 km/h
212 20-04-2015 17:35:00 22.7 C 5.86 g/m*3 22.7 C 8.1 km/h
213 20-04-2015 17:40:00 22.7 C 6.26 g/m*3 22.7 C 8.1 km/h
214 20-04-2015 17:45:00 22.7 C 5.86 g/m*3 22.7 C 9.7 km/h
215 20-04-2015 17:50:00 22.7 C 6.26 g/m*3 22.7 C 11.3 km/h
216 20-04-2015 17:55:00 22.8 C 5.69 g/m*3 22.8 C 9.7 km/h
217 20-04-2015 18:00:00 22.9 C 5.72 g/m*3 22.9 C 8.1 km/h
218 20-04-2015 18:05:00 22.8 C 6.3 g/m*3 22.8 C 11.3 km/h
219 20-04-2015 18:10:00 22.8 C 6.1 g/m*3 22.8 C 9.7 km/h
220 20-04-2015 18:15:00 22.8 C 6.1 g/m*3 22.8 C 11.3 km/h
221 20-04-2015 18:20:00 22.6 C 5.83 g/m*3 22.6 C 16.1 km/h
222 20-04-2015 18:25:00 22.4 C 5.36 g/m*3 22.4 C 14.5 km/h
223 20-04-2015 18:30:00 21.9 C 5.4 g/m*3 21.9 C 14.5 km/h
224 20-04-2015 18:35:00 21.8 C 5.56 g/m*3 21.8 C 12.9 km/h
225 20-04-2015 18:40:00 21.9 C 5.6 g/m*3 21.9 C 16.1 km/h
Sensor: Nr:Datum:Temp:Abs-Feuchte:Windchill:Wind:
Aussen-T/F 226 20-04-2015 18:45:00 21.9 C 5.79 g/m*3 21.9 C 11.3 km/h
227 20-04-2015 18:50:00 21.7 C 5.72 g/m*3 21.7 C 12.9 km/h
228 20-04-2015 18:55:00 21.7 C 5.72 g/m*3 21.7 C 9.7 km/h
229 20-04-2015 19:00:00 21.5 C 5.47 g/m*3 21.5 C 11.3 km/h
230 20-04-2015 19:05:00 21.2 C 5.74 g/m*3 21.2 C 12.9 km/h
231 20-04-2015 19:10:00 21.3 C 5.59 g/m*3 21.3 C 11.3 km/h
232 20-04-2015 19:15:00 21.3 C 5.59 g/m*3 21.3 C 12.9 km/h
233 20-04-2015 19:20:00 21.3 C 5.41 g/m*3 21.3 C 11.3 km/h
234 20-04-2015 19:25:00 21.2 C 5.56 g/m*3 21.2 C 9.7 km/h
235 20-04-2015 19:30:00 20.9 C 5.46 g/m*3 20.9 C 9.7 km/h
236 20-04-2015 19:35:00 20.7 C 5.58 g/m*3 20.7 C 9.7 km/h
237 20-04-2015 19:40:00 20.4 C 5.66 g/m*3 20.4 C 9.7 km/h
238 20-04-2015 19:45:00 20.3 C 5.63 g/m*3 20.3 C 12.9 km/h
239 20-04-2015 19:50:00 20 C 5.7 g/m*3 20 C 9.7 km/h
240 20-04-2015 19:55:00 19.7 C 5.6 g/m*3 19.7 C 6.4 km/h
241 20-04-2015 20:00:00 19.6 C 5.74 g/m*3 19.6 C 8.1 km/h
242 20-04-2015 20:05:00 19.3 C 5.81 g/m*3 19.3 C 3.2 km/h
243 20-04-2015 20:10:00 19.1 C 5.9 g/m*3 19.1 C 4.8 km/h
244 20-04-2015 20:15:00 18.6 C 5.73 g/m*3 18.6 C 3.2 km/h
245 20-04-2015 20:20:00 18.2 C 5.91 g/m*3 18.2 C 4.8 km/h
246 20-04-2015 20:25:00 17.8 C 6.07 g/m*3 17.8 C 1.6 km/h
247 20-04-2015 20:30:00 17.2 C 6.3 g/m*3 17.2 C 1.6 km/h
248 20-04-2015 20:35:00 16.6 C 6.36 g/m*3 16.6 C 3.2 km/h
249 20-04-2015 20:40:00 16.1 C 6.31 g/m*3 16.1 C 4.8 km/h
250 20-04-2015 20:45:00 15.6 C 6.25 g/m*3 15.6 C 3.2 km/h
Sensor: Nr:Datum:Temp:Abs-Feuchte:Windchill:Wind:
Aussen-T/F 251 20-04-2015 20:50:00 15.3 C 6.27 g/m*3 15.3 C 3.2 km/h
252 20-04-2015 20:55:00 15.1 C 6.32 g/m*3 15.1 C 4.8 km/h
253 20-04-2015 21:00:00 14.8 C 6.21 g/m*3 14.8 C 4.8 km/h
254 20-04-2015 21:05:00 14.6 C 6.26 g/m*3 14.6 C 4.8 km/h
255 20-04-2015 21:10:00 14.3 C 6.27 g/m*3 14.3 C 6.4 km/h
256 20-04-2015 21:15:00 14.2 C 6.23 g/m*3 14.2 C 4.8 km/h
257 20-04-2015 21:20:00 13.9 C 6.23 g/m*3 13.9 C 4.8 km/h
258 20-04-2015 21:25:00 13.7 C 6.39 g/m*3 13.7 C 4.8 km/h
259 20-04-2015 21:30:00 13.3 C 6.24 g/m*3 13.3 C 4.8 km/h
260 20-04-2015 21:35:00 13.2 C 6.43 g/m*3 13.2 C 4.8 km/h
261 20-04-2015 21:40:00 12.9 C 6.31 g/m*3 12.9 C 4.8 km/h
262 20-04-2015 21:45:00 12.8 C 6.38 g/m*3 12.8 C 4.8 km/h
263 20-04-2015 21:50:00 12.7 C 6.46 g/m*3 12.7 C 3.2 km/h
264 20-04-2015 21:55:00 12.5 C 6.38 g/m*3 12.5 C 4.8 km/h
265 20-04-2015 22:00:00 12.4 C 6.34 g/m*3 12.4 C 3.2 km/h
266 20-04-2015 22:05:00 12.3 C 6.41 g/m*3 12.3 C 3.2 km/h
267 20-04-2015 22:10:00 12.3 C 6.52 g/m*3 12.3 C 1.6 km/h
268 20-04-2015 22:15:00 12.2 C 6.37 g/m*3 12.2 C 1.6 km/h
269 20-04-2015 22:20:00 12.1 C 6.33 g/m*3 12.1 C 3.2 km/h
270 20-04-2015 22:25:00 11.9 C 6.46 g/m*3 11.9 C 4.8 km/h
271 20-04-2015 22:30:00 11.8 C 6.53 g/m*3 11.8 C 4.8 km/h
272 20-04-2015 22:35:00 11.8 C 6.42 g/m*3 11.8 C 4.8 km/h
273 20-04-2015 22:40:00 11.8 C 6.42 g/m*3 11.8 C 6.4 km/h
274 20-04-2015 22:45:00 11.8 C 6.53 g/m*3 11.8 C 4.8 km/h
275 20-04-2015 22:50:00 11.7 C 6.59 g/m*3 11.7 C 4.8 km/h
Sensor: Nr:Datum:Temp:Abs-Feuchte:Windchill:Wind:
Aussen-T/F 276 20-04-2015 22:55:00 11.7 C 6.48 g/m*3 11.7 C 4.8 km/h
277 20-04-2015 23:00:00 11.8 C 6.42 g/m*3 11.8 C 4.8 km/h
278 20-04-2015 23:05:00 11.7 C 6.59 g/m*3 11.7 C 6.4 km/h
279 20-04-2015 23:10:00 11.7 C 6.48 g/m*3 11.7 C 6.4 km/h
280 20-04-2015 23:15:00 11.6 C 6.65 g/m*3 11.6 C 4.8 km/h
281 20-04-2015 23:20:00 11.4 C 6.67 g/m*3 11.4 C 4.8 km/h
282 20-04-2015 23:25:00 11.2 C 6.59 g/m*3 11.2 C 4.8 km/h
283 20-04-2015 23:30:00 11.1 C 6.75 g/m*3 11.1 C 3.2 km/h
284 20-04-2015 23:35:00 10.9 C 6.56 g/m*3 10.9 C 0 km/h
285 20-04-2015 23:40:00 10.8 C 6.62 g/m*3 10.8 C 1.6 km/h
286 20-04-2015 23:45:00 10.7 C 6.58 g/m*3 10.7 C 4.8 km/h
287 20-04-2015 23:50:00 10.6 C 6.64 g/m*3 10.6 C 3.2 km/h
288 20-04-2015 23:55:00 10.6 C 6.73 g/m*3 10.6 C 3.2 km/h
289 21-04-2015 00:00:00 10.7 C 6.88 g/m*3 10.7 C 4.8 km/h
290 21-04-2015 00:05:00 10.7 C 6.88 g/m*3 10.7 C 4.8 km/h
291 21-04-2015 00:10:00 10.6 C 6.73 g/m*3 10.6 C 4.8 km/h
292 21-04-2015 00:15:00 10.4 C 6.75 g/m*3 10.4 C 4.8 km/h
293 21-04-2015 00:20:00 10.3 C 6.7 g/m*3 10.3 C 1.6 km/h
294 21-04-2015 00:25:00 10.2 C 6.85 g/m*3 10.2 C 0 km/h
295 21-04-2015 00:30:00 10 C 6.77 g/m*3 10 C 1.6 km/h
296 21-04-2015 00:35:00 9.8 C 6.68 g/m*3 9.8 C 0 km/h
297 21-04-2015 00:40:00 9.7 C 6.73 g/m*3 9.7 C 1.6 km/h
298 21-04-2015 00:45:00 9.7 C 6.73 g/m*3 9.7 C 0 km/h
299 21-04-2015 00:50:00 9.7 C 6.73 g/m*3 9.7 C 0 km/h
300 21-04-2015 00:55:00 9.6 C 6.6 g/m*3 9.6 C 0 km/h
Sensor: Nr:Datum:Temp:Abs-Feuchte:Windchill:Wind:
Aussen-T/F 301 21-04-2015 01:00:00 9.4 C 6.6 g/m*3 9.4 C 0 km/h
302 21-04-2015 01:05:00 9.3 C 6.65 g/m*3 9.3 C 0 km/h
303 21-04-2015 01:10:00 9.1 C 6.57 g/m*3 9.1 C 0 km/h
304 21-04-2015 01:15:00 8.9 C 6.57 g/m*3 8.9 C 0 km/h
305 21-04-2015 01:20:00 8.8 C 6.61 g/m*3 8.8 C 0 km/h
306 21-04-2015 01:25:00 8.8 C 6.61 g/m*3 8.8 C 0 km/h
307 21-04-2015 01:30:00 8.7 C 6.57 g/m*3 8.7 C 0 km/h
308 21-04-2015 01:35:00 8.5 C 6.49 g/m*3 8.5 C 0 km/h
309 21-04-2015 01:40:00 8.4 C 6.45 g/m*3 8.4 C 1.6 km/h
310 21-04-2015 01:45:00 8.4 C 6.62 g/m*3 8.4 C 0 km/h
311 21-04-2015 01:50:00 8.3 C 6.49 g/m*3 8.3 C 0 km/h
312 21-04-2015 01:55:00 8.2 C 6.53 g/m*3 8.2 C 0 km/h
313 21-04-2015 02:00:00 8.1 C 6.57 g/m*3 8.1 C 0 km/h
314 21-04-2015 02:05:00 8.1 C 6.49 g/m*3 8.1 C 0 km/h
315 21-04-2015 02:10:00 8.1 C 6.41 g/m*3 8.1 C 0 km/h
316 21-04-2015 02:15:00 8.1 C 6.41 g/m*3 8.1 C 0 km/h
317 21-04-2015 02:20:00 7.9 C 6.41 g/m*3 7.9 C 0 km/h
318 21-04-2015 02:25:00 7.8 C 6.37 g/m*3 7.8 C 0 km/h
319 21-04-2015 02:30:00 7.8 C 6.37 g/m*3 7.8 C 0 km/h
320 21-04-2015 02:35:00 7.7 C 6.41 g/m*3 7.7 C 1.6 km/h
321 21-04-2015 02:40:00 7.7 C 6.41 g/m*3 7.7 C 0 km/h
322 21-04-2015 02:45:00 7.6 C 6.44 g/m*3 7.6 C 0 km/h
323 21-04-2015 02:50:00 7.6 C 6.36 g/m*3 7.6 C 0 km/h
324 21-04-2015 02:55:00 7.4 C 6.28 g/m*3 7.4 C 0 km/h
325 21-04-2015 03:00:00 7.3 C 6.32 g/m*3 7.3 C 0 km/h
Sensor: Nr:Datum:Temp:Abs-Feuchte:Windchill:Wind:
Aussen-T/F 326 21-04-2015 03:05:00 7.2 C 6.28 g/m*3 7.2 C 0 km/h
327 21-04-2015 03:10:00 6.9 C 6.24 g/m*3 6.9 C 0 km/h
328 21-04-2015 03:15:00 6.9 C 6.31 g/m*3 6.9 C 0 km/h
329 21-04-2015 03:20:00 6.8 C 6.27 g/m*3 6.8 C 0 km/h
330 21-04-2015 03:25:00 6.7 C 6.31 g/m*3 6.7 C 0 km/h
331 21-04-2015 03:30:00 6.7 C 6.31 g/m*3 6.7 C 0 km/h
332 21-04-2015 03:35:00 6.7 C 6.31 g/m*3 6.7 C 0 km/h
333 21-04-2015 03:40:00 6.6 C 6.27 g/m*3 6.6 C 0 km/h
334 21-04-2015 03:45:00 6.5 C 6.3 g/m*3 6.5 C 0 km/h
335 21-04-2015 03:50:00 6.5 C 6.22 g/m*3 6.5 C 0 km/h
336 21-04-2015 03:55:00 6.4 C 6.18 g/m*3 6.4 C 0 km/h
337 21-04-2015 04:00:00 6.4 C 6.26 g/m*3 6.4 C 0 km/h
338 21-04-2015 04:05:00 6.3 C 6.22 g/m*3 6.3 C 0 km/h
339 21-04-2015 04:10:00 6.3 C 6.22 g/m*3 6.3 C 0 km/h
340 21-04-2015 04:15:00 6.2 C 6.18 g/m*3 6.2 C 0 km/h
341 21-04-2015 04:20:00 6.1 C 6.21 g/m*3 6.1 C 1.6 km/h
342 21-04-2015 04:25:00 6 C 6.17 g/m*3 6 C 1.6 km/h
343 21-04-2015 04:30:00 5.9 C 6.2 g/m*3 5.9 C 0 km/h
344 21-04-2015 04:35:00 5.9 C 6.13 g/m*3 5.9 C 0 km/h
345 21-04-2015 04:40:00 5.8 C 6.16 g/m*3 5.8 C 0 km/h
346 21-04-2015 04:45:00 5.8 C 6.16 g/m*3 5.8 C 0 km/h
347 21-04-2015 04:50:00 5.7 C 6.19 g/m*3 5.7 C 0 km/h
348 21-04-2015 04:55:00 5.7 C 6.19 g/m*3 5.7 C 0 km/h
349 21-04-2015 05:00:00 5.6 C 6.15 g/m*3 5.6 C 0 km/h
350 21-04-2015 05:05:00 5.5 C 6.11 g/m*3 5.5 C 0 km/h
Sensor: Nr:Datum:Temp:Abs-Feuchte:Windchill:Wind:
Aussen-T/F 351 21-04-2015 05:10:00 5.5 C 6.11 g/m*3 5.5 C 0 km/h
352 21-04-2015 05:15:00 5.5 C 6.11 g/m*3 5.5 C 0 km/h
353 21-04-2015 05:20:00 5.5 C 6.11 g/m*3 5.5 C 0 km/h
354 21-04-2015 05:25:00 5.4 C 6.14 g/m*3 5.4 C 0 km/h
355 21-04-2015 05:30:00 5.3 C 6.1 g/m*3 5.3 C 0 km/h
356 21-04-2015 05:35:00 5.3 C 6.1 g/m*3 5.3 C 0 km/h
357 21-04-2015 05:40:00 5.2 C 6.06 g/m*3 5.2 C 0 km/h
358 21-04-2015 05:45:00 5.2 C 6.06 g/m*3 5.2 C 0 km/h
359 21-04-2015 05:50:00 5.2 C 6.06 g/m*3 5.2 C 1.6 km/h
360 21-04-2015 05:55:00 5.2 C 6.13 g/m*3 5.2 C 0 km/h
361 21-04-2015 06:00:00 5.2 C 6.13 g/m*3 5.2 C 0 km/h
362 21-04-2015 06:05:00 5.2 C 6.06 g/m*3 5.2 C 0 km/h
363 21-04-2015 06:10:00 5.1 C 6.02 g/m*3 5.1 C 3.2 km/h
364 21-04-2015 06:15:00 5.1 C 6.02 g/m*3 5.1 C 0 km/h
365 21-04-2015 06:20:00 5.1 C 6.09 g/m*3 5.1 C 0 km/h
366 21-04-2015 06:25:00 5 C 6.05 g/m*3 5 C 0 km/h
367 21-04-2015 06:30:00 5.1 C 6.09 g/m*3 5.1 C 1.6 km/h
368 21-04-2015 06:35:00 5.1 C 6.09 g/m*3 5.1 C 0 km/h
369 21-04-2015 06:40:00 5 C 6.05 g/m*3 5 C 0 km/h
370 21-04-2015 06:45:00 4.9 C 6.01 g/m*3 4.9 C 0 km/h
371 21-04-2015 06:50:00 4.9 C 6.01 g/m*3 4.9 C 0 km/h
372 21-04-2015 06:55:00 4.9 C 6.08 g/m*3 4.9 C 0 km/h
373 21-04-2015 07:00:00 4.9 C 6.08 g/m*3 4.9 C 0 km/h
374 21-04-2015 07:05:00 5 C 6.12 g/m*3 5 C 0 km/h
375 21-04-2015 07:10:00 5.1 C 6.09 g/m*3 5.1 C 0 km/h
Sensor: Nr:Datum:Temp:Abs-Feuchte:Windchill:Wind:
Aussen-T/F 376 21-04-2015 07:15:00 5.1 C 6.09 g/m*3 5.1 C 0 km/h
377 21-04-2015 07:20:00 5.1 C 6.09 g/m*3 5.1 C 0 km/h
378 21-04-2015 07:25:00 5.1 C 6.09 g/m*3 5.1 C 0 km/h
379 21-04-2015 07:30:00 5.1 C 6.09 g/m*3 5.1 C 0 km/h
380 21-04-2015 07:35:00 5.2 C 6.13 g/m*3 5.2 C 0 km/h
381 21-04-2015 07:40:00 5.2 C 6.13 g/m*3 5.2 C 0 km/h
382 21-04-2015 07:45:00 5.2 C 6.13 g/m*3 5.2 C 0 km/h
383 21-04-2015 07:50:00 5.2 C 6.2 g/m*3 5.2 C 0 km/h
384 21-04-2015 07:55:00 5.3 C 6.24 g/m*3 5.3 C 0 km/h
385 21-04-2015 08:00:00 5.3 C 6.24 g/m*3 5.3 C 0 km/h
386 21-04-2015 08:05:00 5.3 C 6.24 g/m*3 5.3 C 0 km/h
387 21-04-2015 08:10:00 5.4 C 6.28 g/m*3 5.4 C 0 km/h
388 21-04-2015 08:15:00 5.4 C 6.28 g/m*3 5.4 C 0 km/h
389 21-04-2015 08:20:00 5.6 C 6.36 g/m*3 5.6 C 0 km/h
390 21-04-2015 08:25:00 5.7 C 6.4 g/m*3 5.7 C 0 km/h
391 21-04-2015 08:30:00 5.8 C 6.45 g/m*3 5.8 C 0 km/h
392 21-04-2015 08:35:00 5.9 C 6.49 g/m*3 5.9 C 0 km/h
393 21-04-2015 08:40:00 6 C 6.53 g/m*3 6 C 0 km/h
394 21-04-2015 08:45:00 6.2 C 6.55 g/m*3 6.2 C 0 km/h
395 21-04-2015 08:50:00 6.3 C 6.59 g/m*3 6.3 C 0 km/h
396 21-04-2015 08:55:00 6.5 C 6.67 g/m*3 6.5 C 0 km/h
397 21-04-2015 09:00:00 6.7 C 6.76 g/m*3 6.7 C 0 km/h
398 21-04-2015 09:05:00 6.8 C 6.73 g/m*3 6.8 C 0 km/h
399 21-04-2015 09:10:00 7.1 C 6.79 g/m*3 7.1 C 0 km/h
400 21-04-2015 09:15:00 7.3 C 6.87 g/m*3 7.3 C 0 km/h
Sensor: Nr:Datum:Temp:Abs-Feuchte:Windchill:Wind:
Aussen-T/F 401 21-04-2015 09:20:00 7.6 C 7.01 g/m*3 7.6 C 0 km/h
402 21-04-2015 09:25:00 7.8 C 7.02 g/m*3 7.8 C 0 km/h
403 21-04-2015 09:30:00 8.1 C 7.07 g/m*3 8.1 C 0 km/h
404 21-04-2015 09:35:00 8.1 C 7.07 g/m*3 8.1 C 0 km/h
405 21-04-2015 09:40:00 8.4 C 7.21 g/m*3 8.4 C 0 km/h
406 21-04-2015 09:45:00 8.6 C 7.3 g/m*3 8.6 C 0 km/h
407 21-04-2015 09:50:00 8.9 C 7.36 g/m*3 8.9 C 1.6 km/h
408 21-04-2015 09:55:00 9.2 C 7.41 g/m*3 9.2 C 0 km/h
409 21-04-2015 10:00:00 9.4 C 7.51 g/m*3 9.4 C 0 km/h
410 21-04-2015 10:05:00 9.7 C 7.56 g/m*3 9.7 C 0 km/h
411 21-04-2015 10:10:00 9.9 C 7.56 g/m*3 9.9 C 0 km/h
412 21-04-2015 10:15:00 10.2 C 7.61 g/m*3 10.2 C 0 km/h
413 21-04-2015 10:20:00 10.4 C 7.52 g/m*3 10.4 C 1.6 km/h
414 21-04-2015 10:25:00 10.7 C 7.56 g/m*3 10.7 C 1.6 km/h
415 21-04-2015 10:30:00 11 C 7.51 g/m*3 11 C 0 km/h
416 21-04-2015 10:35:00 11.2 C 7.6 g/m*3 11.2 C 1.6 km/h
417 21-04-2015 10:40:00 11.4 C 7.49 g/m*3 11.4 C 0 km/h
418 21-04-2015 10:45:00 11.7 C 7.74 g/m*3 11.7 C 1.6 km/h
419 21-04-2015 10:50:00 11.9 C 7.63 g/m*3 11.9 C 1.6 km/h
420 21-04-2015 10:55:00 12.2 C 7.88 g/m*3 12.2 C 1.6 km/h
421 21-04-2015 11:00:00 12.4 C 7.76 g/m*3 12.4 C 0 km/h
422 21-04-2015 11:05:00 12.7 C 7.9 g/m*3 12.7 C 0 km/h
423 21-04-2015 11:10:00 13 C 8.05 g/m*3 13 C 1.6 km/h
424 21-04-2015 11:15:00 13.3 C 7.97 g/m*3 13.3 C 1.6 km/h
425 21-04-2015 11:20:00 13.7 C 8.05 g/m*3 13.7 C 4.8 km/h
Sensor: Nr:Datum:Temp:Abs-Feuchte:Windchill:Wind:
Aussen-T/F 426 21-04-2015 11:25:00 14 C 8.2 g/m*3 14 C 1.6 km/h
427 21-04-2015 11:30:00 14.3 C 8.11 g/m*3 14.3 C 1.6 km/h
428 21-04-2015 11:35:00 14.6 C 7.88 g/m*3 14.6 C 1.6 km/h
429 21-04-2015 11:40:00 14.9 C 8.03 g/m*3 14.9 C 1.6 km/h
430 21-04-2015 11:45:00 15.2 C 7.79 g/m*3 15.2 C 1.6 km/h
431 21-04-2015 11:50:00 15.4 C 8.28 g/m*3 15.4 C 4.8 km/h
432 21-04-2015 11:55:00 15.7 C 8.16 g/m*3 15.7 C 3.2 km/h
433 21-04-2015 12:00:00 15.8 C 7.81 g/m*3 15.8 C 3.2 km/h
434 21-04-2015 12:05:00 16 C 8.04 g/m*3 16 C 4.8 km/h
435 21-04-2015 12:10:00 16.2 C 7.72 g/m*3 16.2 C 4.8 km/h
436 21-04-2015 12:15:00 16.3 C 8.19 g/m*3 16.3 C 3.2 km/h
437 21-04-2015 12:20:00 16.7 C 7.67 g/m*3 16.7 C 6.4 km/h
438 21-04-2015 12:25:00 16.8 C 7.43 g/m*3 16.8 C 1.6 km/h
439 21-04-2015 12:30:00 17.3 C 7.81 g/m*3 17.3 C 4.8 km/h
440 21-04-2015 12:35:00 17.9 C 7.63 g/m*3 17.9 C 6.4 km/h
441 21-04-2015 12:40:00 18.5 C 7.28 g/m*3 18.5 C 6.4 km/h
442 21-04-2015 12:45:00 18.8 C 7.09 g/m*3 18.8 C 4.8 km/h
443 21-04-2015 12:50:00 19.1 C 7.7 g/m*3 19.1 C 6.4 km/h
444 21-04-2015 12:55:00 19.4 C 7.67 g/m*3 19.4 C 4.8 km/h
445 21-04-2015 13:00:00 19.8 C 8.54 g/m*3 19.8 C 1.6 km/h
446 21-04-2015 13:05:00 20.1 C 7.82 g/m*3 20.1 C 4.8 km/h
447 21-04-2015 13:10:00 20.4 C 8.49 g/m*3 20.4 C 4.8 km/h
448 21-04-2015 13:15:00 20.7 C 7.92 g/m*3 20.7 C 9.7 km/h
449 21-04-2015 13:20:00 20.9 C 7.47 g/m*3 20.9 C 6.4 km/h
450 21-04-2015 13:25:00 21.2 C 7.23 g/m*3 21.2 C 9.7 km/h
Sensor: Nr:Datum:Temp:Abs-Feuchte:Windchill:Wind:
Aussen-T/F 451 21-04-2015 13:30:00 21.1 C 7.19 g/m*3 21.1 C 12.9 km/h
452 21-04-2015 13:35:00 21.3 C 7.46 g/m*3 21.3 C 8.1 km/h
453 21-04-2015 13:40:00 21.4 C 8.06 g/m*3 21.4 C 9.7 km/h
454 21-04-2015 13:45:00 21.4 C 7.31 g/m*3 21.4 C 9.7 km/h
455 21-04-2015 13:50:00 21.4 C 6.94 g/m*3 21.4 C 8.1 km/h
456 21-04-2015 13:55:00 21.5 C 6.41 g/m*3 21.5 C 8.1 km/h
457 21-04-2015 14:00:00 21.6 C 7.59 g/m*3 21.6 C 8.1 km/h
458 21-04-2015 14:05:00 21.8 C 7.67 g/m*3 21.8 C 9.7 km/h
459 21-04-2015 14:10:00 21.8 C 7.1 g/m*3 21.8 C 4.8 km/h
460 21-04-2015 14:15:00 21.8 C 6.72 g/m*3 21.8 C 6.4 km/h
461 21-04-2015 14:20:00 21.8 C 6.72 g/m*3 21.8 C 6.4 km/h
462 21-04-2015 14:25:00 21.9 C 6.75 g/m*3 21.9 C 11.3 km/h
463 21-04-2015 14:30:00 21.9 C 6.75 g/m*3 21.9 C 8.1 km/h
464 21-04-2015 14:35:00 22.1 C 7.03 g/m*3 22.1 C 8.1 km/h
465 21-04-2015 14:40:00 22.2 C 7.07 g/m*3 22.2 C 6.4 km/h
466 21-04-2015 14:45:00 22.4 C 6.75 g/m*3 22.4 C 6.4 km/h
467 21-04-2015 14:50:00 22.5 C 6.59 g/m*3 22.5 C 9.7 km/h
468 21-04-2015 14:55:00 22.5 C 7.19 g/m*3 22.5 C 6.4 km/h
469 21-04-2015 15:00:00 22.8 C 6.5 g/m*3 22.8 C 8.1 km/h
470 21-04-2015 15:05:00 22.8 C 6.1 g/m*3 22.8 C 8.1 km/h
471 21-04-2015 15:10:00 22.8 C 6.1 g/m*3 22.8 C 8.1 km/h
472 21-04-2015 15:15:00 22.9 C 6.13 g/m*3 22.9 C 9.7 km/h
473 21-04-2015 15:20:00 23.1 C 6.61 g/m*3 23.1 C 9.7 km/h
474 21-04-2015 15:25:00 23.1 C 6.2 g/m*3 23.1 C 11.3 km/h
475 21-04-2015 15:30:00 23.3 C 7.11 g/m*3 23.3 C 3.2 km/h
Sensor: Nr:Datum:Temp:Abs-Feuchte:Windchill:Wind:
Aussen-T/F 476 21-04-2015 15:35:00 23.4 C 6.31 g/m*3 23.4 C 11.3 km/h
477 21-04-2015 15:40:00 23.3 C 6.27 g/m*3 23.3 C 9.7 km/h
478 21-04-2015 15:45:00 23.2 C 6.03 g/m*3 23.2 C 12.9 km/h
479 21-04-2015 15:50:00 23.3 C 6.69 g/m*3 23.3 C 8.1 km/h
480 21-04-2015 15:55:00 23.6 C 6.17 g/m*3 23.6 C 9.7 km/h
481 21-04-2015 16:00:00 23.6 C 6.17 g/m*3 23.6 C 9.7 km/h
482 21-04-2015 16:05:00 23.7 C 6.2 g/m*3 23.7 C 6.4 km/h
483 21-04-2015 16:10:00 23.6 C 5.96 g/m*3 23.6 C 11.3 km/h
484 21-04-2015 16:15:00 23.7 C 7.06 g/m*3 23.7 C 6.4 km/h
485 21-04-2015 16:20:00 23.9 C 5.62 g/m*3 23.9 C 9.7 km/h
486 21-04-2015 16:25:00 23.7 C 5.99 g/m*3 23.7 C 8.1 km/h
487 21-04-2015 16:30:00 23.7 C 5.78 g/m*3 23.7 C 6.4 km/h
488 21-04-2015 16:35:00 23.7 C 5.99 g/m*3 23.7 C 12.9 km/h
489 21-04-2015 16:40:00 23.7 C 6.2 g/m*3 23.7 C 9.7 km/h
490 21-04-2015 16:45:00 23.8 C 6.88 g/m*3 23.8 C 9.7 km/h
491 21-04-2015 16:50:00 23.8 C 6.67 g/m*3 23.8 C 12.9 km/h
492 21-04-2015 16:55:00 23.8 C 6.02 g/m*3 23.8 C 11.3 km/h
493 21-04-2015 17:00:00 23.7 C 5.78 g/m*3 23.7 C 12.9 km/h
494 21-04-2015 17:05:00 23.8 C 6.67 g/m*3 23.8 C 9.7 km/h
495 21-04-2015 17:10:00 23.8 C 6.45 g/m*3 23.8 C 8.1 km/h
496 21-04-2015 17:15:00 23.8 C 6.24 g/m*3 23.8 C 9.7 km/h
497 21-04-2015 17:20:00 23.6 C 6.38 g/m*3 23.6 C 8.1 km/h
498 21-04-2015 17:25:00 23.6 C 5.96 g/m*3 23.6 C 12.9 km/h
499 21-04-2015 17:30:00 23.6 C 6.17 g/m*3 23.6 C 14.5 km/h
500 21-04-2015 17:35:00 23.6 C 6.59 g/m*3 23.6 C 11.3 km/h
Sensor: Nr:Datum:Temp:Abs-Feuchte:Windchill:Wind:
Aussen-T/F 501 21-04-2015 17:40:00 23.4 C 6.31 g/m*3 23.4 C 14.5 km/h
502 21-04-2015 17:45:00 23.3 C 6.48 g/m*3 23.3 C 17.7 km/h
503 21-04-2015 17:50:00 23.3 C 6.48 g/m*3 23.3 C 16.1 km/h
504 21-04-2015 17:55:00 23.2 C 7.28 g/m*3 23.2 C 12.9 km/h
505 21-04-2015 18:00:00 23.1 C 6.61 g/m*3 23.1 C 12.9 km/h
506 21-04-2015 18:05:00 22.8 C 6.5 g/m*3 22.8 C 9.7 km/h
507 21-04-2015 18:10:00 22.7 C 6.87 g/m*3 22.7 C 16.1 km/h
508 21-04-2015 18:15:00 22.8 C 6.71 g/m*3 22.8 C 9.7 km/h
509 21-04-2015 18:20:00 22.9 C 6.95 g/m*3 22.9 C 9.7 km/h
510 21-04-2015 18:25:00 22.8 C 6.71 g/m*3 22.8 C 9.7 km/h
511 21-04-2015 18:30:00 22.8 C 6.91 g/m*3 22.8 C 8.1 km/h
512 21-04-2015 18:35:00 22.8 C 6.71 g/m*3 22.8 C 11.3 km/h
513 21-04-2015 18:40:00 22.7 C 6.87 g/m*3 22.7 C 8.1 km/h
514 21-04-2015 18:45:00 22.8 C 6.71 g/m*3 22.8 C 8.1 km/h
515 21-04-2015 18:50:00 22.8 C 6.91 g/m*3 22.8 C 12.9 km/h
516 21-04-2015 18:55:00 22.6 C 6.23 g/m*3 22.6 C 9.7 km/h
517 21-04-2015 19:00:00 22.3 C 6.52 g/m*3 22.3 C 6.4 km/h
518 21-04-2015 19:05:00 22.2 C 6.68 g/m*3 22.2 C 6.4 km/h
519 21-04-2015 19:10:00 22.3 C 6.52 g/m*3 22.3 C 6.4 km/h
520 21-04-2015 19:15:00 22.2 C 6.48 g/m*3 22.2 C 6.4 km/h
521 21-04-2015 19:20:00 22.1 C 6.44 g/m*3 22.1 C 11.3 km/h
522 21-04-2015 19:25:00 21.8 C 6.33 g/m*3 21.8 C 6.4 km/h
523 21-04-2015 19:30:00 21.5 C 6.22 g/m*3 21.5 C 9.7 km/h
524 21-04-2015 19:35:00 21.2 C 5.74 g/m*3 21.2 C 9.7 km/h
525 21-04-2015 19:40:00 21.1 C 6.08 g/m*3 21.1 C 6.4 km/h
Sensor: Nr:Datum:Temp:Abs-Feuchte:Windchill:Wind:
Aussen-T/F 526 21-04-2015 19:45:00 20.8 C 5.79 g/m*3 20.8 C 8.1 km/h
527 21-04-2015 19:50:00 20.7 C 5.76 g/m*3 20.7 C 8.1 km/h
528 21-04-2015 19:55:00 20.3 C 5.63 g/m*3 20.3 C 6.4 km/h
529 21-04-2015 20:00:00 20.1 C 5.39 g/m*3 20.1 C 8.1 km/h
530 21-04-2015 20:05:00 20 C 5.53 g/m*3 20 C 8.1 km/h
531 21-04-2015 20:10:00 19.6 C 5.91 g/m*3 19.6 C 3.2 km/h
532 21-04-2015 20:15:00 19.2 C 5.28 g/m*3 19.2 C 6.4 km/h
533 21-04-2015 20:20:00 18.9 C 5.51 g/m*3 18.9 C 11.3 km/h
534 21-04-2015 20:25:00 18.6 C 5.57 g/m*3 18.6 C 3.2 km/h
535 21-04-2015 20:30:00 17.7 C 5.88 g/m*3 17.7 C 3.2 km/h
536 21-04-2015 20:35:00 16.9 C 5.9 g/m*3 16.9 C 1.6 km/h
537 21-04-2015 20:40:00 16.5 C 6.18 g/m*3 16.5 C 4.8 km/h
538 21-04-2015 20:45:00 16.1 C 6.17 g/m*3 16.1 C 3.2 km/h
539 21-04-2015 20:50:00 15.9 C 5.82 g/m*3 15.9 C 1.6 km/h
540 21-04-2015 20:55:00 15.7 C 5.75 g/m*3 15.7 C 3.2 km/h
541 21-04-2015 21:00:00 15.4 C 6.31 g/m*3 15.4 C 3.2 km/h
542 21-04-2015 21:05:00 15.7 C 5.22 g/m*3 15.7 C 6.4 km/h
543 21-04-2015 21:10:00 15.8 C 5.92 g/m*3 15.8 C 3.2 km/h
544 21-04-2015 21:15:00 15.9 C 5.55 g/m*3 15.9 C 4.8 km/h
545 21-04-2015 21:20:00 15.9 C 5.82 g/m*3 15.9 C 6.4 km/h
546 21-04-2015 21:25:00 15.7 C 5.62 g/m*3 15.7 C 8.1 km/h
547 21-04-2015 21:30:00 15.4 C 5.91 g/m*3 15.4 C 3.2 km/h
548 21-04-2015 21:35:00 15.4 C 6.04 g/m*3 15.4 C 4.8 km/h
549 21-04-2015 21:40:00 15.2 C 5.97 g/m*3 15.2 C 3.2 km/h
550 21-04-2015 21:45:00 15.2 C 5.32 g/m*3 15.2 C 4.8 km/h
Sensor: Nr:Datum:Temp:Abs-Feuchte:Windchill:Wind:
Aussen-T/F 551 21-04-2015 21:50:00 15.4 C 6.04 g/m*3 15.4 C 1.6 km/h
552 21-04-2015 21:55:00 15 C 5.9 g/m*3 15 C 6.4 km/h
553 21-04-2015 22:00:00 14.7 C 6.04 g/m*3 14.7 C 4.8 km/h
554 21-04-2015 22:05:00 14.4 C 6.18 g/m*3 14.4 C 4.8 km/h
555 21-04-2015 22:10:00 14.4 C 5.93 g/m*3 14.4 C 3.2 km/h
556 21-04-2015 22:15:00 14.3 C 6.02 g/m*3 14.3 C 4.8 km/h
557 21-04-2015 22:20:00 14.2 C 5.86 g/m*3 14.2 C 4.8 km/h
558 21-04-2015 22:25:00 14.2 C 6.23 g/m*3 14.2 C 4.8 km/h
559 21-04-2015 22:30:00 13.9 C 6.11 g/m*3 13.9 C 4.8 km/h
560 21-04-2015 22:35:00 13.7 C 5.8 g/m*3 13.7 C 3.2 km/h
561 21-04-2015 22:40:00 13.8 C 6.08 g/m*3 13.8 C 3.2 km/h
562 21-04-2015 22:45:00 13.8 C 5.6 g/m*3 13.8 C 3.2 km/h
563 21-04-2015 22:50:00 13.9 C 6.23 g/m*3 13.9 C 6.4 km/h
564 21-04-2015 22:55:00 13.7 C 6.28 g/m*3 13.7 C 3.2 km/h
565 21-04-2015 23:00:00 13.4 C 6.16 g/m*3 13.4 C 3.2 km/h
566 21-04-2015 23:05:00 13.2 C 6.2 g/m*3 13.2 C 4.8 km/h
567 21-04-2015 23:10:00 13.1 C 6.28 g/m*3 13.1 C 6.4 km/h
568 21-04-2015 23:15:00 12.8 C 6.38 g/m*3 12.8 C 4.8 km/h
569 21-04-2015 23:20:00 12.7 C 6.35 g/m*3 12.7 C 4.8 km/h
570 21-04-2015 23:25:00 12.6 C 6.64 g/m*3 12.6 C 3.2 km/h
571 21-04-2015 23:30:00 12.4 C 6.56 g/m*3 12.4 C 3.2 km/h
572 21-04-2015 23:35:00 12.2 C 6.37 g/m*3 12.2 C 3.2 km/h
573 21-04-2015 23:40:00 12.1 C 6.43 g/m*3 12.1 C 6.4 km/h
574 21-04-2015 23:45:00 11.9 C 6.57 g/m*3 11.9 C 3.2 km/h
575 21-04-2015 23:50:00 11.8 C 6.53 g/m*3 11.8 C 1.6 km/h
Sensor: Nr:Datum:Temp:Abs-Feuchte:Windchill:Wind:
Aussen-T/F 576 21-04-2015 23:55:00 11.7 C 6.48 g/m*3 11.7 C 3.2 km/h
577 22-04-2015 00:00:00 11.5 C 6.51 g/m*3 11.5 C 6.4 km/h
578 22-04-2015 00:05:00 11.5 C 6.61 g/m*3 11.5 C 4.8 km/h
579 22-04-2015 00:10:00 11.4 C 6.57 g/m*3 11.4 C 3.2 km/h
580 22-04-2015 00:15:00 11.4 C 6.67 g/m*3 11.4 C 1.6 km/h
581 22-04-2015 00:20:00 11.4 C 6.88 g/m*3 11.4 C 1.6 km/h
582 22-04-2015 00:25:00 11.3 C 6.73 g/m*3 11.3 C 4.8 km/h
583 22-04-2015 00:30:00 11.1 C 6.75 g/m*3 11.1 C 0 km/h
584 22-04-2015 00:35:00 11.1 C 6.75 g/m*3 11.1 C 3.2 km/h
585 22-04-2015 00:40:00 10.9 C 6.76 g/m*3 10.9 C 1.6 km/h
586 22-04-2015 00:45:00 10.8 C 6.72 g/m*3 10.8 C 4.8 km/h
587 22-04-2015 00:50:00 10.8 C 6.72 g/m*3 10.8 C 4.8 km/h
588 22-04-2015 00:55:00 10.8 C 6.62 g/m*3 10.8 C 3.2 km/h
589 22-04-2015 01:00:00 10.7 C 6.88 g/m*3 10.7 C 3.2 km/h
590 22-04-2015 01:05:00 10.6 C 6.93 g/m*3 10.06 C 6.4 km/h
591 22-04-2015 01:10:00 10.5 C 6.98 g/m*3 10.5 C 1.6 km/h
592 22-04-2015 01:15:00 10.5 C 6.79 g/m*3 10.5 C 3.2 km/h
593 22-04-2015 01:20:00 10.5 C 6.98 g/m*3 10.5 C 3.2 km/h
594 22-04-2015 01:25:00 10.5 C 6.98 g/m*3 10.5 C 4.8 km/h
595 22-04-2015 01:30:00 10.4 C 6.94 g/m*3 10.4 C 4.8 km/h
596 22-04-2015 01:35:00 10.4 C 7.04 g/m*3 10.4 C 3.2 km/h
597 22-04-2015 01:40:00 10.4 C 7.04 g/m*3 10.4 C 4.8 km/h
598 22-04-2015 01:45:00 10.3 C 6.99 g/m*3 10.3 C 3.2 km/h
599 22-04-2015 01:50:00 10.3 C 7.09 g/m*3 10.3 C 3.2 km/h
600 22-04-2015 01:55:00 10.4 C 7.04 g/m*3 10.4 C 3.2 km/h
Sensor: Nr:Datum:Temp:Abs-Feuchte:Windchill:Wind:
Aussen-T/F 601 22-04-2015 02:00:00 10.3 C 6.99 g/m*3 10.3 C 1.6 km/h
602 22-04-2015 02:05:00 10.3 C 6.99 g/m*3 10.3 C 1.6 km/h
603 22-04-2015 02:10:00 10.2 C 7.04 g/m*3 10.2 C 3.2 km/h
604 22-04-2015 02:15:00 10.2 C 7.04 g/m*3 10.2 C 1.6 km/h
605 22-04-2015 02:20:00 10.2 C 7.04 g/m*3 9.6 C 6.4 km/h
606 22-04-2015 02:25:00 10.1 C 7 g/m*3 10.1 C 1.6 km/h
607 22-04-2015 02:30:00 10 C 7.05 g/m*3 10 C 1.6 km/h
608 22-04-2015 02:35:00 9.9 C 6.91 g/m*3 9.25 C 6.4 km/h
609 22-04-2015 02:40:00 9.9 C 6.91 g/m*3 9.9 C 4.8 km/h
610 22-04-2015 02:45:00 10 C 6.86 g/m*3 10 C 1.6 km/h
611 22-04-2015 02:50:00 9.9 C 6.91 g/m*3 9.9 C 4.8 km/h
612 22-04-2015 02:55:00 9.6 C 6.87 g/m*3 9.6 C 4.8 km/h
613 22-04-2015 03:00:00 9.4 C 6.78 g/m*3 9.4 C 4.8 km/h
614 22-04-2015 03:05:00 9.3 C 6.74 g/m*3 9.3 C 3.2 km/h
615 22-04-2015 03:10:00 9.2 C 6.79 g/m*3 9.2 C 3.2 km/h
616 22-04-2015 03:15:00 9.1 C 6.74 g/m*3 9.1 C 4.8 km/h
617 22-04-2015 03:20:00 9 C 6.7 g/m*3 9 C 3.2 km/h
618 22-04-2015 03:25:00 8.9 C 6.66 g/m*3 8.9 C 3.2 km/h
619 22-04-2015 03:30:00 8.9 C 6.66 g/m*3 8.9 C 3.2 km/h
620 22-04-2015 03:35:00 9 C 6.61 g/m*3 7.81 C 8.1 km/h
621 22-04-2015 03:40:00 9.3 C 6.56 g/m*3 9.3 C 4.8 km/h
622 22-04-2015 03:45:00 9.4 C 6.6 g/m*3 7.97 C 9.7 km/h
623 22-04-2015 03:50:00 9.6 C 6.6 g/m*3 9.6 C 4.8 km/h
624 22-04-2015 03:55:00 9.4 C 6.6 g/m*3 8.68 C 6.4 km/h
625 22-04-2015 04:00:00 9.2 C 6.61 g/m*3 9.2 C 1.6 km/h
Sensor: Nr:Datum:Temp:Abs-Feuchte:Windchill:Wind:
Aussen-T/F 626 22-04-2015 04:05:00 8.9 C 6.57 g/m*3 8.9 C 3.2 km/h
627 22-04-2015 04:10:00 8.9 C 6.57 g/m*3 7.09 C 11.3 km/h
628 22-04-2015 04:15:00 8.8 C 6.53 g/m*3 8.8 C 3.2 km/h
629 22-04-2015 04:20:00 8.6 C 6.53 g/m*3 8.6 C 4.8 km/h
630 22-04-2015 04:25:00 8.6 C 6.62 g/m*3 7.34 C 8.1 km/h
631 22-04-2015 04:30:00 8.5 C 6.57 g/m*3 8.5 C 3.2 km/h
632 22-04-2015 04:35:00 8.4 C 6.53 g/m*3 8.4 C 1.6 km/h
633 22-04-2015 04:40:00 8.2 C 6.53 g/m*3 6.87 C 8.1 km/h
634 22-04-2015 04:45:00 8.2 C 6.62 g/m*3 8.2 C 4.8 km/h
635 22-04-2015 04:50:00 8.1 C 6.57 g/m*3 8.1 C 4.8 km/h
636 22-04-2015 04:55:00 7.9 C 6.57 g/m*3 7.9 C 3.2 km/h
637 22-04-2015 05:00:00 7.8 C 6.53 g/m*3 7.8 C 1.6 km/h
638 22-04-2015 05:05:00 7.7 C 6.57 g/m*3 5.38 C 12.9 km/h
639 22-04-2015 05:10:00 7.7 C 6.65 g/m*3 5.38 C 12.9 km/h
640 22-04-2015 05:15:00 7.8 C 6.61 g/m*3 6.06 C 9.7 km/h
641 22-04-2015 05:20:00 7.8 C 6.61 g/m*3 5.77 C 11.3 km/h
642 22-04-2015 05:25:00 7.8 C 6.61 g/m*3 7.8 C 3.2 km/h
643 22-04-2015 05:30:00 7.6 C 6.53 g/m*3 7.6 C 1.6 km/h
644 22-04-2015 05:35:00 7.3 C 6.48 g/m*3 7.3 C 3.2 km/h
645 22-04-2015 05:40:00 7.1 C 6.55 g/m*3 7.1 C 4.8 km/h
646 22-04-2015 05:45:00 7.1 C 6.55 g/m*3 5.58 C 8.1 km/h
647 22-04-2015 05:50:00 7.1 C 6.63 g/m*3 5.58 C 8.1 km/h
648 22-04-2015 05:55:00 7.1 C 6.63 g/m*3 7.1 C 4.8 km/h
649 22-04-2015 06:00:00 7.1 C 6.63 g/m*3 7.1 C 3.2 km/h
650 22-04-2015 06:05:00 6.9 C 6.54 g/m*3 6.9 C 3.2 km/h
Sensor: Nr:Datum:Temp:Abs-Feuchte:Windchill:Wind:
Aussen-T/F 651 22-04-2015 06:10:00 6.8 C 6.5 g/m*3 6.8 C 4.8 km/h
652 22-04-2015 06:15:00 6.8 C 6.58 g/m*3 6.8 C 1.6 km/h
653 22-04-2015 06:20:00 6.7 C 6.61 g/m*3 5.56 C 6.4 km/h
654 22-04-2015 06:25:00 6.7 C 6.61 g/m*3 6.7 C 1.6 km/h
655 22-04-2015 06:30:00 6.7 C 6.61 g/m*3 6.7 C 3.2 km/h
656 22-04-2015 06:35:00 6.6 C 6.57 g/m*3 5.44 C 6.4 km/h
657 22-04-2015 06:40:00 6.7 C 6.61 g/m*3 5.56 C 6.4 km/h
658 22-04-2015 06:45:00 6.6 C 6.57 g/m*3 6.6 C 1.6 km/h
659 22-04-2015 06:50:00 6.4 C 6.48 g/m*3 6.4 C 1.6 km/h
660 22-04-2015 06:55:00 6.3 C 6.51 g/m*3 6.3 C 3.2 km/h
661 22-04-2015 07:00:00 6.3 C 6.51 g/m*3 4.64 C 8.1 km/h
662 22-04-2015 07:05:00 6.3 C 6.51 g/m*3 6.3 C 4.8 km/h
663 22-04-2015 07:10:00 6.4 C 6.56 g/m*3 4.75 C 8.1 km/h
664 22-04-2015 07:15:00 6.4 C 6.56 g/m*3 6.4 C 4.8 km/h
665 22-04-2015 07:20:00 6.4 C 6.56 g/m*3 3.8 C 12.9 km/h
666 22-04-2015 07:25:00 6.4 C 6.56 g/m*3 5.21 C 6.4 km/h
667 22-04-2015 07:30:00 6.4 C 6.56 g/m*3 5.21 C 6.4 km/h
668 22-04-2015 07:35:00 6.5 C 6.6 g/m*3 6.5 C 4.8 km/h
669 22-04-2015 07:40:00 6.5 C 6.52 g/m*3 6.5 C 1.6 km/h
670 22-04-2015 07:45:00 6.5 C 6.52 g/m*3 6.5 C 0 km/h
671 22-04-2015 07:50:00 6.4 C 6.56 g/m*3 6.4 C 3.2 km/h
672 22-04-2015 07:55:00 6.4 C 6.56 g/m*3 6.4 C 1.6 km/h
673 22-04-2015 08:00:00 6.4 C 6.56 g/m*3 6.4 C 0 km/h
674 22-04-2015 08:05:00 6.4 C 6.56 g/m*3 6.4 C 1.6 km/h
675 22-04-2015 08:10:00 6.4 C 6.56 g/m*3 6.4 C 4.8 km/h
Sensor: Nr:Datum:Temp:Abs-Feuchte:Windchill:Wind:
Aussen-T/F 676 22-04-2015 08:15:00 6.5 C 6.6 g/m*3 6.5 C 1.6 km/h
677 22-04-2015 08:20:00 6.6 C 6.64 g/m*3 6.6 C 1.6 km/h
678 22-04-2015 08:25:00 6.6 C 6.57 g/m*3 6.6 C 3.2 km/h
679 22-04-2015 08:30:00 6.7 C 6.61 g/m*3 6.7 C 3.2 km/h
680 22-04-2015 08:35:00 6.7 C 6.61 g/m*3 6.7 C 3.2 km/h
681 22-04-2015 08:40:00 6.8 C 6.65 g/m*3 5.22 C 8.1 km/h
682 22-04-2015 08:45:00 6.9 C 6.62 g/m*3 4.99 C 9.7 km/h
683 22-04-2015 08:50:00 7 C 6.66 g/m*3 5.9 C 6.4 km/h
684 22-04-2015 08:55:00 7.1 C 6.63 g/m*3 6.02 C 6.4 km/h
685 22-04-2015 09:00:00 7.3 C 6.64 g/m*3 5.47 C 9.7 km/h
686 22-04-2015 09:05:00 7.4 C 6.6 g/m*3 5.28 C 11.3 km/h
687 22-04-2015 09:10:00 7.6 C 6.61 g/m*3 6.16 C 8.1 km/h
688 22-04-2015 09:15:00 7.6 C 6.61 g/m*3 7.6 C 4.8 km/h
689 22-04-2015 09:20:00 7.7 C 6.65 g/m*3 5.65 C 11.3 km/h
690 22-04-2015 09:25:00 7.8 C 6.69 g/m*3 5.51 C 12.9 km/h
691 22-04-2015 09:30:00 7.8 C 6.61 g/m*3 7.8 C 4.8 km/h
692 22-04-2015 09:35:00 7.8 C 6.69 g/m*3 6.4 C 8.1 km/h
693 22-04-2015 09:40:00 7.9 C 6.74 g/m*3 5.89 C 11.3 km/h
694 22-04-2015 09:45:00 8 C 6.61 g/m*3 6.64 C 8.1 km/h
695 22-04-2015 09:50:00 8 C 6.61 g/m*3 6.3 C 9.7 km/h
696 22-04-2015 09:55:00 8.1 C 6.74 g/m*3 6.75 C 8.1 km/h
697 22-04-2015 10:00:00 8.2 C 6.7 g/m*3 6.54 C 9.7 km/h
698 22-04-2015 10:05:00 8.2 C 6.7 g/m*3 5.55 C 16.1 km/h
699 22-04-2015 10:10:00 8.3 C 6.74 g/m*3 6.99 C 8.1 km/h
700 22-04-2015 10:15:00 8.5 C 6.83 g/m*3 6.36 C 12.9 km/h
Sensor: Nr:Datum:Temp:Abs-Feuchte:Windchill:Wind:
Aussen-T/F 701 22-04-2015 10:20:00 8.7 C 6.83 g/m*3 7.87 C 6.4 km/h
702 22-04-2015 10:25:00 8.7 C 6.75 g/m*3 7.13 C 9.7 km/h
703 22-04-2015 10:30:00 8.8 C 6.88 g/m*3 6.72 C 12.9 km/h
704 22-04-2015 10:35:00 8.9 C 6.83 g/m*3 6.85 C 12.9 km/h
705 22-04-2015 10:40:00 8.9 C 6.75 g/m*3 6.62 C 14.5 km/h
706 22-04-2015 10:45:00 9 C 6.79 g/m*3 7.21 C 11.3 km/h
707 22-04-2015 10:50:00 9.2 C 6.79 g/m*3 7.21 C 12.9 km/h
708 22-04-2015 10:55:00 9.3 C 6.92 g/m*3 8.16 C 8.1 km/h
709 22-04-2015 11:00:00 9.6 C 6.96 g/m*3 8.52 C 8.1 km/h
710 22-04-2015 11:05:00 9.8 C 7.14 g/m*3 8.75 C 8.1 km/h
711 22-04-2015 11:10:00 10 C 7.05 g/m*3 8.19 C 12.9 km/h
712 22-04-2015 11:15:00 10.1 C 6.9 g/m*3 8.1 C 14.5 km/h
713 22-04-2015 11:20:00 10.1 C 6.81 g/m*3 8.8 C 9.7 km/h
714 22-04-2015 11:25:00 10.2 C 6.95 g/m*3 8.22 C 14.5 km/h
715 22-04-2015 11:30:00 10.3 C 6.99 g/m*3 8.78 C 11.3 km/h
716 22-04-2015 11:35:00 10.4 C 6.75 g/m*3 8.9 C 11.3 km/h
717 22-04-2015 11:40:00 10.3 C 6.8 g/m*3 9.04 C 9.7 km/h
718 22-04-2015 11:45:00 10.4 C 6.84 g/m*3 8.67 C 12.9 km/h
719 22-04-2015 11:50:00 10.6 C 6.73 g/m*3 8.92 C 12.9 km/h
720 22-04-2015 11:55:00 10.6 C 6.73 g/m*3 10.06 C 6.4 km/h
721 22-04-2015 12:00:00 10.7 C 6.78 g/m*3 9.04 C 12.9 km/h
722 22-04-2015 12:05:00 10.8 C 6.72 g/m*3 9.38 C 11.3 km/h
723 22-04-2015 12:10:00 11.1 C 6.95 g/m*3 11.1 C 12.9 km/h
724 22-04-2015 12:15:00 11.3 C 6.73 g/m*3 11.3 C 12.9 km/h
725 22-04-2015 12:20:00 11.4 C 6.77 g/m*3 11.4 C 14.5 km/h
Sensor: Nr:Datum:Temp:Abs-Feuchte:Windchill:Wind:
Aussen-T/F 726 22-04-2015 12:25:00 11.6 C 6.96 g/m*3 11.6 C 11.3 km/h
727 22-04-2015 12:30:00 12 C 7.03 g/m*3 12 C 19.3 km/h
728 22-04-2015 12:35:00 12.3 C 6.95 g/m*3 12.3 C 17.7 km/h
729 22-04-2015 12:40:00 12.6 C 7.3 g/m*3 12.6 C 12.9 km/h
730 22-04-2015 12:45:00 12.8 C 6.83 g/m*3 12.8 C 11.3 km/h
731 22-04-2015 12:50:00 13 C 6.92 g/m*3 13 C 12.9 km/h
732 22-04-2015 12:55:00 13.3 C 7.05 g/m*3 13.3 C 12.9 km/h
733 22-04-2015 13:00:00 13.4 C 7.09 g/m*3 13.4 C 12.9 km/h
734 22-04-2015 13:05:00 13.3 C 7.05 g/m*3 13.3 C 14.5 km/h
735 22-04-2015 13:10:00 13.2 C 6.89 g/m*3 13.2 C 16.1 km/h
736 22-04-2015 13:15:00 13.3 C 7.16 g/m*3 13.3 C 19.3 km/h
737 22-04-2015 13:20:00 13.6 C 7.06 g/m*3 13.6 C 8.1 km/h
738 22-04-2015 13:25:00 13.7 C 6.87 g/m*3 13.7 C 11.3 km/h
739 22-04-2015 13:30:00 13.8 C 7.03 g/m*3 13.8 C 12.9 km/h
740 22-04-2015 13:35:00 14 C 6.88 g/m*3 14 C 14.5 km/h
741 22-04-2015 13:40:00 14.3 C 7.13 g/m*3 14.3 C 14.5 km/h
742 22-04-2015 13:45:00 14.4 C 6.92 g/m*3 14.4 C 14.5 km/h
743 22-04-2015 13:50:00 14.3 C 7 g/m*3 14.3 C 16.1 km/h
744 22-04-2015 13:55:00 13.8 C 6.67 g/m*3 13.8 C 19.3 km/h
745 22-04-2015 14:00:00 13.7 C 6.75 g/m*3 13.7 C 8.1 km/h
746 22-04-2015 14:05:00 14 C 7 g/m*3 14 C 11.3 km/h
747 22-04-2015 14:10:00 13.9 C 6.83 g/m*3 13.9 C 16.1 km/h
748 22-04-2015 14:15:00 13.9 C 6.95 g/m*3 13.9 C 12.9 km/h
749 22-04-2015 14:20:00 14.2 C 7.2 g/m*3 14.2 C 16.1 km/h
750 22-04-2015 14:25:00 14.4 C 7.17 g/m*3 14.4 C 11.3 km/h
Sensor: Nr:Datum:Temp:Abs-Feuchte:Windchill:Wind:
Aussen-T/F 751 22-04-2015 14:30:00 14.4 C 6.92 g/m*3 14.4 C 9.7 km/h
752 22-04-2015 14:35:00 14.5 C 7.21 g/m*3 14.5 C 11.3 km/h
753 22-04-2015 14:40:00 14.6 C 7.01 g/m*3 14.6 C 14.5 km/h
754 22-04-2015 14:45:00 14.7 C 7.18 g/m*3 14.7 C 12.9 km/h
755 22-04-2015 14:50:00 15 C 6.8 g/m*3 15 C 14.5 km/h
756 22-04-2015 14:55:00 14.9 C 7.01 g/m*3 14.9 C 12.9 km/h
757 22-04-2015 15:00:00 14.7 C 6.8 g/m*3 14.7 C 9.7 km/h
758 22-04-2015 15:05:00 14.4 C 7.05 g/m*3 14.4 C 8.1 km/h
759 22-04-2015 15:10:00 14.8 C 7.09 g/m*3 14.8 C 14.5 km/h
760 22-04-2015 15:15:00 15.1 C 6.84 g/m*3 15.1 C 12.9 km/h
761 22-04-2015 15:20:00 15 C 7.31 g/m*3 15 C 11.3 km/h
762 22-04-2015 15:25:00 15.2 C 7.01 g/m*3 15.2 C 11.3 km/h
763 22-04-2015 15:30:00 15.3 C 7.18 g/m*3 15.3 C 9.7 km/h
764 22-04-2015 15:35:00 15.4 C 7.23 g/m*3 15.4 C 14.5 km/h
765 22-04-2015 15:40:00 15.6 C 7.05 g/m*3 15.6 C 9.7 km/h
766 22-04-2015 15:45:00 15.8 C 7.54 g/m*3 15.8 C 17.7 km/h
767 22-04-2015 15:50:00 15.9 C 7.04 g/m*3 15.9 C 11.3 km/h
768 22-04-2015 15:55:00 15.9 C 7.31 g/m*3 15.9 C 11.3 km/h
769 22-04-2015 16:00:00 15.9 C 7.31 g/m*3 15.9 C 9.7 km/h
770 22-04-2015 16:05:00 15.9 C 7.18 g/m*3 15.9 C 11.3 km/h
771 22-04-2015 16:10:00 16 C 7.63 g/m*3 16 C 14.5 km/h
772 22-04-2015 16:15:00 16.3 C 7.08 g/m*3 16.3 C 11.3 km/h
773 22-04-2015 16:20:00 16.5 C 7.3 g/m*3 16.5 C 12.9 km/h
774 22-04-2015 16:25:00 16 C 6.95 g/m*3 16 C 14.5 km/h
775 22-04-2015 16:30:00 15.6 C 7.05 g/m*3 15.6 C 9.7 km/h
Sensor: Nr:Datum:Temp:Abs-Feuchte:Windchill:Wind:
Aussen-T/F 776 22-04-2015 16:35:00 15.6 C 7.05 g/m*3 15.6 C 11.3 km/h
777 22-04-2015 16:40:00 15.6 C 7.05 g/m*3 15.6 C 16.1 km/h
778 22-04-2015 16:45:00 15.9 C 7.31 g/m*3 15.9 C 16.1 km/h
779 22-04-2015 16:50:00 15.9 C 7.31 g/m*3 15.9 C 11.3 km/h
780 22-04-2015 16:55:00 16.2 C 7.58 g/m*3 16.2 C 12.9 km/h
781 22-04-2015 17:00:00 16.2 C 7.31 g/m*3 16.2 C 11.3 km/h
782 22-04-2015 17:05:00 16.2 C 7.45 g/m*3 16.2 C 9.7 km/h
783 22-04-2015 17:10:00 16.1 C 6.99 g/m*3 16.1 C 12.9 km/h
784 22-04-2015 17:15:00 16 C 7.08 g/m*3 16 C 9.7 km/h
785 22-04-2015 17:20:00 15.9 C 7.18 g/m*3 15.9 C 11.3 km/h
786 22-04-2015 17:25:00 15.9 C 7.31 g/m*3 15.9 C 9.7 km/h
787 22-04-2015 17:30:00 16.1 C 7.26 g/m*3 16.1 C 12.9 km/h
788 22-04-2015 17:35:00 16.4 C 7.12 g/m*3 16.4 C 12.9 km/h
789 22-04-2015 17:40:00 16.5 C 7.02 g/m*3 16.5 C 17.7 km/h
790 22-04-2015 17:45:00 16.6 C 7.35 g/m*3 16.6 C 14.5 km/h
791 22-04-2015 17:50:00 16.8 C 7.43 g/m*3 16.8 C 14.5 km/h
792 22-04-2015 17:55:00 16.9 C 7.19 g/m*3 16.9 C 9.7 km/h
793 22-04-2015 18:00:00 16.9 C 6.9 g/m*3 16.9 C 14.5 km/h
794 22-04-2015 18:05:00 16.9 C 6.9 g/m*3 16.9 C 8.1 km/h
795 22-04-2015 18:10:00 17 C 6.95 g/m*3 17 C 12.9 km/h
796 22-04-2015 18:15:00 16.9 C 7.05 g/m*3 16.9 C 12.9 km/h
797 22-04-2015 18:20:00 16.9 C 6.76 g/m*3 16.9 C 11.3 km/h
798 22-04-2015 18:25:00 16.9 C 6.76 g/m*3 16.9 C 11.3 km/h
799 22-04-2015 18:30:00 16.7 C 6.54 g/m*3 16.7 C 14.5 km/h
800 22-04-2015 18:35:00 16.3 C 6.66 g/m*3 16.3 C 14.5 km/h
Sensor: Nr:Datum:Temp:Abs-Feuchte:Windchill:Wind:
Aussen-T/F 801 22-04-2015 18:40:00 16.1 C 6.58 g/m*3 16.1 C 11.3 km/h
802 22-04-2015 18:45:00 15.9 C 6.5 g/m*3 15.9 C 9.7 km/h
803 22-04-2015 18:50:00 15.9 C 6.5 g/m*3 15.9 C 8.1 km/h
804 22-04-2015 18:55:00 15.9 C 6.64 g/m*3 15.9 C 11.3 km/h
805 22-04-2015 19:00:00 15.8 C 6.46 g/m*3 15.8 C 9.7 km/h
806 22-04-2015 19:05:00 15.6 C 6.65 g/m*3 15.6 C 8.1 km/h
807 22-04-2015 19:10:00 15.4 C 6.57 g/m*3 15.4 C 11.3 km/h
808 22-04-2015 19:15:00 15.2 C 6.49 g/m*3 15.2 C 11.3 km/h
809 22-04-2015 19:20:00 14.9 C 6.37 g/m*3 14.9 C 12.9 km/h
810 22-04-2015 19:25:00 14.5 C 6.34 g/m*3 14.5 C 11.3 km/h
811 22-04-2015 19:30:00 14.4 C 6.43 g/m*3 14.4 C 6.4 km/h
812 22-04-2015 19:35:00 14.3 C 6.27 g/m*3 14.3 C 9.7 km/h
813 22-04-2015 19:40:00 14.2 C 6.35 g/m*3 14.2 C 8.1 km/h
814 22-04-2015 19:45:00 13.9 C 6.23 g/m*3 13.9 C 9.7 km/h
815 22-04-2015 19:50:00 13.7 C 6.28 g/m*3 13.7 C 8.1 km/h
816 22-04-2015 19:55:00 13.6 C 6.47 g/m*3 13.6 C 8.1 km/h
817 22-04-2015 20:00:00 13.5 C 6.43 g/m*3 13.5 C 6.4 km/h
818 22-04-2015 20:05:00 13.4 C 6.28 g/m*3 13.4 C 6.4 km/h
819 22-04-2015 20:10:00 13.2 C 6.2 g/m*3 13.2 C 4.8 km/h
820 22-04-2015 20:15:00 12.9 C 5.97 g/m*3 12.9 C 9.7 km/h
821 22-04-2015 20:20:00 12.8 C 6.05 g/m*3 12.8 C 4.8 km/h
822 22-04-2015 20:25:00 12.6 C 6.2 g/m*3 12.6 C 1.6 km/h
823 22-04-2015 20:30:00 12.3 C 6.19 g/m*3 12.3 C 1.6 km/h
824 22-04-2015 20:35:00 12.1 C 6.33 g/m*3 12.1 C 1.6 km/h
825 22-04-2015 20:40:00 11.7 C 6.38 g/m*3 11.7 C 1.6 km/h
Sensor: Nr:Datum:Temp:Abs-Feuchte:Windchill:Wind:
Aussen-T/F 826 22-04-2015 20:45:00 11.1 C 6.35 g/m*3 11.1 C 3.2 km/h
827 22-04-2015 20:50:00 10.5 C 6.3 g/m*3 10.5 C 3.2 km/h
828 22-04-2015 20:55:00 10.2 C 6.38 g/m*3 10.2 C 4.8 km/h
829 22-04-2015 21:00:00 9.9 C 6.35 g/m*3 9.9 C 3.2 km/h
830 22-04-2015 21:05:00 9.8 C 6.4 g/m*3 9.8 C 4.8 km/h
831 22-04-2015 21:10:00 9.6 C 6.41 g/m*3 9.6 C 4.8 km/h
832 22-04-2015 21:15:00 9.5 C 6.46 g/m*3 9.5 C 4.8 km/h
833 22-04-2015 21:20:00 9.3 C 6.38 g/m*3 9.3 C 4.8 km/h
834 22-04-2015 21:25:00 9.2 C 6.43 g/m*3 9.2 C 4.8 km/h
835 22-04-2015 21:30:00 9.1 C 6.48 g/m*3 9.1 C 1.6 km/h
836 22-04-2015 21:35:00 9 C 6.44 g/m*3 9 C 3.2 km/h
837 22-04-2015 21:40:00 8.9 C 6.39 g/m*3 8.9 C 3.2 km/h
838 22-04-2015 21:45:00 8.8 C 6.44 g/m*3 8.8 C 4.8 km/h
839 22-04-2015 21:50:00 8.8 C 6.44 g/m*3 8.8 C 4.8 km/h
840 22-04-2015 21:55:00 8.7 C 6.4 g/m*3 8.7 C 3.2 km/h
841 22-04-2015 22:00:00 8.6 C 6.53 g/m*3 8.6 C 1.6 km/h
842 22-04-2015 22:05:00 8.6 C 6.44 g/m*3 8.6 C 1.6 km/h
843 22-04-2015 22:10:00 8.4 C 6.36 g/m*3 8.4 C 3.2 km/h
844 22-04-2015 22:15:00 8.3 C 6.49 g/m*3 8.3 C 0 km/h
845 22-04-2015 22:20:00 8.3 C 6.49 g/m*3 8.3 C 0 km/h
846 22-04-2015 22:25:00 8.2 C 6.45 g/m*3 8.2 C 0 km/h
847 22-04-2015 22:30:00 8.1 C 6.49 g/m*3 8.1 C 0 km/h
848 22-04-2015 22:35:00 8 C 6.45 g/m*3 8 C 0 km/h
849 22-04-2015 22:40:00 7.9 C 6.41 g/m*3 7.9 C 0 km/h
850 22-04-2015 22:45:00 7.8 C 6.37 g/m*3 7.8 C 0 km/h
Sensor: Nr:Datum:Temp:Abs-Feuchte:Windchill:Wind:
Aussen-T/F 851 22-04-2015 22:50:00 7.7 C 6.41 g/m*3 7.7 C 0 km/h
852 22-04-2015 22:55:00 7.6 C 6.36 g/m*3 7.6 C 0 km/h
853 22-04-2015 23:00:00 7.6 C 6.36 g/m*3 7.6 C 0 km/h
854 22-04-2015 23:05:00 7.5 C 6.32 g/m*3 7.5 C 0 km/h
855 22-04-2015 23:10:00 7.3 C 6.24 g/m*3 7.3 C 0 km/h
856 22-04-2015 23:15:00 7.2 C 6.28 g/m*3 7.2 C 0 km/h
857 22-04-2015 23:20:00 7.2 C 6.28 g/m*3 7.2 C 0 km/h
858 22-04-2015 23:25:00 7 C 6.2 g/m*3 7 C 0 km/h
859 22-04-2015 23:30:00 6.9 C 6.24 g/m*3 6.9 C 0 km/h
860 22-04-2015 23:35:00 6.8 C 6.27 g/m*3 6.8 C 0 km/h
861 22-04-2015 23:40:00 6.8 C 6.27 g/m*3 6.8 C 1.6 km/h
862 22-04-2015 23:45:00 6.8 C 6.27 g/m*3 6.8 C 0 km/h
863 22-04-2015 23:50:00 6.7 C 6.15 g/m*3 6.7 C 0 km/h
864 22-04-2015 23:55:00 6.6 C 6.11 g/m*3 6.6 C 0 km/h
865 23-04-2015 00:00:00 6.5 C 6.07 g/m*3 6.5 C 0 km/h
866 23-04-2015 00:05:00 6.4 C 6.04 g/m*3 6.4 C 0 km/h
867 23-04-2015 00:10:00 6.3 C 6.07 g/m*3 6.3 C 0 km/h
868 23-04-2015 00:15:00 6.2 C 6.1 g/m*3 6.2 C 0 km/h
869 23-04-2015 00:20:00 6.1 C 6.06 g/m*3 6.1 C 0 km/h
870 23-04-2015 00:25:00 6 C 6.1 g/m*3 6 C 0 km/h
871 23-04-2015 00:30:00 5.9 C 6.06 g/m*3 5.9 C 0 km/h
872 23-04-2015 00:35:00 5.9 C 6.06 g/m*3 5.9 C 0 km/h
873 23-04-2015 00:40:00 5.8 C 6.02 g/m*3 5.8 C 1.6 km/h
874 23-04-2015 00:45:00 5.8 C 6.02 g/m*3 5.8 C 0 km/h
875 23-04-2015 00:50:00 5.7 C 5.98 g/m*3 5.7 C 0 km/h
Sensor: Nr:Datum:Temp:Abs-Feuchte:Windchill:Wind:
Aussen-T/F 876 23-04-2015 00:55:00 5.7 C 6.05 g/m*3 5.7 C 0 km/h
877 23-04-2015 01:00:00 5.6 C 6.01 g/m*3 5.6 C 1.6 km/h
878 23-04-2015 01:05:00 5.6 C 6.01 g/m*3 5.6 C 0 km/h
879 23-04-2015 01:10:00 5.5 C 5.97 g/m*3 5.5 C 0 km/h
880 23-04-2015 01:15:00 5.4 C 5.93 g/m*3 5.4 C 0 km/h
881 23-04-2015 01:20:00 5.3 C 5.89 g/m*3 5.3 C 0 km/h
882 23-04-2015 01:25:00 5.3 C 5.89 g/m*3 5.3 C 0 km/h
883 23-04-2015 01:30:00 5.2 C 5.85 g/m*3 5.2 C 0 km/h
884 23-04-2015 01:35:00 5.1 C 5.88 g/m*3 5.1 C 0 km/h
885 23-04-2015 01:40:00 5 C 5.84 g/m*3 5 C 0 km/h
886 23-04-2015 01:45:00 5 C 5.91 g/m*3 5 C 0 km/h
887 23-04-2015 01:50:00 4.9 C 5.87 g/m*3 4.9 C 0 km/h
888 23-04-2015 01:55:00 4.9 C 5.87 g/m*3 4.9 C 0 km/h
889 23-04-2015 02:00:00 4.8 C 5.83 g/m*3 4.8 C 0 km/h
890 23-04-2015 02:05:00 4.8 C 5.83 g/m*3 4.8 C 0 km/h
891 23-04-2015 02:10:00 4.7 C 5.8 g/m*3 4.7 C 0 km/h
892 23-04-2015 02:15:00 4.7 C 5.8 g/m*3 4.7 C 0 km/h
893 23-04-2015 02:20:00 4.6 C 5.82 g/m*3 4.6 C 0 km/h
894 23-04-2015 02:25:00 4.6 C 5.82 g/m*3 4.6 C 0 km/h
895 23-04-2015 02:30:00 4.5 C 5.78 g/m*3 4.5 C 0 km/h
896 23-04-2015 02:35:00 4.4 C 5.75 g/m*3 4.4 C 0 km/h
897 23-04-2015 02:40:00 4.4 C 5.81 g/m*3 4.4 C 0 km/h
898 23-04-2015 02:45:00 4.3 C 5.77 g/m*3 4.3 C 0 km/h
899 23-04-2015 02:50:00 4.2 C 5.73 g/m*3 4.2 C 0 km/h
900 23-04-2015 02:55:00 4.2 C 5.8 g/m*3 4.2 C 0 km/h
Sensor: Nr:Datum:Temp:Abs-Feuchte:Windchill:Wind:
Aussen-T/F 901 23-04-2015 03:00:00 4.2 C 5.8 g/m*3 4.2 C 1.6 km/h
902 23-04-2015 03:05:00 4.2 C 5.8 g/m*3 4.2 C 0 km/h
903 23-04-2015 03:10:00 4.2 C 5.8 g/m*3 4.2 C 0 km/h
904 23-04-2015 03:15:00 4.2 C 5.8 g/m*3 4.2 C 0 km/h
905 23-04-2015 03:20:00 4.1 C 5.76 g/m*3 4.1 C 0 km/h
906 23-04-2015 03:25:00 4 C 5.72 g/m*3 4 C 0 km/h
907 23-04-2015 03:30:00 3.9 C 5.75 g/m*3 3.9 C 0 km/h
908 23-04-2015 03:35:00 3.9 C 5.75 g/m*3 3.9 C 0 km/h
909 23-04-2015 03:40:00 3.9 C 5.75 g/m*3 3.9 C 0 km/h
910 23-04-2015 03:45:00 3.8 C 5.71 g/m*3 3.8 C 0 km/h
911 23-04-2015 03:50:00 3.8 C 5.71 g/m*3 3.8 C 0 km/h
912 23-04-2015 03:55:00 3.7 C 5.67 g/m*3 3.7 C 0 km/h
913 23-04-2015 04:00:00 3.7 C 5.67 g/m*3 3.7 C 0 km/h
914 23-04-2015 04:05:00 3.7 C 5.73 g/m*3 3.7 C 0 km/h
915 23-04-2015 04:10:00 3.7 C 5.73 g/m*3 3.7 C 0 km/h
916 23-04-2015 04:15:00 3.6 C 5.69 g/m*3 3.6 C 0 km/h
917 23-04-2015 04:20:00 3.5 C 5.66 g/m*3 3.5 C 0 km/h
918 23-04-2015 04:25:00 3.5 C 5.66 g/m*3 3.5 C 0 km/h
919 23-04-2015 04:30:00 3.4 C 5.62 g/m*3 3.4 C 0 km/h
920 23-04-2015 04:35:00 3.3 C 5.58 g/m*3 3.3 C 0 km/h
921 23-04-2015 04:40:00 3.3 C 5.58 g/m*3 3.3 C 0 km/h
922 23-04-2015 04:45:00 3.2 C 5.54 g/m*3 3.2 C 0 km/h
923 23-04-2015 04:50:00 3.2 C 5.54 g/m*3 3.2 C 0 km/h
924 23-04-2015 04:55:00 3.2 C 5.6 g/m*3 3.2 C 0 km/h
925 23-04-2015 05:00:00 3.2 C 5.6 g/m*3 3.2 C 0 km/h
Sensor: Nr:Datum:Temp:Abs-Feuchte:Windchill:Wind:
Aussen-T/F 926 23-04-2015 05:05:00 3.1 C 5.57 g/m*3 3.1 C 0 km/h
927 23-04-2015 05:10:00 3.1 C 5.57 g/m*3 3.1 C 0 km/h
928 23-04-2015 05:15:00 3 C 5.53 g/m*3 3 C 0 km/h
929 23-04-2015 05:20:00 2.9 C 5.49 g/m*3 2.9 C 0 km/h
930 23-04-2015 05:25:00 2.8 C 5.46 g/m*3 2.8 C 0 km/h
931 23-04-2015 05:30:00 2.8 C 5.46 g/m*3 2.8 C 0 km/h
932 23-04-2015 05:35:00 2.7 C 5.42 g/m*3 2.7 C 0 km/h
933 23-04-2015 05:40:00 2.7 C 5.42 g/m*3 2.7 C 0 km/h
934 23-04-2015 05:45:00 2.7 C 5.48 g/m*3 2.7 C 0 km/h
935 23-04-2015 05:50:00 2.6 C 5.44 g/m*3 2.6 C 0 km/h
936 23-04-2015 05:55:00 2.6 C 5.44 g/m*3 2.6 C 0 km/h
937 23-04-2015 06:00:00 2.6 C 5.44 g/m*3 2.6 C 1.6 km/h
938 23-04-2015 06:05:00 2.5 C 5.4 g/m*3 2.5 C 0 km/h
939 23-04-2015 06:10:00 2.4 C 5.37 g/m*3 2.4 C 0 km/h
940 23-04-2015 06:15:00 2.4 C 5.37 g/m*3 2.4 C 0 km/h
941 23-04-2015 06:20:00 2.4 C 5.37 g/m*3 2.4 C 0 km/h
942 23-04-2015 06:25:00 2.3 C 5.33 g/m*3 2.3 C 0 km/h
943 23-04-2015 06:30:00 2.2 C 5.29 g/m*3 2.2 C 3.2 km/h
944 23-04-2015 06:35:00 2.3 C 5.33 g/m*3 2.3 C 0 km/h
945 23-04-2015 06:40:00 2.3 C 5.33 g/m*3 2.3 C 0 km/h
946 23-04-2015 06:45:00 2.3 C 5.33 g/m*3 2.3 C 0 km/h
947 23-04-2015 06:50:00 2.3 C 5.33 g/m*3 2.3 C 0 km/h
948 23-04-2015 06:55:00 2.3 C 5.33 g/m*3 2.3 C 0 km/h
949 23-04-2015 07:00:00 2.3 C 5.33 g/m*3 2.3 C 0 km/h
950 23-04-2015 07:05:00 2.4 C 5.37 g/m*3 2.4 C 0 km/h
Sensor: Nr:Datum:Temp:Abs-Feuchte:Windchill:Wind:
Aussen-T/F 951 23-04-2015 07:10:00 2.4 C 5.37 g/m*3 2.4 C 0 km/h
952 23-04-2015 07:15:00 2.4 C 5.42 g/m*3 2.4 C 0 km/h
953 23-04-2015 07:20:00 2.4 C 5.42 g/m*3 2.4 C 3.2 km/h
954 23-04-2015 07:25:00 2.5 C 5.46 g/m*3 2.5 C 0 km/h
955 23-04-2015 07:30:00 2.6 C 5.5 g/m*3 2.6 C 0 km/h
956 23-04-2015 07:35:00 2.6 C 5.5 g/m*3 2.6 C 0 km/h
957 23-04-2015 07:40:00 2.7 C 5.54 g/m*3 2.7 C 0 km/h
958 23-04-2015 07:45:00 2.8 C 5.57 g/m*3 2.8 C 0 km/h
959 23-04-2015 07:50:00 2.8 C 5.57 g/m*3 2.8 C 0 km/h
960 23-04-2015 07:55:00 2.8 C 5.57 g/m*3 2.8 C 0 km/h
961 23-04-2015 08:00:00 2.8 C 5.57 g/m*3 2.8 C 0 km/h
962 23-04-2015 08:05:00 2.9 C 5.61 g/m*3 2.9 C 0 km/h
963 23-04-2015 08:10:00 2.9 C 5.61 g/m*3 2.9 C 0 km/h
964 23-04-2015 08:15:00 3.1 C 5.69 g/m*3 3.1 C 0 km/h
965 23-04-2015 08:20:00 3.2 C 5.72 g/m*3 3.2 C 0 km/h
966 23-04-2015 08:25:00 3.3 C 5.76 g/m*3 3.3 C 0 km/h
967 23-04-2015 08:30:00 3.3 C 5.76 g/m*3 3.3 C 0 km/h
968 23-04-2015 08:35:00 3.4 C 5.8 g/m*3 3.4 C 0 km/h
969 23-04-2015 08:40:00 3.6 C 5.88 g/m*3 3.6 C 0 km/h
970 23-04-2015 08:45:00 3.7 C 5.92 g/m*3 3.7 C 0 km/h
971 23-04-2015 08:50:00 3.8 C 5.96 g/m*3 3.8 C 0 km/h
972 23-04-2015 08:55:00 3.9 C 6 g/m*3 3.9 C 0 km/h
973 23-04-2015 09:00:00 4.1 C 6.08 g/m*3 4.1 C 0 km/h
974 23-04-2015 09:05:00 4.3 C 6.16 g/m*3 4.3 C 0 km/h
975 23-04-2015 09:10:00 4.6 C 6.29 g/m*3 4.6 C 0 km/h
Sensor: Nr:Datum:Temp:Abs-Feuchte:Windchill:Wind:
Aussen-T/F 976 23-04-2015 09:15:00 4.8 C 6.3 g/m*3 4.8 C 1.6 km/h
977 23-04-2015 09:20:00 5 C 6.39 g/m*3 5 C 1.6 km/h
978 23-04-2015 09:25:00 5.2 C 6.47 g/m*3 5.2 C 0 km/h
979 23-04-2015 09:30:00 5.3 C 6.52 g/m*3 5.3 C 0 km/h
980 23-04-2015 09:35:00 5.6 C 6.57 g/m*3 5.6 C 0 km/h
981 23-04-2015 09:40:00 5.7 C 6.62 g/m*3 5.7 C 0 km/h
982 23-04-2015 09:45:00 5.9 C 6.63 g/m*3 5.9 C 0 km/h
983 23-04-2015 09:50:00 6.1 C 6.72 g/m*3 6.1 C 0 km/h
984 23-04-2015 09:55:00 6.3 C 6.74 g/m*3 6.3 C 0 km/h
985 23-04-2015 10:00:00 6.5 C 6.82 g/m*3 6.5 C 0 km/h
986 23-04-2015 10:05:00 6.7 C 6.84 g/m*3 6.7 C 0 km/h
987 23-04-2015 10:10:00 6.9 C 6.85 g/m*3 6.9 C 0 km/h
988 23-04-2015 10:15:00 7.2 C 6.91 g/m*3 7.2 C 1.6 km/h
989 23-04-2015 10:20:00 7.4 C 7 g/m*3 7.4 C 1.6 km/h
990 23-04-2015 10:25:00 7.8 C 7.1 g/m*3 7.8 C 0 km/h
991 23-04-2015 10:30:00 8 C 7.03 g/m*3 8 C 0 km/h
992 23-04-2015 10:35:00 8.3 C 7 g/m*3 8.3 C 1.6 km/h
993 23-04-2015 10:40:00 8.7 C 7.18 g/m*3 8.7 C 1.6 km/h
994 23-04-2015 10:45:00 8.9 C 7.1 g/m*3 8.9 C 1.6 km/h
995 23-04-2015 10:50:00 9.2 C 7.14 g/m*3 9.2 C 0 km/h
996 23-04-2015 10:55:00 9.5 C 7.1 g/m*3 9.5 C 1.6 km/h
997 23-04-2015 11:00:00 9.8 C 7.14 g/m*3 9.8 C 3.2 km/h
998 23-04-2015 11:05:00 10.2 C 7.33 g/m*3 10.2 C 1.6 km/h
999 23-04-2015 11:10:00 10.5 C 7.27 g/m*3 10.5 C 1.6 km/h
1000 23-04-2015 11:15:00 10.9 C 7.46 g/m*3 10.9 C 0 km/h
Sensor: Nr:Datum:Temp:Abs-Feuchte:Windchill:Wind:
Aussen-T/F 1001 23-04-2015 11:20:00 11.3 C 7.55 g/m*3 11.3 C 1.6 km/h
1002 23-04-2015 11:25:00 11.8 C 7.68 g/m*3 11.8 C 4.8 km/h
1003 23-04-2015 11:30:00 12.3 C 7.6 g/m*3 12.3 C 4.8 km/h
1004 23-04-2015 11:35:00 12.6 C 7.52 g/m*3 12.6 C 8.1 km/h
1005 23-04-2015 11:40:00 12.9 C 7.55 g/m*3 12.9 C 1.6 km/h
1006 23-04-2015 11:45:00 13.1 C 7.42 g/m*3 13.1 C 3.2 km/h
1007 23-04-2015 11:50:00 13.3 C 7.51 g/m*3 13.3 C 8.1 km/h
1008 23-04-2015 11:55:00 13.4 C 7.32 g/m*3 13.4 C 4.8 km/h
1009 23-04-2015 12:00:00 13.4 C 7.32 g/m*3 13.4 C 3.2 km/h
1010 23-04-2015 12:05:00 13.6 C 7.3 g/m*3 13.6 C 4.8 km/h
1011 23-04-2015 12:10:00 13.9 C 7.43 g/m*3 13.9 C 9.7 km/h
1012 23-04-2015 12:15:00 14.4 C 7.79 g/m*3 14.4 C 9.7 km/h
1013 23-04-2015 12:20:00 14.7 C 7.3 g/m*3 14.7 C 3.2 km/h
1014 23-04-2015 12:25:00 14.9 C 7.39 g/m*3 14.9 C 4.8 km/h
1015 23-04-2015 12:30:00 15.1 C 7.48 g/m*3 15.1 C 8.1 km/h
1016 23-04-2015 12:35:00 15.4 C 7.75 g/m*3 15.4 C 11.3 km/h
1017 23-04-2015 12:40:00 15.8 C 7.81 g/m*3 15.8 C 8.1 km/h
1018 23-04-2015 12:45:00 16.2 C 7.45 g/m*3 16.2 C 6.4 km/h
1019 23-04-2015 12:50:00 16.3 C 7.63 g/m*3 16.3 C 4.8 km/h
1020 23-04-2015 12:55:00 16.6 C 7.77 g/m*3 16.6 C 1.6 km/h
1021 23-04-2015 13:00:00 16.8 C 7.58 g/m*3 16.8 C 6.4 km/h
1022 23-04-2015 13:05:00 16.9 C 7.62 g/m*3 16.9 C 8.1 km/h
1023 23-04-2015 13:10:00 17.1 C 8.3 g/m*3 17.1 C 11.3 km/h
1024 23-04-2015 13:15:00 17.3 C 7.22 g/m*3 17.3 C 6.4 km/h
1025 23-04-2015 13:20:00 17.4 C 7.26 g/m*3 17.4 C 4.8 km/h
Sensor: Nr:Datum:Temp:Abs-Feuchte:Windchill:Wind:
Aussen-T/F 1026 23-04-2015 13:25:00 17.6 C 7.35 g/m*3 17.6 C 4.8 km/h
1027 23-04-2015 13:30:00 17.7 C 7.54 g/m*3 17.7 C 9.7 km/h
1028 23-04-2015 13:35:00 17.8 C 7.13 g/m*3 17.8 C 8.1 km/h
1029 23-04-2015 13:40:00 17.9 C 7.79 g/m*3 17.9 C 4.8 km/h
1030 23-04-2015 13:45:00 18.2 C 7.62 g/m*3 18.2 C 6.4 km/h
1031 23-04-2015 13:50:00 18.5 C 7.28 g/m*3 18.5 C 6.4 km/h
1032 23-04-2015 13:55:00 18.7 C 7.52 g/m*3 18.7 C 8.1 km/h
1033 23-04-2015 14:00:00 18.9 C 7.29 g/m*3 18.9 C 8.1 km/h
1034 23-04-2015 14:05:00 18.9 C 7.13 g/m*3 18.9 C 6.4 km/h
1035 23-04-2015 14:10:00 18.8 C 7.57 g/m*3 18.8 C 4.8 km/h
1036 23-04-2015 14:15:00 18.9 C 6.64 g/m*3 18.9 C 4.8 km/h
1037 23-04-2015 14:20:00 18.8 C 7.09 g/m*3 18.8 C 9.7 km/h
1038 23-04-2015 14:25:00 18.9 C 7.13 g/m*3 18.9 C 11.3 km/h
1039 23-04-2015 14:30:00 19 C 7.17 g/m*3 19 C 3.2 km/h
1040 23-04-2015 14:35:00 19.1 C 6.56 g/m*3 19.1 C 6.4 km/h
1041 23-04-2015 14:40:00 18.8 C 6.6 g/m*3 18.8 C 11.3 km/h
1042 23-04-2015 14:45:00 18.9 C 6.48 g/m*3 18.9 C 8.1 km/h
1043 23-04-2015 14:50:00 19.1 C 7.38 g/m*3 19.1 C 6.4 km/h
1044 23-04-2015 14:55:00 19.3 C 6.47 g/m*3 19.3 C 6.4 km/h
1045 23-04-2015 15:00:00 19.3 C 6.47 g/m*3 19.3 C 6.4 km/h
1046 23-04-2015 15:05:00 19.3 C 5.81 g/m*3 19.3 C 8.1 km/h
1047 23-04-2015 15:10:00 19.3 C 6.8 g/m*3 19.3 C 6.4 km/h
1048 23-04-2015 15:15:00 19.5 C 6.88 g/m*3 19.5 C 8.1 km/h
1049 23-04-2015 15:20:00 19.4 C 6.51 g/m*3 19.4 C 12.9 km/h
1050 23-04-2015 15:25:00 19.3 C 6.8 g/m*3 19.3 C 6.4 km/h
Sensor: Nr:Datum:Temp:Abs-Feuchte:Windchill:Wind:
Aussen-T/F 1051 23-04-2015 15:30:00 19.4 C 7.34 g/m*3 19.4 C 3.2 km/h
1052 23-04-2015 15:35:00 19.4 C 6.67 g/m*3 19.4 C 3.2 km/h
1053 23-04-2015 15:40:00 19.5 C 7.55 g/m*3 19.5 C 8.1 km/h
1054 23-04-2015 15:45:00 19.8 C 7.17 g/m*3 19.8 C 6.4 km/h
1055 23-04-2015 15:50:00 20.1 C 6.78 g/m*3 20.1 C 8.1 km/h
1056 23-04-2015 15:55:00 20.3 C 6.68 g/m*3 20.3 C 9.7 km/h
1057 23-04-2015 16:00:00 20.7 C 6.66 g/m*3 20.7 C 11.3 km/h
1058 23-04-2015 16:05:00 20.8 C 6.88 g/m*3 20.8 C 8.1 km/h
1059 23-04-2015 16:10:00 20.7 C 6.84 g/m*3 20.7 C 9.7 km/h
1060 23-04-2015 16:15:00 20.9 C 6.92 g/m*3 20.9 C 6.4 km/h
1061 23-04-2015 16:20:00 20.9 C 7.29 g/m*3 20.9 C 8.1 km/h
1062 23-04-2015 16:25:00 20.9 C 6.74 g/m*3 20.9 C 11.3 km/h
1063 23-04-2015 16:30:00 20.7 C 6.48 g/m*3 20.7 C 8.1 km/h
1064 23-04-2015 16:35:00 20.6 C 6.98 g/m*3 20.6 C 8.1 km/h
1065 23-04-2015 16:40:00 20.5 C 6.58 g/m*3 20.5 C 8.1 km/h
1066 23-04-2015 16:45:00 20.5 C 5.87 g/m*3 20.5 C 6.4 km/h
1067 23-04-2015 16:50:00 20.7 C 6.66 g/m*3 20.7 C 4.8 km/h
1068 23-04-2015 16:55:00 20.8 C 6.52 g/m*3 20.8 C 8.1 km/h
1069 23-04-2015 17:00:00 21.1 C 6.82 g/m*3 21.1 C 8.1 km/h
1070 23-04-2015 17:05:00 21.2 C 6.3 g/m*3 21.2 C 11.3 km/h
1071 23-04-2015 17:10:00 20.9 C 6.56 g/m*3 20.9 C 8.1 km/h
1072 23-04-2015 17:15:00 21 C 7.33 g/m*3 21 C 11.3 km/h
1073 23-04-2015 17:20:00 21.3 C 6.34 g/m*3 21.3 C 6.4 km/h
1074 23-04-2015 17:25:00 21.4 C 6.56 g/m*3 21.4 C 6.4 km/h
1075 23-04-2015 17:30:00 21.4 C 6.94 g/m*3 21.4 C 9.7 km/h
Sensor: Nr:Datum:Temp:Abs-Feuchte:Windchill:Wind:
Aussen-T/F 1076 23-04-2015 17:35:00 21.4 C 6.19 g/m*3 21.4 C 6.4 km/h
1077 23-04-2015 17:40:00 21.2 C 6.3 g/m*3 21.2 C 9.7 km/h
1078 23-04-2015 17:45:00 21.1 C 6.63 g/m*3 21.1 C 9.7 km/h
1079 23-04-2015 17:50:00 21.1 C 6.45 g/m*3 21.1 C 8.1 km/h
1080 23-04-2015 17:55:00 20.9 C 6.74 g/m*3 20.9 C 9.7 km/h
1081 23-04-2015 18:00:00 20.8 C 6.7 g/m*3 20.8 C 8.1 km/h
1082 23-04-2015 18:05:00 20.8 C 6.7 g/m*3 20.8 C 11.3 km/h
1083 23-04-2015 18:10:00 20.9 C 6.92 g/m*3 20.9 C 8.1 km/h
1084 23-04-2015 18:15:00 20.9 C 7.1 g/m*3 20.9 C 8.1 km/h
1085 23-04-2015 18:20:00 21 C 6.96 g/m*3 21 C 9.7 km/h
1086 23-04-2015 18:25:00 21.1 C 6.63 g/m*3 21.1 C 8.1 km/h
1087 23-04-2015 18:30:00 21 C 6.78 g/m*3 21 C 3.2 km/h
1088 23-04-2015 18:35:00 20.9 C 6.74 g/m*3 20.9 C 4.8 km/h
1089 23-04-2015 18:40:00 20.9 C 6.74 g/m*3 20.9 C 4.8 km/h
1090 23-04-2015 18:45:00 20.8 C 6.52 g/m*3 20.8 C 9.7 km/h
1091 23-04-2015 18:50:00 20.6 C 6.62 g/m*3 20.6 C 11.3 km/h
1092 23-04-2015 18:55:00 20.4 C 6.55 g/m*3 20.4 C 6.4 km/h
1093 23-04-2015 19:00:00 20.3 C 6.51 g/m*3 20.3 C 3.2 km/h
1094 23-04-2015 19:05:00 20.4 C 6.72 g/m*3 20.4 C 4.8 km/h
1095 23-04-2015 19:10:00 20.4 C 6.72 g/m*3 20.4 C 4.8 km/h
1096 23-04-2015 19:15:00 20.3 C 6.68 g/m*3 20.3 C 4.8 km/h
1097 23-04-2015 19:20:00 20.2 C 6.64 g/m*3 20.2 C 4.8 km/h
1098 23-04-2015 19:25:00 20.2 C 6.64 g/m*3 20.2 C 4.8 km/h
1099 23-04-2015 19:30:00 20 C 6.57 g/m*3 20 C 4.8 km/h
1100 23-04-2015 19:35:00 19.9 C 6.7 g/m*3 19.9 C 4.8 km/h
Sensor: Nr:Datum:Temp:Abs-Feuchte:Windchill:Wind:
Aussen-T/F 1101 23-04-2015 19:40:00 19.9 C 7.22 g/m*3 19.9 C 3.2 km/h
1102 23-04-2015 19:45:00 19.7 C 7.3 g/m*3 19.7 C 4.8 km/h
1103 23-04-2015 19:50:00 19.2 C 7.59 g/m*3 19.2 C 1.6 km/h
1104 23-04-2015 19:55:00 18.6 C 7.64 g/m*3 18.6 C 0 km/h
1105 23-04-2015 20:00:00 17.8 C 7.74 g/m*3 17.8 C 1.6 km/h
1106 23-04-2015 20:05:00 17 C 7.81 g/m*3 17 C 1.6 km/h
1107 23-04-2015 20:10:00 16.3 C 7.77 g/m*3 16.3 C 3.2 km/h
1108 23-04-2015 20:15:00 15.7 C 7.76 g/m*3 15.7 C 4.8 km/h
1109 23-04-2015 20:20:00 15.2 C 7.66 g/m*3 15.2 C 4.8 km/h
1110 23-04-2015 20:25:00 14.8 C 7.6 g/m*3 14.8 C 4.8 km/h
1111 23-04-2015 20:30:00 14.3 C 7.62 g/m*3 14.3 C 4.8 km/h
1112 23-04-2015 20:35:00 14 C 7.48 g/m*3 14 C 4.8 km/h
1113 23-04-2015 20:40:00 13.8 C 7.51 g/m*3 13.8 C 6.4 km/h
1114 23-04-2015 20:45:00 13.6 C 7.41 g/m*3 13.6 C 6.4 km/h
1115 23-04-2015 20:50:00 13.3 C 7.28 g/m*3 13.3 C 4.8 km/h
1116 23-04-2015 20:55:00 13.1 C 7.3 g/m*3 13.1 C 4.8 km/h
1117 23-04-2015 21:00:00 12.9 C 7.55 g/m*3 12.9 C 6.4 km/h
1118 23-04-2015 21:05:00 12.8 C 7.39 g/m*3 12.8 C 3.2 km/h
1119 23-04-2015 21:10:00 12.7 C 7.35 g/m*3 12.7 C 3.2 km/h
1120 23-04-2015 21:15:00 12.5 C 7.26 g/m*3 12.5 C 3.2 km/h
1121 23-04-2015 21:20:00 12.4 C 7.32 g/m*3 12.4 C 3.2 km/h
1122 23-04-2015 21:25:00 12.3 C 7.28 g/m*3 12.3 C 3.2 km/h
1123 23-04-2015 21:30:00 12.2 C 7.34 g/m*3 12.2 C 1.6 km/h
1124 23-04-2015 21:35:00 12.1 C 7.29 g/m*3 12.1 C 3.2 km/h
1125 23-04-2015 21:40:00 11.9 C 7.2 g/m*3 11.9 C 3.2 km/h
Sensor: Nr:Datum:Temp:Abs-Feuchte:Windchill:Wind:
Aussen-T/F 1126 23-04-2015 21:45:00 11.8 C 7.26 g/m*3 11.8 C 3.2 km/h
1127 23-04-2015 21:50:00 11.7 C 7.32 g/m*3 11.7 C 1.6 km/h
1128 23-04-2015 21:55:00 11.5 C 7.23 g/m*3 11.5 C 1.6 km/h
1129 23-04-2015 22:00:00 11.3 C 7.24 g/m*3 11.3 C 1.6 km/h
1130 23-04-2015 22:05:00 11.1 C 7.25 g/m*3 11.1 C 0 km/h
1131 23-04-2015 22:10:00 10.9 C 7.26 g/m*3 10.9 C 1.6 km/h
1132 23-04-2015 22:15:00 10.8 C 7.12 g/m*3 10.8 C 1.6 km/h
1133 23-04-2015 22:20:00 10.8 C 7.12 g/m*3 10.8 C 0 km/h
1134 23-04-2015 22:25:00 10.7 C 7.07 g/m*3 10.7 C 0 km/h
1135 23-04-2015 22:30:00 10.6 C 7.03 g/m*3 10.6 C 0 km/h
1136 23-04-2015 22:35:00 10.5 C 7.08 g/m*3 10.5 C 1.6 km/h
1137 23-04-2015 22:40:00 10.4 C 7.04 g/m*3 10.4 C 0 km/h
1138 23-04-2015 22:45:00 10.3 C 6.99 g/m*3 10.3 C 0 km/h
1139 23-04-2015 22:50:00 10.1 C 7 g/m*3 10.1 C 0 km/h
1140 23-04-2015 22:55:00 10 C 6.95 g/m*3 10 C 0 km/h
1141 23-04-2015 23:00:00 9.8 C 6.96 g/m*3 9.8 C 0 km/h
1142 23-04-2015 23:05:00 9.7 C 6.91 g/m*3 9.7 C 0 km/h
1143 23-04-2015 23:10:00 9.6 C 6.96 g/m*3 9.6 C 0 km/h
1144 23-04-2015 23:15:00 9.4 C 6.87 g/m*3 9.4 C 0 km/h
1145 23-04-2015 23:20:00 9.3 C 6.92 g/m*3 9.3 C 0 km/h
1146 23-04-2015 23:25:00 9.2 C 6.79 g/m*3 9.2 C 0 km/h
1147 23-04-2015 23:30:00 9.2 C 6.79 g/m*3 9.2 C 0 km/h
1148 23-04-2015 23:35:00 9.2 C 6.79 g/m*3 9.2 C 0 km/h
1149 23-04-2015 23:40:00 9.1 C 6.74 g/m*3 9.1 C 0 km/h
1150 23-04-2015 23:45:00 9 C 6.79 g/m*3 9 C 0 km/h
Sensor: Nr:Datum:Temp:Abs-Feuchte:Windchill:Wind:
Aussen-T/F 1151 23-04-2015 23:50:00 8.9 C 6.83 g/m*3 8.9 C 0 km/h
1152 23-04-2015 23:55:00 8.7 C 6.75 g/m*3 8.7 C 0 km/h
1153 24-04-2015 00:00:00 8.6 C 6.79 g/m*3 8.6 C 0 km/h
1154 24-04-2015 00:05:00 8.6 C 6.79 g/m*3 8.6 C 0 km/h
1155 24-04-2015 00:10:00 8.5 C 6.74 g/m*3 8.5 C 0 km/h
1156 24-04-2015 00:15:00 8.4 C 6.79 g/m*3 8.4 C 0 km/h
1157 24-04-2015 00:20:00 8.4 C 6.79 g/m*3 8.4 C 0 km/h
1158 24-04-2015 00:25:00 8.3 C 6.74 g/m*3 8.3 C 0 km/h
1159 24-04-2015 00:30:00 8.3 C 6.74 g/m*3 8.3 C 1.6 km/h
1160 24-04-2015 00:35:00 8.2 C 6.78 g/m*3 8.2 C 0 km/h
1161 24-04-2015 00:40:00 8.2 C 6.87 g/m*3 8.2 C 0 km/h
1162 24-04-2015 00:45:00 8.2 C 6.78 g/m*3 8.2 C 0 km/h
1163 24-04-2015 00:50:00 8.2 C 6.78 g/m*3 8.2 C 0 km/h
1164 24-04-2015 00:55:00 8.1 C 6.66 g/m*3 8.1 C 0 km/h
1165 24-04-2015 01:00:00 8 C 6.7 g/m*3 8 C 0 km/h
1166 24-04-2015 01:05:00 7.9 C 6.65 g/m*3 7.9 C 0 km/h
1167 24-04-2015 01:10:00 7.7 C 6.57 g/m*3 7.7 C 1.6 km/h
1168 24-04-2015 01:15:00 7.6 C 6.61 g/m*3 7.6 C 0 km/h
1169 24-04-2015 01:20:00 7.5 C 6.56 g/m*3 7.5 C 0 km/h
1170 24-04-2015 01:25:00 7.4 C 6.52 g/m*3 7.4 C 0 km/h
1171 24-04-2015 01:30:00 7.3 C 6.56 g/m*3 7.3 C 0 km/h
1172 24-04-2015 01:35:00 7.2 C 6.52 g/m*3 7.2 C 0 km/h
1173 24-04-2015 01:40:00 7.2 C 6.52 g/m*3 7.2 C 0 km/h
1174 24-04-2015 01:45:00 7.2 C 6.59 g/m*3 7.2 C 0 km/h
1175 24-04-2015 01:50:00 7.1 C 6.55 g/m*3 7.1 C 0 km/h
Sensor: Nr:Datum:Temp:Abs-Feuchte:Windchill:Wind:
Aussen-T/F 1176 24-04-2015 01:55:00 7.1 C 6.47 g/m*3 7.1 C 0 km/h
1177 24-04-2015 02:00:00 7.1 C 6.55 g/m*3 7.1 C 0 km/h
1178 24-04-2015 02:05:00 6.9 C 6.47 g/m*3 6.9 C 0 km/h
1179 24-04-2015 02:10:00 6.9 C 6.47 g/m*3 6.9 C 0 km/h
1180 24-04-2015 02:15:00 6.8 C 6.42 g/m*3 6.8 C 0 km/h
1181 24-04-2015 02:20:00 6.8 C 6.5 g/m*3 6.8 C 0 km/h
1182 24-04-2015 02:25:00 6.8 C 6.5 g/m*3 6.8 C 0 km/h
1183 24-04-2015 02:30:00 6.7 C 6.46 g/m*3 6.7 C 0 km/h
1184 24-04-2015 02:35:00 6.6 C 6.49 g/m*3 6.6 C 0 km/h
1185 24-04-2015 02:40:00 6.5 C 6.45 g/m*3 6.5 C 0 km/h
1186 24-04-2015 02:45:00 6.4 C 6.41 g/m*3 6.4 C 0 km/h
1187 24-04-2015 02:50:00 6.4 C 6.41 g/m*3 6.4 C 0 km/h
1188 24-04-2015 02:55:00 6.3 C 6.44 g/m*3 6.3 C 0 km/h
1189 24-04-2015 03:00:00 6.3 C 6.44 g/m*3 6.3 C 0 km/h
1190 24-04-2015 03:05:00 6.3 C 6.44 g/m*3 6.3 C 0 km/h
1191 24-04-2015 03:10:00 6.2 C 6.4 g/m*3 6.2 C 3.2 km/h
1192 24-04-2015 03:15:00 6.3 C 6.44 g/m*3 6.3 C 1.6 km/h
1193 24-04-2015 03:20:00 6.2 C 6.4 g/m*3 6.2 C 0 km/h
1194 24-04-2015 03:25:00 6.2 C 6.4 g/m*3 6.2 C 1.6 km/h
1195 24-04-2015 03:30:00 6.2 C 6.4 g/m*3 6.2 C 1.6 km/h
1196 24-04-2015 03:35:00 6.2 C 6.4 g/m*3 6.2 C 0 km/h
1197 24-04-2015 03:40:00 6 C 6.31 g/m*3 6 C 0 km/h
1198 24-04-2015 03:45:00 5.9 C 6.35 g/m*3 5.9 C 0 km/h
1199 24-04-2015 03:50:00 5.8 C 6.3 g/m*3 5.8 C 0 km/h
1200 24-04-2015 03:55:00 5.7 C 6.33 g/m*3 5.7 C 0 km/h
Sensor: Nr:Datum:Temp:Abs-Feuchte:Windchill:Wind:
Aussen-T/F 1201 24-04-2015 04:00:00 5.7 C 6.26 g/m*3 5.7 C 0 km/h
1202 24-04-2015 04:05:00 5.6 C 6.22 g/m*3 5.6 C 0 km/h
1203 24-04-2015 04:10:00 5.6 C 6.22 g/m*3 5.6 C 0 km/h
1204 24-04-2015 04:15:00 5.5 C 6.25 g/m*3 5.5 C 0 km/h
1205 24-04-2015 04:20:00 5.4 C 6.21 g/m*3 5.4 C 0 km/h
1206 24-04-2015 04:25:00 5.3 C 6.17 g/m*3 5.3 C 0 km/h
1207 24-04-2015 04:30:00 5.3 C 6.24 g/m*3 5.3 C 0 km/h
1208 24-04-2015 04:35:00 5.3 C 6.24 g/m*3 5.3 C 0 km/h
1209 24-04-2015 04:40:00 5.2 C 6.2 g/m*3 5.2 C 0 km/h
1210 24-04-2015 04:45:00 5.1 C 6.16 g/m*3 5.1 C 0 km/h
1211 24-04-2015 04:50:00 5.1 C 6.16 g/m*3 5.1 C 0 km/h
1212 24-04-2015 04:55:00 5.1 C 6.22 g/m*3 5.1 C 0 km/h
1213 24-04-2015 05:00:00 4.9 C 6.08 g/m*3 4.9 C 0 km/h
1214 24-04-2015 05:05:00 4.9 C 6.14 g/m*3 4.9 C 0 km/h
1215 24-04-2015 05:10:00 4.9 C 6.14 g/m*3 4.9 C 0 km/h
1216 24-04-2015 05:15:00 4.8 C 6.1 g/m*3 4.8 C 0 km/h
1217 24-04-2015 05:20:00 4.8 C 6.1 g/m*3 4.8 C 0 km/h
1218 24-04-2015 05:25:00 4.7 C 6.06 g/m*3 4.7 C 0 km/h
1219 24-04-2015 05:30:00 4.7 C 6.06 g/m*3 4.7 C 0 km/h
1220 24-04-2015 05:35:00 4.7 C 6.06 g/m*3 4.7 C 0 km/h
1221 24-04-2015 05:40:00 4.6 C 6.02 g/m*3 4.6 C 0 km/h
1222 24-04-2015 05:45:00 4.6 C 6.09 g/m*3 4.6 C 0 km/h
1223 24-04-2015 05:50:00 4.6 C 6.09 g/m*3 4.6 C 0 km/h
1224 24-04-2015 05:55:00 4.5 C 6.05 g/m*3 4.5 C 0 km/h
1225 24-04-2015 06:00:00 4.4 C 6.01 g/m*3 4.4 C 0 km/h
Sensor: Nr:Datum:Temp:Abs-Feuchte:Windchill:Wind:
Aussen-T/F 1226 24-04-2015 06:05:00 4.4 C 6.01 g/m*3 4.4 C 0 km/h
1227 24-04-2015 06:10:00 4.3 C 5.97 g/m*3 4.3 C 0 km/h
1228 24-04-2015 06:15:00 4.3 C 5.97 g/m*3 4.3 C 0 km/h
1229 24-04-2015 06:20:00 4.3 C 5.97 g/m*3 4.3 C 0 km/h
1230 24-04-2015 06:25:00 4.2 C 5.93 g/m*3 4.2 C 1.6 km/h
1231 24-04-2015 06:30:00 4.2 C 5.93 g/m*3 4.2 C 0 km/h
1232 24-04-2015 06:35:00 4.2 C 5.93 g/m*3 4.2 C 0 km/h
1233 24-04-2015 06:40:00 4.2 C 5.99 g/m*3 4.2 C 0 km/h
1234 24-04-2015 06:45:00 4.2 C 5.93 g/m*3 4.2 C 0 km/h
1235 24-04-2015 06:50:00 4.2 C 5.99 g/m*3 4.2 C 0 km/h
1236 24-04-2015 06:55:00 4.2 C 5.99 g/m*3 4.2 C 0 km/h
1237 24-04-2015 07:00:00 4.2 C 5.99 g/m*3 4.2 C 0 km/h
1238 24-04-2015 07:05:00 4.2 C 5.99 g/m*3 4.2 C 1.6 km/h
1239 24-04-2015 07:10:00 4.3 C 6.03 g/m*3 4.3 C 0 km/h
1240 24-04-2015 07:15:00 4.4 C 6.07 g/m*3 4.4 C 0 km/h
1241 24-04-2015 07:20:00 4.4 C 6.07 g/m*3 4.4 C 1.6 km/h
1242 24-04-2015 07:25:00 4.4 C 6.07 g/m*3 4.4 C 0 km/h
1243 24-04-2015 07:30:00 4.4 C 6.07 g/m*3 4.4 C 0 km/h
1244 24-04-2015 07:35:00 4.4 C 6.07 g/m*3 4.4 C 0 km/h
1245 24-04-2015 07:40:00 4.5 C 6.11 g/m*3 4.5 C 0 km/h
1246 24-04-2015 07:45:00 4.6 C 6.15 g/m*3 4.6 C 0 km/h
1247 24-04-2015 07:50:00 4.7 C 6.19 g/m*3 4.7 C 0 km/h
1248 24-04-2015 07:55:00 4.7 C 6.19 g/m*3 4.7 C 0 km/h
1249 24-04-2015 08:00:00 4.8 C 6.3 g/m*3 4.8 C 0 km/h
1250 24-04-2015 08:05:00 4.9 C 6.35 g/m*3 4.9 C 1.6 km/h
Sensor: Nr:Datum:Temp:Abs-Feuchte:Windchill:Wind:
Aussen-T/F 1251 24-04-2015 08:10:00 5.1 C 6.36 g/m*3 5.1 C 0 km/h
1252 24-04-2015 08:15:00 5.2 C 6.4 g/m*3 5.2 C 0 km/h
1253 24-04-2015 08:20:00 5.4 C 6.42 g/m*3 5.4 C 0 km/h
1254 24-04-2015 08:25:00 5.4 C 6.42 g/m*3 5.4 C 0 km/h
1255 24-04-2015 08:30:00 5.6 C 6.5 g/m*3 5.6 C 0 km/h
1256 24-04-2015 08:35:00 5.7 C 6.55 g/m*3 5.7 C 0 km/h
1257 24-04-2015 08:40:00 5.8 C 6.59 g/m*3 5.8 C 0 km/h
1258 24-04-2015 08:45:00 6 C 6.6 g/m*3 6 C 0 km/h
1259 24-04-2015 08:50:00 6.2 C 6.69 g/m*3 6.2 C 0 km/h
1260 24-04-2015 08:55:00 6.3 C 6.74 g/m*3 6.3 C 0 km/h
1261 24-04-2015 09:00:00 6.6 C 6.79 g/m*3 6.6 C 0 km/h
1262 24-04-2015 09:05:00 6.8 C 6.88 g/m*3 6.8 C 0 km/h
1263 24-04-2015 09:10:00 7.1 C 6.94 g/m*3 7.1 C 0 km/h
1264 24-04-2015 09:15:00 7.4 C 6.92 g/m*3 7.4 C 0 km/h
1265 24-04-2015 09:20:00 7.7 C 6.97 g/m*3 7.7 C 1.6 km/h
1266 24-04-2015 09:25:00 7.9 C 7.06 g/m*3 7.9 C 0 km/h
1267 24-04-2015 09:30:00 8.1 C 7.16 g/m*3 8.1 C 1.6 km/h
1268 24-04-2015 09:35:00 8.3 C 7.25 g/m*3 8.3 C 0 km/h
1269 24-04-2015 09:40:00 8.5 C 7.34 g/m*3 8.5 C 0 km/h
1270 24-04-2015 09:45:00 8.7 C 7.44 g/m*3 8.7 C 1.6 km/h
1271 24-04-2015 09:50:00 8.9 C 7.36 g/m*3 8.9 C 0 km/h
1272 24-04-2015 09:55:00 9.2 C 7.5 g/m*3 9.2 C 0 km/h
1273 24-04-2015 10:00:00 9.4 C 7.51 g/m*3 9.4 C 0 km/h
1274 24-04-2015 10:05:00 9.7 C 7.65 g/m*3 9.7 C 0 km/h
1275 24-04-2015 10:10:00 9.9 C 7.56 g/m*3 9.9 C 0 km/h
Sensor: Nr:Datum:Temp:Abs-Feuchte:Windchill:Wind:
Aussen-T/F 1276 24-04-2015 10:15:00 10.2 C 7.71 g/m*3 10.2 C 0 km/h
1277 24-04-2015 10:20:00 10.3 C 7.76 g/m*3 10.3 C 0 km/h
1278 24-04-2015 10:25:00 10.5 C 7.76 g/m*3 10.5 C 0 km/h
1279 24-04-2015 10:30:00 10.7 C 7.96 g/m*3 10.7 C 0 km/h
1280 24-04-2015 10:35:00 11.1 C 8.16 g/m*3 11.1 C 0 km/h
1281 24-04-2015 10:40:00 11.3 C 8.16 g/m*3 11.3 C 0 km/h
1282 24-04-2015 10:45:00 11.5 C 8.26 g/m*3 11.5 C 0 km/h
1283 24-04-2015 10:50:00 11.7 C 8.37 g/m*3 11.7 C 0 km/h
1284 24-04-2015 10:55:00 12.1 C 8.36 g/m*3 12.1 C 1.6 km/h
1285 24-04-2015 11:00:00 12.5 C 8.47 g/m*3 12.5 C 3.2 km/h
1286 24-04-2015 11:05:00 13 C 8.51 g/m*3 13 C 0 km/h
1287 24-04-2015 11:10:00 13.6 C 8.12 g/m*3 13.6 C 4.8 km/h
1288 24-04-2015 11:15:00 14.3 C 8.48 g/m*3 14.3 C 4.8 km/h
1289 24-04-2015 11:20:00 14.8 C 8.11 g/m*3 14.8 C 4.8 km/h
1290 24-04-2015 11:25:00 15.7 C 7.76 g/m*3 15.7 C 6.4 km/h
1291 24-04-2015 11:30:00 16.3 C 7.63 g/m*3 16.3 C 8.1 km/h
1292 24-04-2015 11:35:00 16.9 C 7.48 g/m*3 16.9 C 11.3 km/h
1293 24-04-2015 11:40:00 17.3 C 7.37 g/m*3 17.3 C 14.5 km/h
1294 24-04-2015 11:45:00 17.4 C 7.26 g/m*3 17.4 C 14.5 km/h
1295 24-04-2015 11:50:00 17.6 C 7.2 g/m*3 17.6 C 9.7 km/h
1296 24-04-2015 11:55:00 17.8 C 7.29 g/m*3 17.8 C 14.5 km/h
1297 24-04-2015 12:00:00 17.8 C 7.29 g/m*3 17.8 C 11.3 km/h
1298 24-04-2015 12:05:00 18 C 7.07 g/m*3 18 C 9.7 km/h
1299 24-04-2015 12:10:00 18.2 C 6.99 g/m*3 18.2 C 11.3 km/h
1300 24-04-2015 12:15:00 18.4 C 7.08 g/m*3 18.4 C 12.9 km/h
Sensor: Nr:Datum:Temp:Abs-Feuchte:Windchill:Wind:
Aussen-T/F 1301 24-04-2015 12:20:00 18.8 C 6.76 g/m*3 18.8 C 16.1 km/h
1302 24-04-2015 12:25:00 19 C 6.84 g/m*3 19 C 12.9 km/h
1303 24-04-2015 12:30:00 19.2 C 7.09 g/m*3 19.2 C 16.1 km/h
1304 24-04-2015 12:35:00 19.5 C 6.71 g/m*3 19.5 C 24.1 km/h
1305 24-04-2015 12:40:00 19.7 C 6.79 g/m*3 19.7 C 24.1 km/h
1306 24-04-2015 12:45:00 19.9 C 6.53 g/m*3 19.9 C 16.1 km/h
1307 24-04-2015 12:50:00 20.2 C 6.64 g/m*3 20.2 C 9.7 km/h
1308 24-04-2015 12:55:00 20.4 C 6.55 g/m*3 20.4 C 12.9 km/h
1309 24-04-2015 13:00:00 20.6 C 6.44 g/m*3 20.6 C 14.5 km/h
1310 24-04-2015 13:05:00 20.7 C 6.3 g/m*3 20.7 C 20.9 km/h
1311 24-04-2015 13:10:00 20.8 C 6.34 g/m*3 20.8 C 12.9 km/h
1312 24-04-2015 13:15:00 20.9 C 6.37 g/m*3 20.9 C 14.5 km/h
1313 24-04-2015 13:20:00 20.9 C 6.37 g/m*3 20.9 C 12.9 km/h
1314 24-04-2015 13:25:00 21.1 C 6.08 g/m*3 21.1 C 12.9 km/h
1315 24-04-2015 13:30:00 21.3 C 6.34 g/m*3 21.3 C 11.3 km/h
1316 24-04-2015 13:35:00 21.4 C 6 g/m*3 21.4 C 16.1 km/h
1317 24-04-2015 13:40:00 21.6 C 6.07 g/m*3 21.6 C 12.9 km/h
1318 24-04-2015 13:45:00 21.8 C 6.14 g/m*3 21.8 C 9.7 km/h
1319 24-04-2015 13:50:00 21.9 C 6.18 g/m*3 21.9 C 9.7 km/h
1320 24-04-2015 13:55:00 22 C 5.82 g/m*3 22 C 11.3 km/h
1321 24-04-2015 14:00:00 22.1 C 6.25 g/m*3 22.1 C 9.7 km/h
1322 24-04-2015 14:05:00 22.1 C 5.66 g/m*3 22.1 C 12.9 km/h
1323 24-04-2015 14:10:00 22.1 C 5.66 g/m*3 22.1 C 14.5 km/h
1324 24-04-2015 14:15:00 22.1 C 5.66 g/m*3 22.1 C 16.1 km/h
1325 24-04-2015 14:20:00 22.2 C 5.5 g/m*3 22.2 C 16.1 km/h
Sensor: Nr:Datum:Temp:Abs-Feuchte:Windchill:Wind:
Aussen-T/F 1326 24-04-2015 14:25:00 22.3 C 5.92 g/m*3 22.3 C 8.1 km/h
1327 24-04-2015 14:30:00 22.5 C 5.79 g/m*3 22.5 C 11.3 km/h
1328 24-04-2015 14:35:00 22.6 C 5.83 g/m*3 22.6 C 9.7 km/h
1329 24-04-2015 14:40:00 22.7 C 5.46 g/m*3 22.7 C 12.9 km/h
1330 24-04-2015 14:45:00 22.7 C 5.66 g/m*3 22.7 C 17.7 km/h
1331 24-04-2015 14:50:00 22.7 C 5.66 g/m*3 22.7 C 14.5 km/h
1332 24-04-2015 14:55:00 22.7 C 5.86 g/m*3 22.7 C 14.5 km/h
1333 24-04-2015 15:00:00 22.7 C 5.66 g/m*3 22.7 C 14.5 km/h
1334 24-04-2015 15:05:00 22.6 C 6.43 g/m*3 22.6 C 8.1 km/h
1335 24-04-2015 15:10:00 22.8 C 6.1 g/m*3 22.8 C 11.3 km/h
1336 24-04-2015 15:15:00 23.1 C 5.99 g/m*3 23.1 C 14.5 km/h
1337 24-04-2015 15:20:00 23.2 C 6.03 g/m*3 23.2 C 19.3 km/h
1338 24-04-2015 15:25:00 23.1 C 5.99 g/m*3 23.1 C 12.9 km/h
1339 24-04-2015 15:30:00 23 C 6.37 g/m*3 23 C 11.3 km/h
1340 24-04-2015 15:35:00 23.3 C 6.06 g/m*3 23.3 C 8.1 km/h
1341 24-04-2015 15:40:00 23.4 C 6.1 g/m*3 23.4 C 6.4 km/h
1342 24-04-2015 15:45:00 23.4 C 6.31 g/m*3 23.4 C 6.4 km/h
1343 24-04-2015 15:50:00 23.5 C 5.71 g/m*3 23.5 C 20.9 km/h
1344 24-04-2015 15:55:00 23.4 C 6.52 g/m*3 23.4 C 12.9 km/h
1345 24-04-2015 16:00:00 23.7 C 7.49 g/m*3 23.7 C 9.7 km/h
1346 24-04-2015 16:05:00 24 C 5.87 g/m*3 24 C 9.7 km/h
1347 24-04-2015 16:10:00 24.3 C 5.75 g/m*3 24.3 C 14.5 km/h
1348 24-04-2015 16:15:00 24.2 C 5.72 g/m*3 24.2 C 16.1 km/h
1349 24-04-2015 16:20:00 24.2 C 5.72 g/m*3 24.2 C 14.5 km/h
1350 24-04-2015 16:25:00 24.2 C 5.28 g/m*3 24.2 C 12.9 km/h
Sensor: Nr:Datum:Temp:Abs-Feuchte:Windchill:Wind:
Aussen-T/F 1351 24-04-2015 16:30:00 24.2 C 5.5 g/m*3 24.2 C 12.9 km/h
1352 24-04-2015 16:35:00 24.2 C 5.28 g/m*3 24.2 C 9.7 km/h
1353 24-04-2015 16:40:00 24.4 C 5.56 g/m*3 24.4 C 12.9 km/h
1354 24-04-2015 16:45:00 24.6 C 5.4 g/m*3 24.6 C 14.5 km/h
1355 24-04-2015 16:50:00 24.4 C 6.01 g/m*3 24.4 C 12.9 km/h
1356 24-04-2015 16:55:00 24.3 C 5.31 g/m*3 24.3 C 16.1 km/h
1357 24-04-2015 17:00:00 24.2 C 5.5 g/m*3 24.2 C 12.9 km/h
1358 24-04-2015 17:05:00 24.3 C 5.53 g/m*3 24.3 C 17.7 km/h
1359 24-04-2015 17:10:00 24.2 C 5.5 g/m*3 24.2 C 6.4 km/h
1360 24-04-2015 17:15:00 24.4 C 5.56 g/m*3 24.4 C 12.9 km/h
1361 24-04-2015 17:20:00 24.4 C 5.34 g/m*3 24.4 C 14.5 km/h
1362 24-04-2015 17:25:00 24.4 C 5.56 g/m*3 24.4 C 16.1 km/h
1363 24-04-2015 17:30:00 24.4 C 5.34 g/m*3 24.4 C 12.9 km/h
1364 24-04-2015 17:35:00 24.2 C 5.28 g/m*3 24.2 C 12.9 km/h
1365 24-04-2015 17:40:00 24.1 C 5.47 g/m*3 24.1 C 14.5 km/h
1366 24-04-2015 17:45:00 24 C 5.87 g/m*3 24 C 9.7 km/h
1367 24-04-2015 17:50:00 24 C 5.44 g/m*3 24 C 11.3 km/h
1368 24-04-2015 17:55:00 23.8 C 5.81 g/m*3 23.8 C 11.3 km/h
1369 24-04-2015 18:00:00 23.8 C 5.81 g/m*3 23.8 C 12.9 km/h
1370 24-04-2015 18:05:00 23.8 C 5.38 g/m*3 23.8 C 12.9 km/h
1371 24-04-2015 18:10:00 23.8 C 5.81 g/m*3 23.8 C 12.9 km/h
1372 24-04-2015 18:15:00 23.7 C 5.56 g/m*3 23.7 C 9.7 km/h
1373 24-04-2015 18:20:00 23.6 C 5.53 g/m*3 23.6 C 9.7 km/h
1374 24-04-2015 18:25:00 23.6 C 5.74 g/m*3 23.6 C 9.7 km/h
1375 24-04-2015 18:30:00 23.7 C 5.56 g/m*3 23.7 C 9.7 km/h
Sensor: Nr:Datum:Temp:Abs-Feuchte:Windchill:Wind:
Aussen-T/F 1376 24-04-2015 18:35:00 23.6 C 5.74 g/m*3 23.6 C 12.9 km/h
1377 24-04-2015 18:40:00 23.6 C 5.53 g/m*3 23.6 C 6.4 km/h
1378 24-04-2015 18:45:00 23.6 C 6.17 g/m*3 23.6 C 8.1 km/h
1379 24-04-2015 18:50:00 23.5 C 5.92 g/m*3 23.5 C 4.8 km/h
1380 24-04-2015 18:55:00 23.3 C 6.69 g/m*3 23.3 C 8.1 km/h
1381 24-04-2015 19:00:00 23.1 C 6.61 g/m*3 23.1 C 4.8 km/h
1382 24-04-2015 19:05:00 22.7 C 5.86 g/m*3 22.7 C 8.1 km/h
1383 24-04-2015 19:10:00 22.4 C 5.96 g/m*3 22.4 C 6.4 km/h
1384 24-04-2015 19:15:00 22.2 C 6.48 g/m*3 22.2 C 4.8 km/h
1385 24-04-2015 19:20:00 21.8 C 7.29 g/m*3 21.8 C 3.2 km/h
1386 24-04-2015 19:25:00 21.6 C 7.4 g/m*3 21.6 C 3.2 km/h
1387 24-04-2015 19:30:00 21.4 C 7.12 g/m*3 21.4 C 6.4 km/h
1388 24-04-2015 19:35:00 21.2 C 6.86 g/m*3 21.2 C 3.2 km/h
1389 24-04-2015 19:40:00 20.9 C 7.47 g/m*3 20.9 C 1.6 km/h
1390 24-04-2015 19:45:00 20.6 C 7.87 g/m*3 20.6 C 3.2 km/h
1391 24-04-2015 19:50:00 20.3 C 7.56 g/m*3 20.3 C 1.6 km/h
1392 24-04-2015 19:55:00 19.8 C 7.52 g/m*3 19.8 C 1.6 km/h
1393 24-04-2015 20:00:00 19.3 C 7.46 g/m*3 19.3 C 3.2 km/h
1394 24-04-2015 20:05:00 18.8 C 7.57 g/m*3 18.8 C 3.2 km/h
1395 24-04-2015 20:10:00 18.4 C 7.39 g/m*3 18.4 C 4.8 km/h
1396 24-04-2015 20:15:00 18.1 C 7.42 g/m*3 18.1 C 3.2 km/h
1397 24-04-2015 20:20:00 17.7 C 6.64 g/m*3 17.7 C 3.2 km/h
1398 24-04-2015 20:25:00 17.3 C 7.22 g/m*3 17.3 C 4.8 km/h
1399 24-04-2015 20:30:00 16.9 C 7.19 g/m*3 16.9 C 1.6 km/h
1400 24-04-2015 20:35:00 16.4 C 7.4 g/m*3 16.4 C 1.6 km/h
Sensor: Nr:Datum:Temp:Abs-Feuchte:Windchill:Wind:
Aussen-T/F 1401 24-04-2015 20:40:00 15.8 C 7.13 g/m*3 15.8 C 6.4 km/h
1402 24-04-2015 20:45:00 15.5 C 7.01 g/m*3 15.5 C 4.8 km/h
1403 24-04-2015 20:50:00 15.3 C 7.18 g/m*3 15.3 C 6.4 km/h
1404 24-04-2015 20:55:00 15.2 C 7.14 g/m*3 15.2 C 6.4 km/h
1405 24-04-2015 21:00:00 14.8 C 7.09 g/m*3 14.8 C 4.8 km/h
1406 24-04-2015 21:05:00 14.7 C 7.05 g/m*3 14.7 C 4.8 km/h
1407 24-04-2015 21:10:00 14.6 C 6.88 g/m*3 14.6 C 1.6 km/h
1408 24-04-2015 21:15:00 14.6 C 6.88 g/m*3 14.6 C 4.8 km/h
1409 24-04-2015 21:20:00 14.6 C 7.01 g/m*3 14.6 C 4.8 km/h
1410 24-04-2015 21:25:00 14.6 C 7.01 g/m*3 14.6 C 4.8 km/h
1411 24-04-2015 21:30:00 14.4 C 7.05 g/m*3 14.4 C 4.8 km/h
1412 24-04-2015 21:35:00 14.3 C 7 g/m*3 14.3 C 4.8 km/h
1413 24-04-2015 21:40:00 14.1 C 7.04 g/m*3 14.1 C 4.8 km/h
1414 24-04-2015 21:45:00 14 C 7 g/m*3 14 C 4.8 km/h
1415 24-04-2015 21:50:00 13.8 C 7.03 g/m*3 13.8 C 4.8 km/h
1416 24-04-2015 21:55:00 13.6 C 7.06 g/m*3 13.6 C 3.2 km/h
1417 24-04-2015 22:00:00 13.4 C 7.09 g/m*3 13.4 C 1.6 km/h
1418 24-04-2015 22:05:00 13.4 C 6.97 g/m*3 13.4 C 4.8 km/h
1419 24-04-2015 22:10:00 13.3 C 7.05 g/m*3 13.3 C 3.2 km/h
1420 24-04-2015 22:15:00 13.2 C 7.12 g/m*3 13.2 C 1.6 km/h
1421 24-04-2015 22:20:00 13 C 6.92 g/m*3 13 C 0 km/h
1422 24-04-2015 22:25:00 12.9 C 6.99 g/m*3 12.9 C 0 km/h
1423 24-04-2015 22:30:00 12.8 C 6.94 g/m*3 12.8 C 0 km/h
1424 24-04-2015 22:35:00 12.7 C 6.9 g/m*3 12.7 C 0 km/h
1425 24-04-2015 22:40:00 12.6 C 6.97 g/m*3 12.6 C 0 km/h
Sensor: Nr:Datum:Temp:Abs-Feuchte:Windchill:Wind:
Aussen-T/F 1426 24-04-2015 22:45:00 12.5 C 6.93 g/m*3 12.5 C 0 km/h
1427 24-04-2015 22:50:00 12.4 C 6.88 g/m*3 12.4 C 0 km/h
1428 24-04-2015 22:55:00 12.3 C 6.95 g/m*3 12.3 C 0 km/h
1429 24-04-2015 23:00:00 12.3 C 7.06 g/m*3 12.3 C 0 km/h
1430 24-04-2015 23:05:00 12.1 C 6.97 g/m*3 12.1 C 0 km/h
1431 24-04-2015 23:10:00 11.9 C 6.88 g/m*3 11.9 C 0 km/h
1432 24-04-2015 23:15:00 11.8 C 6.84 g/m*3 11.8 C 0 km/h
1433 24-04-2015 23:20:00 11.7 C 6.8 g/m*3 11.7 C 0 km/h
1434 24-04-2015 23:25:00 11.7 C 6.8 g/m*3 11.7 C 0 km/h
1435 24-04-2015 23:30:00 11.6 C 6.76 g/m*3 11.6 C 0 km/h
1436 24-04-2015 23:35:00 11.4 C 6.67 g/m*3 11.4 C 0 km/h
1437 24-04-2015 23:40:00 11.4 C 6.77 g/m*3 11.4 C 0 km/h
1438 24-04-2015 23:45:00 11.3 C 6.94 g/m*3 11.3 C 0 km/h
1439 24-04-2015 23:50:00 11.2 C 6.89 g/m*3 11.2 C 0 km/h
1440 24-04-2015 23:55:00 11.1 C 6.75 g/m*3 11.1 C 0 km/h
1441 25-04-2015 00:00:00 11 C 6.81 g/m*3 11 C 0 km/h
1442 25-04-2015 00:05:00 10.9 C 6.86 g/m*3 10.9 C 0 km/h
1443 25-04-2015 00:10:00 10.8 C 6.72 g/m*3 10.8 C 0 km/h
1444 25-04-2015 00:15:00 10.8 C 6.72 g/m*3 10.8 C 0 km/h
1445 25-04-2015 00:20:00 10.8 C 6.82 g/m*3 10.8 C 0 km/h
1446 25-04-2015 00:25:00 10.8 C 6.82 g/m*3 10.8 C 0 km/h
1447 25-04-2015 00:30:00 10.7 C 6.97 g/m*3 10.7 C 0 km/h
1448 25-04-2015 00:35:00 10.7 C 6.88 g/m*3 10.7 C 0 km/h
1449 25-04-2015 00:40:00 10.7 C 6.88 g/m*3 10.7 C 0 km/h
1450 25-04-2015 00:45:00 10.6 C 6.73 g/m*3 10.6 C 0 km/h
Sensor: Nr:Datum:Temp:Abs-Feuchte:Windchill:Wind:
Aussen-T/F 1451 25-04-2015 00:50:00 10.6 C 6.83 g/m*3 10.6 C 0 km/h
1452 25-04-2015 00:55:00 10.5 C 6.89 g/m*3 10.5 C 0 km/h
1453 25-04-2015 01:00:00 10.4 C 6.84 g/m*3 10.4 C 0 km/h
1454 25-04-2015 01:05:00 10.3 C 6.9 g/m*3 10.3 C 1.6 km/h
1455 25-04-2015 01:10:00 10.3 C 6.9 g/m*3 10.3 C 1.6 km/h
1456 25-04-2015 01:15:00 10.3 C 6.9 g/m*3 10.3 C 0 km/h
1457 25-04-2015 01:20:00 10.2 C 6.95 g/m*3 10.2 C 0 km/h
1458 25-04-2015 01:25:00 10.1 C 6.9 g/m*3 10.1 C 0 km/h
1459 25-04-2015 01:30:00 9.9 C 6.91 g/m*3 9.9 C 0 km/h
1460 25-04-2015 01:35:00 9.9 C 6.91 g/m*3 9.9 C 1.6 km/h
1461 25-04-2015 01:40:00 9.8 C 6.96 g/m*3 9.8 C 1.6 km/h
1462 25-04-2015 01:45:00 9.8 C 6.96 g/m*3 9.8 C 0 km/h
1463 25-04-2015 01:50:00 9.7 C 7.01 g/m*3 9.7 C 0 km/h
1464 25-04-2015 01:55:00 9.6 C 7.05 g/m*3 9.6 C 0 km/h
1465 25-04-2015 02:00:00 9.5 C 6.92 g/m*3 9.5 C 0 km/h
1466 25-04-2015 02:05:00 9.4 C 6.87 g/m*3 9.4 C 0 km/h
1467 25-04-2015 02:10:00 9.4 C 6.96 g/m*3 9.4 C 0 km/h
1468 25-04-2015 02:15:00 9.3 C 6.92 g/m*3 9.3 C 0 km/h
1469 25-04-2015 02:20:00 9.3 C 7.01 g/m*3 9.3 C 0 km/h
1470 25-04-2015 02:25:00 9.2 C 6.97 g/m*3 9.2 C 0 km/h
1471 25-04-2015 02:30:00 9.2 C 7.05 g/m*3 9.2 C 0 km/h
1472 25-04-2015 02:35:00 9.2 C 7.05 g/m*3 9.2 C 0 km/h
1473 25-04-2015 02:40:00 9.1 C 7.01 g/m*3 9.1 C 0 km/h
1474 25-04-2015 02:45:00 9.2 C 7.05 g/m*3 9.2 C 0 km/h
1475 25-04-2015 02:50:00 9.2 C 7.14 g/m*3 9.2 C 0 km/h
Sensor: Nr:Datum:Temp:Abs-Feuchte:Windchill:Wind:
Aussen-T/F 1476 25-04-2015 02:55:00 9.2 C 7.14 g/m*3 9.2 C 0 km/h
1477 25-04-2015 03:00:00 9.2 C 7.14 g/m*3 9.2 C 0 km/h
1478 25-04-2015 03:05:00 9.2 C 7.14 g/m*3 9.2 C 0 km/h
1479 25-04-2015 03:10:00 9.3 C 7.19 g/m*3 9.3 C 0 km/h
1480 25-04-2015 03:15:00 9.3 C 7.28 g/m*3 9.3 C 0 km/h
1481 25-04-2015 03:20:00 9.3 C 7.19 g/m*3 9.3 C 0 km/h
1482 25-04-2015 03:25:00 9.3 C 7.28 g/m*3 9.3 C 0 km/h
1483 25-04-2015 03:30:00 9.3 C 7.28 g/m*3 9.3 C 0 km/h
1484 25-04-2015 03:35:00 9.3 C 7.19 g/m*3 9.3 C 1.6 km/h
1485 25-04-2015 03:40:00 9.3 C 7.19 g/m*3 9.3 C 1.6 km/h
1486 25-04-2015 03:45:00 9.4 C 7.15 g/m*3 9.4 C 0 km/h
1487 25-04-2015 03:50:00 9.4 C 7.24 g/m*3 9.4 C 0 km/h
1488 25-04-2015 03:55:00 9.4 C 7.24 g/m*3 9.4 C 0 km/h
1489 25-04-2015 04:00:00 9.4 C 7.33 g/m*3 9.4 C 0 km/h
1490 25-04-2015 04:05:00 9.4 C 7.42 g/m*3 9.4 C 0 km/h
1491 25-04-2015 04:10:00 9.3 C 7.37 g/m*3 9.3 C 0 km/h
1492 25-04-2015 04:15:00 9.3 C 7.28 g/m*3 9.3 C 0 km/h
1493 25-04-2015 04:20:00 9.3 C 7.28 g/m*3 9.3 C 0 km/h
1494 25-04-2015 04:25:00 9.3 C 7.37 g/m*3 9.3 C 0 km/h
1495 25-04-2015 04:30:00 9.2 C 7.32 g/m*3 9.2 C 1.6 km/h
1496 25-04-2015 04:35:00 9.3 C 7.37 g/m*3 9.3 C 1.6 km/h
1497 25-04-2015 04:40:00 9.3 C 7.37 g/m*3 9.3 C 0 km/h
1498 25-04-2015 04:45:00 9.3 C 7.37 g/m*3 9.3 C 0 km/h
1499 25-04-2015 04:50:00 9.3 C 7.37 g/m*3 9.3 C 0 km/h
1500 25-04-2015 04:55:00 9.3 C 7.37 g/m*3 9.3 C 0 km/h
Sensor: Nr:Datum:Temp:Abs-Feuchte:Windchill:Wind:
Aussen-T/F 1501 25-04-2015 05:00:00 9.3 C 7.46 g/m*3 9.3 C 0 km/h
1502 25-04-2015 05:05:00 9.3 C 7.46 g/m*3 9.3 C 0 km/h
1503 25-04-2015 05:10:00 9.3 C 7.46 g/m*3 9.3 C 0 km/h
1504 25-04-2015 05:15:00 9.3 C 7.55 g/m*3 9.3 C 0 km/h
1505 25-04-2015 05:20:00 9.3 C 7.55 g/m*3 9.3 C 0 km/h
1506 25-04-2015 05:25:00 9.3 C 7.55 g/m*3 9.3 C 0 km/h
1507 25-04-2015 05:30:00 9.3 C 7.55 g/m*3 9.3 C 0 km/h
1508 25-04-2015 05:35:00 9.3 C 7.55 g/m*3 9.3 C 0 km/h
1509 25-04-2015 05:40:00 9.3 C 7.55 g/m*3 9.3 C 0 km/h
1510 25-04-2015 05:45:00 9.3 C 7.55 g/m*3 9.3 C 0 km/h
1511 25-04-2015 05:50:00 9.2 C 7.59 g/m*3 9.2 C 0 km/h
1512 25-04-2015 05:55:00 9.2 C 7.59 g/m*3 9.2 C 0 km/h
1513 25-04-2015 06:00:00 9.2 C 7.59 g/m*3 9.2 C 0 km/h
1514 25-04-2015 06:05:00 9.2 C 7.59 g/m*3 9.2 C 0 km/h
1515 25-04-2015 06:10:00 9.2 C 7.59 g/m*3 9.2 C 0 km/h
1516 25-04-2015 06:15:00 9.2 C 7.59 g/m*3 9.2 C 0 km/h
1517 25-04-2015 06:20:00 9.3 C 7.64 g/m*3 9.3 C 0 km/h
1518 25-04-2015 06:25:00 9.3 C 7.73 g/m*3 9.3 C 0 km/h
1519 25-04-2015 06:30:00 9.4 C 7.78 g/m*3 9.4 C 0 km/h
1520 25-04-2015 06:35:00 9.4 C 7.69 g/m*3 9.4 C 0 km/h
1521 25-04-2015 06:40:00 9.5 C 7.74 g/m*3 9.5 C 0 km/h
1522 25-04-2015 06:45:00 9.6 C 7.79 g/m*3 9.6 C 0 km/h
1523 25-04-2015 06:50:00 9.7 C 7.84 g/m*3 9.7 C 0 km/h
1524 25-04-2015 06:55:00 9.7 C 7.84 g/m*3 9.7 C 0 km/h
1525 25-04-2015 07:00:00 9.8 C 7.89 g/m*3 9.8 C 0 km/h
Sensor: Nr:Datum:Temp:Abs-Feuchte:Windchill:Wind:
Aussen-T/F 1526 25-04-2015 07:05:00 9.9 C 7.84 g/m*3 9.9 C 0 km/h
1527 25-04-2015 07:10:00 9.9 C 7.75 g/m*3 9.9 C 0 km/h
1528 25-04-2015 07:15:00 10.1 C 7.75 g/m*3 10.1 C 1.6 km/h
1529 25-04-2015 07:20:00 10.1 C 7.75 g/m*3 10.1 C 0 km/h
1530 25-04-2015 07:25:00 10.2 C 7.9 g/m*3 10.2 C 0 km/h
1531 25-04-2015 07:30:00 10.3 C 7.95 g/m*3 10.3 C 0 km/h
1532 25-04-2015 07:35:00 10.3 C 8.04 g/m*3 10.3 C 0 km/h
1533 25-04-2015 07:40:00 10.4 C 8.1 g/m*3 10.4 C 0 km/h
1534 25-04-2015 07:45:00 10.4 C 8.1 g/m*3 10.4 C 0 km/h
1535 25-04-2015 07:50:00 10.6 C 8.2 g/m*3 10.6 C 0 km/h
1536 25-04-2015 07:55:00 10.6 C 8.2 g/m*3 10.6 C 1.6 km/h
1537 25-04-2015 08:00:00 10.7 C 8.25 g/m*3 10.7 C 0 km/h
1538 25-04-2015 08:05:00 10.8 C 8.3 g/m*3 10.8 C 1.6 km/h
1539 25-04-2015 08:10:00 10.8 C 8.3 g/m*3 10.8 C 0 km/h
1540 25-04-2015 08:15:00 10.8 C 8.3 g/m*3 10.8 C 0 km/h
1541 25-04-2015 08:20:00 10.8 C 8.3 g/m*3 10.8 C 0 km/h
1542 25-04-2015 08:25:00 10.9 C 8.45 g/m*3 10.9 C 0 km/h
1543 25-04-2015 08:30:00 10.9 C 8.55 g/m*3 10.9 C 0 km/h
1544 25-04-2015 08:35:00 11.1 C 8.66 g/m*3 11.1 C 0 km/h
1545 25-04-2015 08:40:00 11.2 C 8.82 g/m*3 11.2 C 0 km/h
1546 25-04-2015 08:45:00 11.2 C 8.62 g/m*3 11.2 C 0 km/h
1547 25-04-2015 08:50:00 11.3 C 8.77 g/m*3 11.3 C 0 km/h
1548 25-04-2015 08:55:00 11.4 C 8.93 g/m*3 11.4 C 0 km/h
1549 25-04-2015 09:00:00 11.5 C 8.99 g/m*3 11.5 C 0 km/h
1550 25-04-2015 09:05:00 11.6 C 9.04 g/m*3 11.6 C 1.6 km/h
Sensor: Nr:Datum:Temp:Abs-Feuchte:Windchill:Wind:
Aussen-T/F 1551 25-04-2015 09:10:00 11.6 C 8.94 g/m*3 11.6 C 0 km/h
1552 25-04-2015 09:15:00 11.7 C 8.99 g/m*3 11.7 C 0 km/h
1553 25-04-2015 09:20:00 11.8 C 9.16 g/m*3 11.8 C 0 km/h
1554 25-04-2015 09:25:00 11.8 C 9.16 g/m*3 11.8 C 1.6 km/h
1555 25-04-2015 09:30:00 11.9 C 9.21 g/m*3 11.9 C 0 km/h
1556 25-04-2015 09:35:00 11.9 C 9.21 g/m*3 11.9 C 0 km/h
1557 25-04-2015 09:40:00 11.9 C 9.21 g/m*3 11.9 C 0 km/h
1558 25-04-2015 09:45:00 12 C 9.38 g/m*3 12 C 0 km/h
1559 25-04-2015 09:50:00 12 C 9.38 g/m*3 12 C 0 km/h
1560 25-04-2015 09:55:00 12 C 9.38 g/m*3 12 C 0 km/h
1561 25-04-2015 10:00:00 12.1 C 9.44 g/m*3 12.1 C 0 km/h
1562 25-04-2015 10:05:00 12.1 C 9.54 g/m*3 12.1 C 0 km/h
1563 25-04-2015 10:10:00 12.2 C 9.5 g/m*3 12.2 C 0 km/h
1564 25-04-2015 10:15:00 12.2 C 9.6 g/m*3 12.2 C 0 km/h
1565 25-04-2015 10:20:00 12.3 C 9.45 g/m*3 12.3 C 0 km/h
1566 25-04-2015 10:25:00 12.3 C 9.34 g/m*3 12.3 C 0 km/h
1567 25-04-2015 10:30:00 12.4 C 9.4 g/m*3 12.4 C 0 km/h
1568 25-04-2015 10:35:00 12.6 C 9.51 g/m*3 12.6 C 0 km/h
1569 25-04-2015 10:40:00 12.7 C 9.68 g/m*3 12.7 C 0 km/h
1570 25-04-2015 10:45:00 12.9 C 9.81 g/m*3 12.9 C 1.6 km/h
1571 25-04-2015 10:50:00 13.2 C 10.1 g/m*3 13.2 C 1.6 km/h
1572 25-04-2015 10:55:00 13.2 C 9.99 g/m*3 13.2 C 1.6 km/h
1573 25-04-2015 11:00:00 13.4 C 10.11 g/m*3 13.4 C 0 km/h
1574 25-04-2015 11:05:00 13.6 C 10.24 g/m*3 13.6 C 0 km/h
1575 25-04-2015 11:10:00 13.7 C 10.18 g/m*3 13.7 C 3.2 km/h
Sensor: Nr:Datum:Temp:Abs-Feuchte:Windchill:Wind:
Aussen-T/F 1576 25-04-2015 11:15:00 13.8 C 10.37 g/m*3 13.8 C 1.6 km/h
1577 25-04-2015 11:20:00 14.1 C 10.56 g/m*3 14.1 C 3.2 km/h
1578 25-04-2015 11:25:00 14.2 C 10.5 g/m*3 14.2 C 6.4 km/h
1579 25-04-2015 11:30:00 14.5 C 10.7 g/m*3 14.5 C 3.2 km/h
1580 25-04-2015 11:35:00 14.8 C 11.02 g/m*3 14.8 C 4.8 km/h
1581 25-04-2015 11:40:00 14.9 C 10.58 g/m*3 14.9 C 6.4 km/h
1582 25-04-2015 11:45:00 15.1 C 10.84 g/m*3 15.1 C 8.1 km/h
1583 25-04-2015 11:50:00 15.1 C 10.71 g/m*3 15.1 C 1.6 km/h
1584 25-04-2015 11:55:00 15.1 C 10.84 g/m*3 15.1 C 3.2 km/h
1585 25-04-2015 12:00:00 15.1 C 10.71 g/m*3 15.1 C 3.2 km/h
1586 25-04-2015 12:05:00 15.2 C 10.77 g/m*3 15.2 C 0 km/h
1587 25-04-2015 12:10:00 15.3 C 10.84 g/m*3 15.3 C 6.4 km/h
1588 25-04-2015 12:15:00 15.6 C 10.64 g/m*3 15.6 C 9.7 km/h
1589 25-04-2015 12:20:00 15.7 C 10.57 g/m*3 15.7 C 8.1 km/h
1590 25-04-2015 12:25:00 15.8 C 10.5 g/m*3 15.8 C 16.1 km/h
1591 25-04-2015 12:30:00 15.8 C 10.63 g/m*3 15.8 C 9.7 km/h
1592 25-04-2015 12:35:00 15.8 C 10.5 g/m*3 15.8 C 12.9 km/h
1593 25-04-2015 12:40:00 15.9 C 10.56 g/m*3 15.9 C 12.9 km/h
1594 25-04-2015 12:45:00 16.1 C 10.55 g/m*3 16.1 C 16.1 km/h
1595 25-04-2015 12:50:00 16.2 C 10.48 g/m*3 16.2 C 14.5 km/h
1596 25-04-2015 12:55:00 16.2 C 10.48 g/m*3 16.2 C 12.9 km/h
1597 25-04-2015 13:00:00 16.3 C 10.68 g/m*3 16.3 C 16.1 km/h
1598 25-04-2015 13:05:00 16.5 C 10.67 g/m*3 16.5 C 14.5 km/h
1599 25-04-2015 13:10:00 16.8 C 10.72 g/m*3 16.8 C 11.3 km/h
1600 25-04-2015 13:15:00 17.1 C 10.77 g/m*3 17.1 C 19.3 km/h
Sensor: Nr:Datum:Temp:Abs-Feuchte:Windchill:Wind:
Aussen-T/F 1601 25-04-2015 13:20:00 17.2 C 10.69 g/m*3 17.2 C 14.5 km/h
1602 25-04-2015 13:25:00 17.5 C 10.88 g/m*3 17.5 C 19.3 km/h
1603 25-04-2015 13:30:00 18 C 10.75 g/m*3 18 C 19.3 km/h
1604 25-04-2015 13:35:00 18 C 10.6 g/m*3 18 C 17.7 km/h
1605 25-04-2015 13:40:00 17.7 C 10.41 g/m*3 17.7 C 24.1 km/h
1606 25-04-2015 13:45:00 17.6 C 10.35 g/m*3 17.6 C 19.3 km/h
1607 25-04-2015 13:50:00 17.4 C 10.23 g/m*3 17.4 C 17.7 km/h
1608 25-04-2015 13:55:00 17.4 C 10.08 g/m*3 17.4 C 12.9 km/h
1609 25-04-2015 14:00:00 17.6 C 9.9 g/m*3 17.6 C 16.1 km/h
1610 25-04-2015 14:05:00 17.9 C 10.08 g/m*3 17.9 C 20.9 km/h
1611 25-04-2015 14:10:00 18.3 C 10.32 g/m*3 18.3 C 16.1 km/h
1612 25-04-2015 14:15:00 18.4 C 10.22 g/m*3 18.4 C 17.7 km/h
1613 25-04-2015 14:20:00 18.3 C 10.32 g/m*3 18.3 C 16.1 km/h
1614 25-04-2015 14:25:00 18.2 C 10.1 g/m*3 18.2 C 22.5 km/h
1615 25-04-2015 14:30:00 18.1 C 10.2 g/m*3 18.1 C 11.3 km/h
1616 25-04-2015 14:35:00 18.3 C 10.32 g/m*3 18.3 C 17.7 km/h
1617 25-04-2015 14:40:00 18.2 C 10.1 g/m*3 18.2 C 17.7 km/h
1618 25-04-2015 14:45:00 18.1 C 10.2 g/m*3 18.1 C 16.1 km/h
1619 25-04-2015 14:50:00 18 C 10.14 g/m*3 18 C 19.3 km/h
1620 25-04-2015 14:55:00 17.9 C 10.23 g/m*3 17.9 C 12.9 km/h
1621 25-04-2015 15:00:00 17.8 C 10.17 g/m*3 17.8 C 16.1 km/h
1622 25-04-2015 15:05:00 17.7 C 9.96 g/m*3 17.7 C 12.9 km/h
1623 25-04-2015 15:10:00 17.5 C 9.84 g/m*3 17.5 C 14.5 km/h
1624 25-04-2015 15:15:00 17.3 C 9.87 g/m*3 17.3 C 14.5 km/h
1625 25-04-2015 15:20:00 17.2 C 9.96 g/m*3 17.2 C 14.5 km/h
Sensor: Nr:Datum:Temp:Abs-Feuchte:Windchill:Wind:
Aussen-T/F 1626 25-04-2015 15:25:00 17.4 C 10.23 g/m*3 17.4 C 11.3 km/h
1627 25-04-2015 15:30:00 17.6 C 10.2 g/m*3 17.6 C 16.1 km/h
1628 25-04-2015 15:35:00 17.5 C 9.99 g/m*3 17.5 C 24.1 km/h
1629 25-04-2015 15:40:00 17.4 C 10.08 g/m*3 17.4 C 11.3 km/h
1630 25-04-2015 15:45:00 17.3 C 10.02 g/m*3 17.3 C 14.5 km/h
1631 25-04-2015 15:50:00 17.2 C 10.1 g/m*3 17.2 C 19.3 km/h
1632 25-04-2015 15:55:00 17.1 C 10.19 g/m*3 17.1 C 12.9 km/h
1633 25-04-2015 16:00:00 17.1 C 10.34 g/m*3 17.1 C 12.9 km/h
1634 25-04-2015 16:05:00 17.1 C 10.34 g/m*3 17.1 C 17.7 km/h
1635 25-04-2015 16:10:00 17.2 C 10.4 g/m*3 17.2 C 14.5 km/h
1636 25-04-2015 16:15:00 17.3 C 10.61 g/m*3 17.3 C 12.9 km/h
1637 25-04-2015 16:20:00 17.3 C 10.61 g/m*3 17.3 C 19.3 km/h
1638 25-04-2015 16:25:00 17.5 C 10.59 g/m*3 17.5 C 17.7 km/h
1639 25-04-2015 16:30:00 17.7 C 10.56 g/m*3 17.7 C 19.3 km/h
1640 25-04-2015 16:35:00 17.6 C 10.5 g/m*3 17.6 C 16.1 km/h
1641 25-04-2015 16:40:00 17.6 C 10.65 g/m*3 17.6 C 22.5 km/h
1642 25-04-2015 16:45:00 17.3 C 10.46 g/m*3 17.3 C 16.1 km/h
1643 25-04-2015 16:50:00 17.1 C 10.34 g/m*3 17.1 C 17.7 km/h
1644 25-04-2015 16:55:00 16.9 C 10.36 g/m*3 16.9 C 9.7 km/h
1645 25-04-2015 17:00:00 16.8 C 10.44 g/m*3 16.8 C 12.9 km/h
1646 25-04-2015 17:05:00 16.7 C 10.37 g/m*3 16.7 C 14.5 km/h
1647 25-04-2015 17:10:00 16.6 C 10.31 g/m*3 16.6 C 8.1 km/h
1648 25-04-2015 17:15:00 16.6 C 10.45 g/m*3 16.6 C 12.9 km/h
1649 25-04-2015 17:20:00 16.5 C 10.39 g/m*3 16.5 C 8.1 km/h
1650 25-04-2015 17:25:00 16.4 C 10.75 g/m*3 16.4 C 11.3 km/h
Sensor: Nr:Datum:Temp:Abs-Feuchte:Windchill:Wind:
Aussen-T/F 1651 25-04-2015 17:30:00 16.2 C 10.62 g/m*3 16.2 C 11.3 km/h
1652 25-04-2015 17:35:00 16 C 10.63 g/m*3 16 C 8.1 km/h
1653 25-04-2015 17:40:00 15.8 C 10.77 g/m*3 15.8 C 9.7 km/h
1654 25-04-2015 17:45:00 15.4 C 10.77 g/m*3 15.4 C 6.4 km/h
1655 25-04-2015 17:50:00 15.2 C 10.9 g/m*3 15.2 C 3.2 km/h
1656 25-04-2015 17:55:00 15 C 10.9 g/m*3 15 C 3.2 km/h
1657 25-04-2015 18:00:00 15 C 11.03 g/m*3 15 C 4.8 km/h
1658 25-04-2015 18:05:00 15.2 C 11.03 g/m*3 15.2 C 4.8 km/h
1659 25-04-2015 18:10:00 15.3 C 11.1 g/m*3 15.3 C 4.8 km/h
1660 25-04-2015 18:15:00 15.4 C 11.04 g/m*3 15.4 C 6.4 km/h
1661 25-04-2015 18:20:00 15.5 C 11.1 g/m*3 15.5 C 4.8 km/h
1662 25-04-2015 18:25:00 15.6 C 11.17 g/m*3 15.6 C 4.8 km/h
1663 25-04-2015 18:30:00 15.6 C 11.17 g/m*3 15.6 C 3.2 km/h
1664 25-04-2015 18:35:00 15.6 C 11.17 g/m*3 15.6 C 6.4 km/h
1665 25-04-2015 18:40:00 15.5 C 10.84 g/m*3 15.5 C 4.8 km/h
1666 25-04-2015 18:45:00 15.4 C 10.9 g/m*3 15.4 C 6.4 km/h
1667 25-04-2015 18:50:00 15.3 C 10.84 g/m*3 15.3 C 4.8 km/h
1668 25-04-2015 18:55:00 15.3 C 10.97 g/m*3 15.3 C 6.4 km/h
1669 25-04-2015 19:00:00 15.2 C 10.9 g/m*3 15.2 C 3.2 km/h
1670 25-04-2015 19:05:00 15.2 C 11.03 g/m*3 15.2 C 4.8 km/h
1671 25-04-2015 19:10:00 15.1 C 10.97 g/m*3 15.1 C 4.8 km/h
1672 25-04-2015 19:15:00 14.9 C 10.96 g/m*3 14.9 C 3.2 km/h
1673 25-04-2015 19:20:00 14.8 C 11.02 g/m*3 14.8 C 3.2 km/h
1674 25-04-2015 19:25:00 14.7 C 10.95 g/m*3 14.7 C 9.7 km/h
1675 25-04-2015 19:30:00 14.6 C 10.89 g/m*3 14.6 C 4.8 km/h
Sensor: Nr:Datum:Temp:Abs-Feuchte:Windchill:Wind:
Aussen-T/F 1676 25-04-2015 19:35:00 14.6 C 10.89 g/m*3 14.6 C 3.2 km/h
1677 25-04-2015 19:40:00 14.6 C 10.89 g/m*3 14.6 C 1.6 km/h
1678 25-04-2015 19:45:00 14.7 C 10.95 g/m*3 14.7 C 1.6 km/h
1679 25-04-2015 19:50:00 14.7 C 10.95 g/m*3 14.7 C 1.6 km/h
1680 25-04-2015 19:55:00 14.6 C 10.89 g/m*3 14.6 C 3.2 km/h
1681 25-04-2015 20:00:00 14.6 C 10.89 g/m*3 14.6 C 3.2 km/h
1682 25-04-2015 20:05:00 14.4 C 10.88 g/m*3 14.4 C 3.2 km/h
1683 25-04-2015 20:10:00 14.4 C 10.88 g/m*3 14.4 C 3.2 km/h
1684 25-04-2015 20:15:00 14.3 C 10.81 g/m*3 14.3 C 3.2 km/h
1685 25-04-2015 20:20:00 14.3 C 10.81 g/m*3 14.3 C 4.8 km/h
1686 25-04-2015 20:25:00 14.2 C 10.75 g/m*3 14.2 C 4.8 km/h
1687 25-04-2015 20:30:00 14 C 10.74 g/m*3 14 C 3.2 km/h
1688 25-04-2015 20:35:00 13.8 C 10.6 g/m*3 13.8 C 3.2 km/h
1689 25-04-2015 20:40:00 13.7 C 10.54 g/m*3 13.7 C 1.6 km/h
1690 25-04-2015 20:45:00 13.6 C 10.47 g/m*3 13.6 C 3.2 km/h
1691 25-04-2015 20:50:00 13.6 C 10.47 g/m*3 13.6 C 3.2 km/h
1692 25-04-2015 20:55:00 13.4 C 10.35 g/m*3 13.4 C 1.6 km/h
1693 25-04-2015 21:00:00 13.4 C 10.35 g/m*3 13.4 C 1.6 km/h
1694 25-04-2015 21:05:00 13.3 C 10.28 g/m*3 13.3 C 0 km/h
1695 25-04-2015 21:10:00 13.3 C 10.4 g/m*3 13.3 C 1.6 km/h
1696 25-04-2015 21:15:00 13.3 C 10.4 g/m*3 13.3 C 1.6 km/h
1697 25-04-2015 21:20:00 13.2 C 10.33 g/m*3 13.2 C 1.6 km/h
1698 25-04-2015 21:25:00 13.1 C 10.27 g/m*3 13.1 C 1.6 km/h
1699 25-04-2015 21:30:00 13.1 C 10.27 g/m*3 13.1 C 1.6 km/h
1700 25-04-2015 21:35:00 12.9 C 10.14 g/m*3 12.9 C 1.6 km/h
Sensor: Nr:Datum:Temp:Abs-Feuchte:Windchill:Wind:
Aussen-T/F 1701 25-04-2015 21:40:00 12.8 C 10.19 g/m*3 12.8 C 1.6 km/h
1702 25-04-2015 21:45:00 12.8 C 10.19 g/m*3 12.8 C 3.2 km/h
1703 25-04-2015 21:50:00 12.8 C 10.19 g/m*3 12.8 C 3.2 km/h
1704 25-04-2015 21:55:00 12.8 C 10.19 g/m*3 12.8 C 1.6 km/h
1705 25-04-2015 22:00:00 12.8 C 10.19 g/m*3 12.8 C 1.6 km/h
1706 25-04-2015 22:05:00 12.8 C 10.19 g/m*3 12.8 C 1.6 km/h
1707 25-04-2015 22:10:00 12.8 C 10.08 g/m*3 12.8 C 1.6 km/h
1708 25-04-2015 22:15:00 12.7 C 10.13 g/m*3 12.7 C 0 km/h
1709 25-04-2015 22:20:00 12.6 C 10.07 g/m*3 12.6 C 1.6 km/h
1710 25-04-2015 22:25:00 12.6 C 10.07 g/m*3 12.6 C 0 km/h
1711 25-04-2015 22:30:00 12.6 C 10.07 g/m*3 12.6 C 1.6 km/h
1712 25-04-2015 22:35:00 12.5 C 10 g/m*3 12.5 C 0 km/h
1713 25-04-2015 22:40:00 12.4 C 10.05 g/m*3 12.4 C 3.2 km/h
1714 25-04-2015 22:45:00 12.4 C 10.05 g/m*3 12.4 C 0 km/h
1715 25-04-2015 22:50:00 12.3 C 9.99 g/m*3 12.3 C 0 km/h
1716 25-04-2015 22:55:00 12.3 C 9.99 g/m*3 12.3 C 0 km/h
1717 25-04-2015 23:00:00 12.2 C 9.93 g/m*3 12.2 C 0 km/h
1718 25-04-2015 23:05:00 12.2 C 10.04 g/m*3 12.2 C 0 km/h
1719 25-04-2015 23:10:00 12.2 C 10.04 g/m*3 12.2 C 0 km/h
1720 25-04-2015 23:15:00 12.2 C 10.04 g/m*3 12.2 C 0 km/h
1721 25-04-2015 23:20:00 12 C 9.8 g/m*3 12 C 0 km/h
1722 25-04-2015 23:25:00 11.9 C 9.74 g/m*3 11.9 C 0 km/h
1723 25-04-2015 23:30:00 11.8 C 9.79 g/m*3 11.8 C 0 km/h
1724 25-04-2015 23:35:00 11.7 C 9.73 g/m*3 11.7 C 0 km/h
1725 25-04-2015 23:40:00 11.6 C 9.67 g/m*3 11.6 C 0 km/h
Sensor: Nr:Datum:Temp:Abs-Feuchte:Windchill:Wind:
Aussen-T/F 1726 25-04-2015 23:45:00 11.6 C 9.67 g/m*3 11.6 C 0 km/h
1727 25-04-2015 23:50:00 11.6 C 9.77 g/m*3 11.6 C 0 km/h
1728 25-04-2015 23:55:00 11.7 C 9.73 g/m*3 11.7 C 0 km/h
1729 26-04-2015 00:00:00 11.7 C 9.73 g/m*3 11.7 C 0 km/h
1730 26-04-2015 00:05:00 11.6 C 9.67 g/m*3 11.6 C 0 km/h
1731 26-04-2015 00:10:00 11.6 C 9.67 g/m*3 11.6 C 0 km/h
1732 26-04-2015 00:15:00 11.6 C 9.67 g/m*3 11.6 C 0 km/h
1733 26-04-2015 00:20:00 11.7 C 9.73 g/m*3 11.7 C 0 km/h
1734 26-04-2015 00:25:00 11.7 C 9.73 g/m*3 11.7 C 0 km/h
1735 26-04-2015 00:30:00 11.7 C 9.73 g/m*3 11.7 C 0 km/h
1736 26-04-2015 00:35:00 11.6 C 9.67 g/m*3 11.6 C 0 km/h
1737 26-04-2015 00:40:00 11.5 C 9.61 g/m*3 11.5 C 0 km/h
1738 26-04-2015 00:45:00 11.4 C 9.55 g/m*3 11.4 C 0 km/h
1739 26-04-2015 00:50:00 11.2 C 9.43 g/m*3 11.2 C 0 km/h
1740 26-04-2015 00:55:00 11.2 C 9.43 g/m*3 11.2 C 0 km/h
1741 26-04-2015 01:00:00 11.1 C 9.37 g/m*3 11.1 C 0 km/h
1742 26-04-2015 01:05:00 11 C 9.31 g/m*3 11 C 0 km/h
1743 26-04-2015 01:10:00 11 C 9.41 g/m*3 11 C 0 km/h
1744 26-04-2015 01:15:00 11 C 9.41 g/m*3 11 C 0 km/h
1745 26-04-2015 01:20:00 11.1 C 9.47 g/m*3 11.1 C 0 km/h
1746 26-04-2015 01:25:00 11.1 C 9.47 g/m*3 11.1 C 0 km/h
1747 26-04-2015 01:30:00 11 C 9.41 g/m*3 11 C 0 km/h
1748 26-04-2015 01:35:00 11 C 9.41 g/m*3 11 C 0 km/h
1749 26-04-2015 01:40:00 11 C 9.41 g/m*3 11 C 0 km/h
1750 26-04-2015 01:45:00 10.9 C 9.35 g/m*3 10.9 C 0 km/h
Sensor: Nr:Datum:Temp:Abs-Feuchte:Windchill:Wind:
Aussen-T/F 1751 26-04-2015 01:50:00 10.9 C 9.35 g/m*3 10.9 C 0 km/h
1752 26-04-2015 01:55:00 10.9 C 9.35 g/m*3 10.9 C 0 km/h
1753 26-04-2015 02:00:00 10.9 C 9.35 g/m*3 10.9 C 0 km/h
1754 26-04-2015 02:05:00 10.8 C 9.39 g/m*3 10.8 C 0 km/h
1755 26-04-2015 02:10:00 10.8 C 9.39 g/m*3 10.8 C 0 km/h
1756 26-04-2015 02:15:00 10.8 C 9.39 g/m*3 10.8 C 0 km/h
1757 26-04-2015 02:20:00 10.8 C 9.39 g/m*3 10.8 C 0 km/h
1758 26-04-2015 02:25:00 10.9 C 9.45 g/m*3 10.9 C 0 km/h
1759 26-04-2015 02:30:00 10.9 C 9.45 g/m*3 10.9 C 0 km/h
1760 26-04-2015 02:35:00 11 C 9.51 g/m*3 11 C 0 km/h
1761 26-04-2015 02:40:00 11.1 C 9.57 g/m*3 11.1 C 0 km/h
1762 26-04-2015 02:45:00 11.1 C 9.57 g/m*3 11.1 C 0 km/h
1763 26-04-2015 02:50:00 11.1 C 9.67 g/m*3 11.1 C 0 km/h
1764 26-04-2015 02:55:00 11.2 C 9.73 g/m*3 11.2 C 0 km/h
1765 26-04-2015 03:00:00 11.2 C 9.73 g/m*3 11.2 C 0 km/h
1766 26-04-2015 03:05:00 11.2 C 9.73 g/m*3 11.2 C 0 km/h
1767 26-04-2015 03:10:00 11.2 C 9.63 g/m*3 11.2 C 0 km/h
1768 26-04-2015 03:15:00 11.1 C 9.57 g/m*3 11.1 C 0 km/h
1769 26-04-2015 03:20:00 11.1 C 9.57 g/m*3 11.1 C 0 km/h
1770 26-04-2015 03:25:00 10.9 C 9.45 g/m*3 10.9 C 0 km/h
1771 26-04-2015 03:30:00 10.7 C 9.33 g/m*3 10.7 C 0 km/h
1772 26-04-2015 03:35:00 10.6 C 9.27 g/m*3 10.6 C 0 km/h
1773 26-04-2015 03:40:00 10.6 C 9.27 g/m*3 10.6 C 0 km/h
1774 26-04-2015 03:45:00 10.6 C 9.37 g/m*3 10.6 C 0 km/h
1775 26-04-2015 03:50:00 10.6 C 9.37 g/m*3 10.6 C 0 km/h
Sensor: Nr:Datum:Temp:Abs-Feuchte:Windchill:Wind:
Aussen-T/F 1776 26-04-2015 03:55:00 10.6 C 9.37 g/m*3 10.6 C 0 km/h
1777 26-04-2015 04:00:00 10.7 C 9.43 g/m*3 10.7 C 0 km/h
1778 26-04-2015 04:05:00 10.7 C 9.43 g/m*3 10.7 C 0 km/h
1779 26-04-2015 04:10:00 10.8 C 9.49 g/m*3 10.8 C 0 km/h
1780 26-04-2015 04:15:00 10.8 C 9.49 g/m*3 10.8 C 0 km/h
1781 26-04-2015 04:20:00 10.9 C 9.55 g/m*3 10.9 C 0 km/h
1782 26-04-2015 04:25:00 10.9 C 9.55 g/m*3 10.9 C 0 km/h
1783 26-04-2015 04:30:00 10.9 C 9.55 g/m*3 10.9 C 0 km/h
1784 26-04-2015 04:35:00 10.9 C 9.55 g/m*3 10.9 C 0 km/h
1785 26-04-2015 04:40:00 10.9 C 9.55 g/m*3 10.9 C 0 km/h
1786 26-04-2015 04:45:00 10.9 C 9.55 g/m*3 10.9 C 0 km/h
1787 26-04-2015 04:50:00 11 C 9.61 g/m*3 11 C 0 km/h
1788 26-04-2015 04:55:00 11 C 9.61 g/m*3 11 C 0 km/h
1789 26-04-2015 05:00:00 11.1 C 9.67 g/m*3 11.1 C 0 km/h
1790 26-04-2015 05:05:00 11.2 C 9.83 g/m*3 11.2 C 0 km/h
1791 26-04-2015 05:10:00 11.3 C 9.89 g/m*3 11.3 C 0 km/h
1792 26-04-2015 05:15:00 11.3 C 9.79 g/m*3 11.3 C 0 km/h
1793 26-04-2015 05:20:00 11.3 C 9.79 g/m*3 11.3 C 0 km/h
1794 26-04-2015 05:25:00 11.3 C 9.89 g/m*3 11.3 C 0 km/h
1795 26-04-2015 05:30:00 11.3 C 9.89 g/m*3 11.3 C 0 km/h
1796 26-04-2015 05:35:00 11.4 C 9.96 g/m*3 11.4 C 0 km/h
1797 26-04-2015 05:40:00 11.4 C 9.96 g/m*3 11.4 C 0 km/h
1798 26-04-2015 05:45:00 11.4 C 9.96 g/m*3 11.4 C 0 km/h
1799 26-04-2015 05:50:00 11.5 C 10.02 g/m*3 11.5 C 0 km/h
1800 26-04-2015 05:55:00 11.5 C 9.92 g/m*3 11.5 C 0 km/h
Sensor: Nr:Datum:Temp:Abs-Feuchte:Windchill:Wind:
Aussen-T/F 1801 26-04-2015 06:00:00 11.5 C 9.92 g/m*3 11.5 C 0 km/h
1802 26-04-2015 06:05:00 11.4 C 9.85 g/m*3 11.4 C 0 km/h
1803 26-04-2015 06:10:00 11.4 C 9.85 g/m*3 11.4 C 0 km/h
1804 26-04-2015 06:15:00 11.4 C 9.85 g/m*3 11.4 C 0 km/h
1805 26-04-2015 06:20:00 11.4 C 9.85 g/m*3 11.4 C 0 km/h
1806 26-04-2015 06:25:00 11.4 C 9.85 g/m*3 11.4 C 0 km/h
1807 26-04-2015 06:30:00 11.4 C 9.85 g/m*3 11.4 C 0 km/h
1808 26-04-2015 06:35:00 11.4 C 9.85 g/m*3 11.4 C 0 km/h
1809 26-04-2015 06:40:00 11.5 C 9.92 g/m*3 11.5 C 0 km/h
1810 26-04-2015 06:45:00 11.4 C 9.85 g/m*3 11.4 C 0 km/h
1811 26-04-2015 06:50:00 11.4 C 9.85 g/m*3 11.4 C 0 km/h
1812 26-04-2015 06:55:00 11.3 C 9.79 g/m*3 11.3 C 0 km/h
1813 26-04-2015 07:00:00 11.3 C 9.79 g/m*3 11.3 C 0 km/h
1814 26-04-2015 07:05:00 11.3 C 9.79 g/m*3 11.3 C 0 km/h
1815 26-04-2015 07:10:00 11.3 C 9.79 g/m*3 11.3 C 0 km/h
1816 26-04-2015 07:15:00 11.3 C 9.79 g/m*3 11.3 C 0 km/h
1817 26-04-2015 07:20:00 11.4 C 9.85 g/m*3 11.4 C 0 km/h
1818 26-04-2015 07:25:00 11.5 C 10.02 g/m*3 11.5 C 0 km/h
1819 26-04-2015 07:30:00 11.6 C 9.98 g/m*3 11.6 C 0 km/h
1820 26-04-2015 07:35:00 11.6 C 9.98 g/m*3 11.6 C 0 km/h
1821 26-04-2015 07:40:00 11.6 C 9.98 g/m*3 11.6 C 0 km/h
1822 26-04-2015 07:45:00 11.7 C 10.15 g/m*3 11.7 C 0 km/h
1823 26-04-2015 07:50:00 11.7 C 10.15 g/m*3 11.7 C 0 km/h
1824 26-04-2015 07:55:00 11.8 C 10.1 g/m*3 11.8 C 0 km/h
1825 26-04-2015 08:00:00 11.8 C 10.1 g/m*3 11.8 C 0 km/h
Sensor: Nr:Datum:Temp:Abs-Feuchte:Windchill:Wind:
Aussen-T/F 1826 26-04-2015 08:05:00 12 C 10.34 g/m*3 12 C 0 km/h
1827 26-04-2015 08:10:00 12.2 C 10.47 g/m*3 12.2 C 0 km/h
1828 26-04-2015 08:15:00 12.3 C 10.53 g/m*3 12.3 C 0 km/h
1829 26-04-2015 08:20:00 12.6 C 10.73 g/m*3 12.6 C 4.8 km/h
1830 26-04-2015 08:25:00 12.7 C 10.69 g/m*3 12.7 C 1.6 km/h
1831 26-04-2015 08:30:00 12.9 C 10.82 g/m*3 12.9 C 0 km/h
1832 26-04-2015 08:35:00 13.1 C 10.73 g/m*3 13.1 C 3.2 km/h
1833 26-04-2015 08:40:00 13.3 C 10.74 g/m*3 13.3 C 3.2 km/h
1834 26-04-2015 08:45:00 13.6 C 10.71 g/m*3 13.6 C 6.4 km/h
1835 26-04-2015 08:50:00 13.9 C 10.67 g/m*3 13.9 C 6.4 km/h
1836 26-04-2015 08:55:00 14.2 C 10.75 g/m*3 14.2 C 8.1 km/h
1837 26-04-2015 09:00:00 14.3 C 10.69 g/m*3 14.3 C 6.4 km/h
1838 26-04-2015 09:05:00 14.5 C 10.7 g/m*3 14.5 C 6.4 km/h
1839 26-04-2015 09:10:00 14.6 C 10.76 g/m*3 14.6 C 8.1 km/h
1840 26-04-2015 09:15:00 14.7 C 10.7 g/m*3 14.7 C 9.7 km/h
1841 26-04-2015 09:20:00 14.8 C 10.64 g/m*3 14.8 C 8.1 km/h
1842 26-04-2015 09:25:00 14.9 C 10.58 g/m*3 14.9 C 14.5 km/h
1843 26-04-2015 09:30:00 15 C 10.77 g/m*3 15 C 14.5 km/h
1844 26-04-2015 09:35:00 15 C 10.64 g/m*3 15 C 4.8 km/h
1845 26-04-2015 09:40:00 15.1 C 10.71 g/m*3 15.1 C 8.1 km/h
1846 26-04-2015 09:45:00 15.1 C 10.58 g/m*3 15.1 C 9.7 km/h
1847 26-04-2015 09:50:00 15.2 C 10.77 g/m*3 15.2 C 8.1 km/h
1848 26-04-2015 09:55:00 15.3 C 10.71 g/m*3 15.3 C 11.3 km/h
1849 26-04-2015 10:00:00 15.4 C 10.64 g/m*3 15.4 C 9.7 km/h
1850 26-04-2015 10:05:00 15.6 C 10.77 g/m*3 15.6 C 12.9 km/h
Sensor: Nr:Datum:Temp:Abs-Feuchte:Windchill:Wind:
Aussen-T/F 1851 26-04-2015 10:10:00 15.6 C 10.64 g/m*3 15.6 C 14.5 km/h
1852 26-04-2015 10:15:00 15.7 C 10.84 g/m*3 15.7 C 12.9 km/h
1853 26-04-2015 10:20:00 15.8 C 10.63 g/m*3 15.8 C 12.9 km/h
1854 26-04-2015 10:25:00 15.9 C 10.7 g/m*3 15.9 C 11.3 km/h
1855 26-04-2015 10:30:00 16.1 C 10.83 g/m*3 16.1 C 8.1 km/h
1856 26-04-2015 10:35:00 16.1 C 10.55 g/m*3 16.1 C 11.3 km/h
1857 26-04-2015 10:40:00 16.1 C 10.55 g/m*3 16.1 C 11.3 km/h
1858 26-04-2015 10:45:00 16 C 10.49 g/m*3 16 C 4.8 km/h
1859 26-04-2015 10:50:00 16 C 10.49 g/m*3 16 C 8.1 km/h
1860 26-04-2015 10:55:00 16 C 10.49 g/m*3 16 C 9.7 km/h
1861 26-04-2015 11:00:00 16 C 10.49 g/m*3 16 C 8.1 km/h
1862 26-04-2015 11:05:00 16.1 C 10.55 g/m*3 16.1 C 8.1 km/h
1863 26-04-2015 11:10:00 16.2 C 10.48 g/m*3 16.2 C 11.3 km/h
1864 26-04-2015 11:15:00 16.3 C 10.68 g/m*3 16.3 C 6.4 km/h
1865 26-04-2015 11:20:00 16.4 C 10.61 g/m*3 16.4 C 12.9 km/h
1866 26-04-2015 11:25:00 16.7 C 10.8 g/m*3 16.7 C 9.7 km/h
1867 26-04-2015 11:30:00 17 C 10.71 g/m*3 17 C 9.7 km/h
1868 26-04-2015 11:35:00 17.2 C 10.69 g/m*3 17.2 C 11.3 km/h
1869 26-04-2015 11:40:00 17.3 C 10.61 g/m*3 17.3 C 12.9 km/h
1870 26-04-2015 11:45:00 17.3 C 10.61 g/m*3 17.3 C 12.9 km/h
1871 26-04-2015 11:50:00 17.2 C 10.4 g/m*3 17.2 C 12.9 km/h
1872 26-04-2015 11:55:00 17.3 C 10.61 g/m*3 17.3 C 12.9 km/h
1873 26-04-2015 12:00:00 17.6 C 10.35 g/m*3 17.6 C 19.3 km/h
1874 26-04-2015 12:05:00 17.8 C 10.62 g/m*3 17.8 C 14.5 km/h
1875 26-04-2015 12:10:00 18 C 10.6 g/m*3 18 C 19.3 km/h
Sensor: Nr:Datum:Temp:Abs-Feuchte:Windchill:Wind:
Aussen-T/F 1876 26-04-2015 12:15:00 18.1 C 10.51 g/m*3 18.1 C 12.9 km/h
1877 26-04-2015 12:20:00 18.1 C 10.66 g/m*3 18.1 C 8.1 km/h
1878 26-04-2015 12:25:00 18 C 10.44 g/m*3 18 C 16.1 km/h
1879 26-04-2015 12:30:00 17.9 C 10.54 g/m*3 17.9 C 17.7 km/h
1880 26-04-2015 12:35:00 18 C 10.6 g/m*3 18 C 12.9 km/h
1881 26-04-2015 12:40:00 18.2 C 10.41 g/m*3 18.2 C 14.5 km/h
1882 26-04-2015 12:45:00 18.3 C 10.63 g/m*3 18.3 C 9.7 km/h
1883 26-04-2015 12:50:00 18.4 C 10.54 g/m*3 18.4 C 12.9 km/h
1884 26-04-2015 12:55:00 18.4 C 10.54 g/m*3 18.4 C 11.3 km/h
1885 26-04-2015 13:00:00 18.5 C 10.44 g/m*3 18.5 C 12.9 km/h
1886 26-04-2015 13:05:00 18.6 C 10.5 g/m*3 18.6 C 9.7 km/h
1887 26-04-2015 13:10:00 18.6 C 10.5 g/m*3 18.6 C 16.1 km/h
1888 26-04-2015 13:15:00 18.8 C 10.79 g/m*3 18.8 C 9.7 km/h
1889 26-04-2015 13:20:00 18.8 C 10.47 g/m*3 18.8 C 14.5 km/h
1890 26-04-2015 13:25:00 18.6 C 10.5 g/m*3 18.6 C 19.3 km/h
1891 26-04-2015 13:30:00 18.7 C 10.41 g/m*3 18.7 C 11.3 km/h
1892 26-04-2015 13:35:00 19 C 10.59 g/m*3 19 C 16.1 km/h
1893 26-04-2015 13:40:00 19.3 C 10.45 g/m*3 19.3 C 12.9 km/h
1894 26-04-2015 13:45:00 19.3 C 10.12 g/m*3 19.3 C 14.5 km/h
1895 26-04-2015 13:50:00 19 C 10.43 g/m*3 19 C 11.3 km/h
1896 26-04-2015 13:55:00 19.2 C 10.55 g/m*3 19.2 C 16.1 km/h
1897 26-04-2015 14:00:00 19.6 C 10.47 g/m*3 19.6 C 16.1 km/h
1898 26-04-2015 14:05:00 19.8 C 10.25 g/m*3 19.8 C 17.7 km/h
1899 26-04-2015 14:10:00 19.9 C 10.48 g/m*3 19.9 C 12.9 km/h
1900 26-04-2015 14:15:00 20.1 C 10.26 g/m*3 20.1 C 16.1 km/h
Sensor: Nr:Datum:Temp:Abs-Feuchte:Windchill:Wind:
Aussen-T/F 1901 26-04-2015 14:20:00 20.2 C 10.32 g/m*3 20.2 C 11.3 km/h
1902 26-04-2015 14:25:00 20.1 C 10.26 g/m*3 20.1 C 17.7 km/h
1903 26-04-2015 14:30:00 19.9 C 9.97 g/m*3 19.9 C 17.7 km/h
1904 26-04-2015 14:35:00 19.9 C 10.14 g/m*3 19.9 C 12.9 km/h
1905 26-04-2015 14:40:00 19.9 C 9.97 g/m*3 19.9 C 16.1 km/h
1906 26-04-2015 14:45:00 19.9 C 9.62 g/m*3 19.9 C 16.1 km/h
1907 26-04-2015 14:50:00 19.8 C 9.74 g/m*3 19.8 C 11.3 km/h
1908 26-04-2015 14:55:00 19.8 C 9.57 g/m*3 19.8 C 16.1 km/h
1909 26-04-2015 15:00:00 19.7 C 9.68 g/m*3 19.7 C 16.1 km/h
1910 26-04-2015 15:05:00 19.7 C 9.85 g/m*3 19.7 C 9.7 km/h
1911 26-04-2015 15:10:00 19.8 C 9.91 g/m*3 19.8 C 3.2 km/h
1912 26-04-2015 15:15:00 20.1 C 9.73 g/m*3 20.1 C 16.1 km/h
1913 26-04-2015 15:20:00 20.3 C 9.85 g/m*3 20.3 C 19.3 km/h
1914 26-04-2015 15:25:00 20.6 C 9.84 g/m*3 20.6 C 12.9 km/h
1915 26-04-2015 15:30:00 20.9 C 10.2 g/m*3 20.9 C 14.5 km/h
1916 26-04-2015 15:35:00 20.9 C 9.65 g/m*3 20.9 C 11.3 km/h
1917 26-04-2015 15:40:00 20.7 C 9.72 g/m*3 20.7 C 14.5 km/h
1918 26-04-2015 15:45:00 20.6 C 9.66 g/m*3 20.6 C 11.3 km/h
1919 26-04-2015 15:50:00 20.8 C 9.78 g/m*3 20.8 C 14.5 km/h
1920 26-04-2015 15:55:00 21.1 C 10.32 g/m*3 21.1 C 14.5 km/h
1921 26-04-2015 16:00:00 21.2 C 9.82 g/m*3 21.2 C 12.9 km/h
1922 26-04-2015 16:05:00 21.2 C 9.82 g/m*3 21.2 C 14.5 km/h
1923 26-04-2015 16:10:00 21.3 C 9.88 g/m*3 21.3 C 11.3 km/h
1924 26-04-2015 16:15:00 21.8 C 9.98 g/m*3 21.8 C 14.5 km/h
1925 26-04-2015 16:20:00 22 C 9.51 g/m*3 22 C 14.5 km/h
Sensor: Nr:Datum:Temp:Abs-Feuchte:Windchill:Wind:
Aussen-T/F 1926 26-04-2015 16:25:00 22.1 C 9.76 g/m*3 22.1 C 12.9 km/h
1927 26-04-2015 16:30:00 21.9 C 9.46 g/m*3 21.9 C 16.1 km/h
1928 26-04-2015 16:35:00 21.5 C 9.62 g/m*3 21.5 C 14.5 km/h
1929 26-04-2015 16:40:00 21.2 C 9.45 g/m*3 21.2 C 11.3 km/h
1930 26-04-2015 16:45:00 20.9 C 9.29 g/m*3 20.9 C 16.1 km/h
1931 26-04-2015 16:50:00 20.6 C 9.49 g/m*3 20.6 C 16.1 km/h
1932 26-04-2015 16:55:00 20.4 C 9.38 g/m*3 20.4 C 9.7 km/h
1933 26-04-2015 17:00:00 20.3 C 9.5 g/m*3 20.3 C 9.7 km/h
1934 26-04-2015 17:05:00 20.4 C 9.55 g/m*3 20.4 C 12.9 km/h
1935 26-04-2015 17:10:00 20.4 C 9.38 g/m*3 20.4 C 11.3 km/h
1936 26-04-2015 17:15:00 20.4 C 9.38 g/m*3 20.4 C 8.1 km/h
1937 26-04-2015 17:20:00 20.6 C 9.49 g/m*3 20.6 C 8.1 km/h
1938 26-04-2015 17:25:00 20.6 C 9.49 g/m*3 20.6 C 9.7 km/h
1939 26-04-2015 17:30:00 20.6 C 9.49 g/m*3 20.6 C 8.1 km/h
1940 26-04-2015 17:35:00 20.6 C 9.49 g/m*3 20.6 C 3.2 km/h
1941 26-04-2015 17:40:00 20.5 C 9.43 g/m*3 20.5 C 3.2 km/h
1942 26-04-2015 17:45:00 20.4 C 9.38 g/m*3 20.4 C 3.2 km/h
1943 26-04-2015 17:50:00 20.4 C 9.55 g/m*3 20.4 C 4.8 km/h
1944 26-04-2015 17:55:00 20.4 C 9.55 g/m*3 20.4 C 8.1 km/h
1945 26-04-2015 18:00:00 20.4 C 9.38 g/m*3 20.4 C 9.7 km/h
1946 26-04-2015 18:05:00 20.4 C 9.73 g/m*3 20.4 C 11.3 km/h
1947 26-04-2015 18:10:00 20.3 C 9.32 g/m*3 20.3 C 8.1 km/h
1948 26-04-2015 18:15:00 20.3 C 9.5 g/m*3 20.3 C 4.8 km/h
1949 26-04-2015 18:20:00 20.6 C 9.31 g/m*3 20.6 C 6.4 km/h
1950 26-04-2015 18:25:00 20.9 C 9.47 g/m*3 20.9 C 6.4 km/h
Sensor: Nr:Datum:Temp:Abs-Feuchte:Windchill:Wind:
Aussen-T/F 1951 26-04-2015 18:30:00 21 C 9.53 g/m*3 21 C 11.3 km/h
1952 26-04-2015 18:35:00 20.9 C 9.29 g/m*3 20.9 C 6.4 km/h
1953 26-04-2015 18:40:00 20.7 C 9.54 g/m*3 20.7 C 4.8 km/h
1954 26-04-2015 18:45:00 20.4 C 9.38 g/m*3 20.4 C 8.1 km/h
1955 26-04-2015 18:50:00 20.2 C 9.27 g/m*3 20.2 C 3.2 km/h
1956 26-04-2015 18:55:00 20.1 C 9.91 g/m*3 20.1 C 0 km/h
1957 26-04-2015 19:00:00 19.9 C 10.31 g/m*3 19.9 C 0 km/h
1958 26-04-2015 19:05:00 19.6 C 10.3 g/m*3 19.6 C 0 km/h
1959 26-04-2015 19:10:00 19.3 C 10.45 g/m*3 19.3 C 0 km/h
1960 26-04-2015 19:15:00 18.9 C 10.69 g/m*3 18.9 C 1.6 km/h
1961 26-04-2015 19:20:00 18.5 C 10.6 g/m*3 18.5 C 0 km/h
1962 26-04-2015 19:25:00 18.2 C 10.26 g/m*3 18.2 C 4.8 km/h
1963 26-04-2015 19:30:00 18.2 C 10.41 g/m*3 18.2 C 3.2 km/h
1964 26-04-2015 19:35:00 18.2 C 10.72 g/m*3 18.2 C 0 km/h
1965 26-04-2015 19:40:00 18 C 10.75 g/m*3 18 C 0 km/h
1966 26-04-2015 19:45:00 17.8 C 10.78 g/m*3 17.8 C 4.8 km/h
1967 26-04-2015 19:50:00 17.7 C 10.26 g/m*3 17.7 C 9.7 km/h
1968 26-04-2015 19:55:00 17.7 C 10.11 g/m*3 17.7 C 8.1 km/h
1969 26-04-2015 20:00:00 17.7 C 10.11 g/m*3 17.7 C 6.4 km/h
1970 26-04-2015 20:05:00 17.7 C 10.11 g/m*3 17.7 C 11.3 km/h
1971 26-04-2015 20:10:00 17.6 C 10.2 g/m*3 17.6 C 9.7 km/h
1972 26-04-2015 20:15:00 17.4 C 10.37 g/m*3 17.4 C 6.4 km/h
1973 26-04-2015 20:20:00 17.3 C 10.31 g/m*3 17.3 C 4.8 km/h
1974 26-04-2015 20:25:00 17.2 C 10.4 g/m*3 17.2 C 11.3 km/h
1975 26-04-2015 20:30:00 16.9 C 10.21 g/m*3 16.9 C 11.3 km/h
Sensor: Nr:Datum:Temp:Abs-Feuchte:Windchill:Wind:
Aussen-T/F 1976 26-04-2015 20:35:00 16.8 C 10.29 g/m*3 16.8 C 6.4 km/h
1977 26-04-2015 20:40:00 16.7 C 10.37 g/m*3 16.7 C 8.1 km/h
1978 26-04-2015 20:45:00 16.6 C 10.31 g/m*3 16.6 C 4.8 km/h
1979 26-04-2015 20:50:00 16.4 C 10.33 g/m*3 16.4 C 8.1 km/h
1980 26-04-2015 20:55:00 16.3 C 10.41 g/m*3 16.3 C 6.4 km/h
1981 26-04-2015 21:00:00 16.3 C 10.54 g/m*3 16.3 C 1.6 km/h
1982 26-04-2015 21:05:00 16.2 C 10.48 g/m*3 16.2 C 3.2 km/h
1983 26-04-2015 21:10:00 16 C 10.49 g/m*3 16 C 0 km/h
1984 26-04-2015 21:15:00 15.9 C 10.29 g/m*3 15.9 C 4.8 km/h
1985 26-04-2015 21:20:00 15.8 C 10.23 g/m*3 15.8 C 3.2 km/h
1986 26-04-2015 21:25:00 15.8 C 10.36 g/m*3 15.8 C 4.8 km/h
1987 26-04-2015 21:30:00 15.9 C 10.56 g/m*3 15.9 C 8.1 km/h
1988 26-04-2015 21:35:00 15.9 C 10.56 g/m*3 15.9 C 9.7 km/h
1989 26-04-2015 21:40:00 15.8 C 10.77 g/m*3 15.8 C 6.4 km/h
1990 26-04-2015 21:45:00 15.7 C 10.7 g/m*3 15.7 C 4.8 km/h
1991 26-04-2015 21:50:00 15.6 C 10.91 g/m*3 15.6 C 6.4 km/h
1992 26-04-2015 21:55:00 15.3 C 10.97 g/m*3 15.3 C 8.1 km/h
1993 26-04-2015 22:00:00 15.2 C 11.16 g/m*3 15.2 C 4.8 km/h
1994 26-04-2015 22:05:00 14.9 C 11.22 g/m*3 14.9 C 3.2 km/h
1995 26-04-2015 22:10:00 14.7 C 11.21 g/m*3 14.7 C 0 km/h
1996 26-04-2015 22:15:00 14.5 C 11.19 g/m*3 14.5 C 6.4 km/h
1997 26-04-2015 22:20:00 14.3 C 11.06 g/m*3 14.3 C 0 km/h
1998 26-04-2015 22:25:00 14.1 C 11.04 g/m*3 14.1 C 4.8 km/h
1999 26-04-2015 22:30:00 13.9 C 11.03 g/m*3 13.9 C 1.6 km/h
2000 26-04-2015 22:35:00 13.8 C 10.96 g/m*3 13.8 C 1.6 km/h
Sensor: Nr:Datum:Temp:Abs-Feuchte:Windchill:Wind:
Aussen-T/F 2001 26-04-2015 22:40:00 13.7 C 11.01 g/m*3 13.7 C 1.6 km/h
2002 26-04-2015 22:45:00 13.6 C 10.95 g/m*3 13.6 C 1.6 km/h
2003 26-04-2015 22:50:00 13.6 C 10.95 g/m*3 13.6 C 1.6 km/h
2004 26-04-2015 22:55:00 13.5 C 10.99 g/m*3 13.5 C 0 km/h
2005 26-04-2015 23:00:00 13.4 C 10.93 g/m*3 13.4 C 1.6 km/h
2006 26-04-2015 23:05:00 13.4 C 10.93 g/m*3 13.4 C 0 km/h
2007 26-04-2015 23:10:00 13.3 C 10.86 g/m*3 13.3 C 0 km/h
2008 26-04-2015 23:15:00 13.3 C 10.86 g/m*3 13.3 C 0 km/h
2009 26-04-2015 23:20:00 13.3 C 10.98 g/m*3 13.3 C 0 km/h
2010 26-04-2015 23:25:00 13.3 C 10.98 g/m*3 13.3 C 0 km/h
2011 26-04-2015 23:30:00 13.3 C 10.98 g/m*3 13.3 C 0 km/h
2012 26-04-2015 23:35:00 13.2 C 10.91 g/m*3 13.2 C 0 km/h
2013 26-04-2015 23:40:00 13.2 C 10.91 g/m*3 13.2 C 0 km/h
2014 26-04-2015 23:45:00 13.2 C 10.91 g/m*3 13.2 C 0 km/h
2015 26-04-2015 23:50:00 13.2 C 10.91 g/m*3 13.2 C 0 km/h
2016 26-04-2015 23:55:00 13.2 C 10.91 g/m*3 13.2 C 0 km/h
2017 27-04-2015 00:00:00 13.1 C 10.84 g/m*3 13.1 C 0 km/h
2018 27-04-2015 00:05:00 13.1 C 10.95 g/m*3 13.1 C 0 km/h
2019 27-04-2015 00:10:00 13.1 C 10.95 g/m*3 13.1 C 0 km/h
2020 27-04-2015 00:15:00 13.1 C 10.95 g/m*3 13.1 C 0 km/h
2021 27-04-2015 00:20:00 13 C 10.89 g/m*3 13 C 0 km/h
2022 27-04-2015 00:25:00 13 C 10.89 g/m*3 13 C 0 km/h
2023 27-04-2015 00:30:00 13 C 10.89 g/m*3 13 C 0 km/h
2024 27-04-2015 00:35:00 13 C 10.89 g/m*3 13 C 0 km/h
2025 27-04-2015 00:40:00 13 C 10.89 g/m*3 13 C 0 km/h
Sensor: Nr:Datum:Temp:Abs-Feuchte:Windchill:Wind:
Aussen-T/F 2026 27-04-2015 00:45:00 13.1 C 10.95 g/m*3 13.1 C 0 km/h
2027 27-04-2015 00:50:00 13.1 C 10.95 g/m*3 13.1 C 0 km/h
2028 27-04-2015 00:55:00 13.1 C 10.95 g/m*3 13.1 C 0 km/h
2029 27-04-2015 01:00:00 13.1 C 10.95 g/m*3 13.1 C 0 km/h
2030 27-04-2015 01:05:00 13.1 C 10.95 g/m*3 13.1 C 0 km/h
2031 27-04-2015 01:10:00 13 C 10.89 g/m*3 13 C 0 km/h
2032 27-04-2015 01:15:00 13 C 10.89 g/m*3 13 C 1.6 km/h
2033 27-04-2015 01:20:00 13 C 10.89 g/m*3 13 C 0 km/h
2034 27-04-2015 01:25:00 13 C 10.89 g/m*3 13 C 1.6 km/h
2035 27-04-2015 01:30:00 12.9 C 10.82 g/m*3 12.9 C 0 km/h
2036 27-04-2015 01:35:00 12.9 C 10.82 g/m*3 12.9 C 0 km/h
2037 27-04-2015 01:40:00 12.9 C 10.82 g/m*3 12.9 C 0 km/h
2038 27-04-2015 01:45:00 12.8 C 10.87 g/m*3 12.8 C 0 km/h
2039 27-04-2015 01:50:00 12.8 C 10.87 g/m*3 12.8 C 0 km/h
2040 27-04-2015 01:55:00 12.8 C 10.87 g/m*3 12.8 C 0 km/h
2041 27-04-2015 02:00:00 12.8 C 10.87 g/m*3 12.8 C 0 km/h
2042 27-04-2015 02:05:00 12.8 C 10.87 g/m*3 12.8 C 3.2 km/h
2043 27-04-2015 02:10:00 12.8 C 10.87 g/m*3 12.8 C 9.7 km/h
2044 27-04-2015 02:15:00 12.8 C 10.87 g/m*3 12.8 C 9.7 km/h
2045 27-04-2015 02:20:00 12.8 C 10.87 g/m*3 12.8 C 0 km/h
2046 27-04-2015 02:25:00 12.8 C 10.87 g/m*3 12.8 C 1.6 km/h
2047 27-04-2015 02:30:00 12.8 C 10.87 g/m*3 12.8 C 3.2 km/h
2048 27-04-2015 02:35:00 12.7 C 10.8 g/m*3 12.7 C 3.2 km/h
2049 27-04-2015 02:40:00 12.7 C 10.8 g/m*3 12.7 C 3.2 km/h
2050 27-04-2015 02:45:00 12.7 C 10.8 g/m*3 12.7 C 4.8 km/h
Sensor: Nr:Datum:Temp:Abs-Feuchte:Windchill:Wind:
Aussen-T/F 2051 27-04-2015 02:50:00 12.7 C 10.69 g/m*3 12.7 C 1.6 km/h
2052 27-04-2015 02:55:00 12.6 C 10.62 g/m*3 12.6 C 3.2 km/h
2053 27-04-2015 03:00:00 12.6 C 10.62 g/m*3 12.6 C 3.2 km/h
2054 27-04-2015 03:05:00 12.6 C 10.62 g/m*3 12.6 C 1.6 km/h
2055 27-04-2015 03:10:00 12.6 C 10.62 g/m*3 12.6 C 0 km/h
2056 27-04-2015 03:15:00 12.5 C 10.55 g/m*3 12.5 C 4.8 km/h
2057 27-04-2015 03:20:00 12.4 C 10.6 g/m*3 12.4 C 0 km/h
2058 27-04-2015 03:25:00 12.4 C 10.6 g/m*3 12.4 C 1.6 km/h
2059 27-04-2015 03:30:00 12.4 C 10.6 g/m*3 12.4 C 0 km/h
2060 27-04-2015 03:35:00 12.4 C 10.6 g/m*3 12.4 C 0 km/h
2061 27-04-2015 03:40:00 12.3 C 10.53 g/m*3 12.3 C 0 km/h
2062 27-04-2015 03:45:00 12.4 C 10.6 g/m*3 12.4 C 0 km/h
2063 27-04-2015 03:50:00 12.4 C 10.6 g/m*3 12.4 C 1.6 km/h
2064 27-04-2015 03:55:00 12.3 C 10.53 g/m*3 12.3 C 0 km/h
2065 27-04-2015 04:00:00 12.3 C 10.53 g/m*3 12.3 C 0 km/h
2066 27-04-2015 04:05:00 12.3 C 10.53 g/m*3 12.3 C 0 km/h
2067 27-04-2015 04:10:00 12.3 C 10.53 g/m*3 12.3 C 0 km/h
2068 27-04-2015 04:15:00 12.3 C 10.53 g/m*3 12.3 C 0 km/h
2069 27-04-2015 04:20:00 12.3 C 10.53 g/m*3 12.3 C 0 km/h
2070 27-04-2015 04:25:00 12.3 C 10.53 g/m*3 12.3 C 0 km/h
2071 27-04-2015 04:30:00 12.3 C 10.53 g/m*3 12.3 C 0 km/h
2072 27-04-2015 04:35:00 12.3 C 10.53 g/m*3 12.3 C 0 km/h
2073 27-04-2015 04:40:00 12.3 C 10.53 g/m*3 12.3 C 0 km/h
2074 27-04-2015 04:45:00 12.3 C 10.53 g/m*3 12.3 C 0 km/h
2075 27-04-2015 04:50:00 12.3 C 10.53 g/m*3 12.3 C 0 km/h
Sensor: Nr:Datum:Temp:Abs-Feuchte:Windchill:Wind:
Aussen-T/F 2076 27-04-2015 04:55:00 12.3 C 10.53 g/m*3 12.3 C 0 km/h
2077 27-04-2015 05:00:00 12.2 C 10.47 g/m*3 12.2 C 1.6 km/h
2078 27-04-2015 05:05:00 12.2 C 10.47 g/m*3 12.2 C 0 km/h
2079 27-04-2015 05:10:00 12.2 C 10.47 g/m*3 12.2 C 0 km/h
2080 27-04-2015 05:15:00 12.2 C 10.47 g/m*3 12.2 C 0 km/h
2081 27-04-2015 05:20:00 12.2 C 10.47 g/m*3 12.2 C 0 km/h
2082 27-04-2015 05:25:00 12.2 C 10.47 g/m*3 12.2 C 3.2 km/h
2083 27-04-2015 05:30:00 12.2 C 10.47 g/m*3 12.2 C 0 km/h
2084 27-04-2015 05:35:00 12.2 C 10.47 g/m*3 12.2 C 1.6 km/h
2085 27-04-2015 05:40:00 12.2 C 10.47 g/m*3 12.2 C 0 km/h
2086 27-04-2015 05:45:00 12.2 C 10.47 g/m*3 12.2 C 0 km/h
2087 27-04-2015 05:50:00 12.2 C 10.47 g/m*3 12.2 C 0 km/h
2088 27-04-2015 05:55:00 12.2 C 10.47 g/m*3 12.2 C 0 km/h
2089 27-04-2015 06:00:00 12.2 C 10.47 g/m*3 12.2 C 0 km/h
2090 27-04-2015 06:05:00 12.1 C 10.4 g/m*3 12.1 C 0 km/h
2091 27-04-2015 06:10:00 12.1 C 10.4 g/m*3 12.1 C 0 km/h
2092 27-04-2015 06:15:00 12.1 C 10.4 g/m*3 12.1 C 0 km/h
2093 27-04-2015 06:20:00 12.1 C 10.4 g/m*3 12.1 C 0 km/h
2094 27-04-2015 06:25:00 12.1 C 10.4 g/m*3 12.1 C 1.6 km/h
2095 27-04-2015 06:30:00 12.1 C 10.4 g/m*3 12.1 C 3.2 km/h
2096 27-04-2015 06:35:00 12.1 C 10.4 g/m*3 12.1 C 0 km/h
2097 27-04-2015 06:40:00 12.1 C 10.4 g/m*3 12.1 C 3.2 km/h
2098 27-04-2015 06:45:00 12.1 C 10.4 g/m*3 12.1 C 6.4 km/h
2099 27-04-2015 06:50:00 12.1 C 10.4 g/m*3 12.1 C 6.4 km/h
2100 27-04-2015 06:55:00 12.1 C 10.4 g/m*3 12.1 C 6.4 km/h
Sensor: Nr:Datum:Temp:Abs-Feuchte:Windchill:Wind:
Aussen-T/F 2101 27-04-2015 07:00:00 12.1 C 10.4 g/m*3 12.1 C 4.8 km/h
2102 27-04-2015 07:05:00 12.1 C 10.4 g/m*3 12.1 C 4.8 km/h
2103 27-04-2015 07:10:00 12.1 C 10.4 g/m*3 12.1 C 9.7 km/h
2104 27-04-2015 07:15:00 12 C 10.34 g/m*3 12 C 9.7 km/h
2105 27-04-2015 07:20:00 11.9 C 10.27 g/m*3 11.9 C 9.7 km/h
2106 27-04-2015 07:25:00 11.8 C 10.21 g/m*3 11.8 C 12.9 km/h
2107 27-04-2015 07:30:00 11.6 C 9.98 g/m*3 11.6 C 12.9 km/h
2108 27-04-2015 07:35:00 11.4 C 9.85 g/m*3 11.4 C 16.1 km/h
2109 27-04-2015 07:40:00 11.4 C 9.85 g/m*3 11.4 C 11.3 km/h
2110 27-04-2015 07:45:00 11.2 C 9.73 g/m*3 11.2 C 12.9 km/h
2111 27-04-2015 07:50:00 11.1 C 9.67 g/m*3 11.1 C 4.8 km/h
2112 27-04-2015 07:55:00 11.1 C 9.67 g/m*3 11.1 C 4.8 km/h
2113 27-04-2015 08:00:00 11 C 9.51 g/m*3 11 C 4.8 km/h
2114 27-04-2015 08:05:00 10.9 C 9.45 g/m*3 10.9 C 3.2 km/h
2115 27-04-2015 08:10:00 11 C 9.51 g/m*3 10.52 C 6.4 km/h
2116 27-04-2015 08:15:00 11.1 C 9.57 g/m*3 11.1 C 3.2 km/h
2117 27-04-2015 08:20:00 11.1 C 9.57 g/m*3 11.1 C 1.6 km/h
2118 27-04-2015 08:25:00 11.1 C 9.57 g/m*3 11.1 C 0 km/h
2119 27-04-2015 08:30:00 11.1 C 9.57 g/m*3 11.1 C 6.4 km/h
2120 27-04-2015 08:35:00 11.2 C 9.63 g/m*3 11.2 C 3.2 km/h
2121 27-04-2015 08:40:00 11.2 C 9.63 g/m*3 11.2 C 3.2 km/h
2122 27-04-2015 08:45:00 11.2 C 9.63 g/m*3 11.2 C 1.6 km/h
2123 27-04-2015 08:50:00 11.2 C 9.63 g/m*3 11.2 C 1.6 km/h
2124 27-04-2015 08:55:00 11.2 C 9.63 g/m*3 11.2 C 1.6 km/h
2125 27-04-2015 09:00:00 11.3 C 9.69 g/m*3 11.3 C 1.6 km/h
Sensor: Nr:Datum:Temp:Abs-Feuchte:Windchill:Wind:
Aussen-T/F 2126 27-04-2015 09:05:00 11.4 C 9.75 g/m*3 11.4 C 4.8 km/h
2127 27-04-2015 09:10:00 11.4 C 9.65 g/m*3 11.4 C 11.3 km/h
2128 27-04-2015 09:15:00 11.5 C 9.71 g/m*3 11.5 C 3.2 km/h
2129 27-04-2015 09:20:00 11.6 C 9.77 g/m*3 11.6 C 4.8 km/h
2130 27-04-2015 09:25:00 11.7 C 9.83 g/m*3 11.7 C 3.2 km/h
2131 27-04-2015 09:30:00 11.8 C 10 g/m*3 11.8 C 0 km/h
2132 27-04-2015 09:35:00 11.8 C 10 g/m*3 11.8 C 0 km/h
2133 27-04-2015 09:40:00 11.9 C 9.96 g/m*3 11.9 C 4.8 km/h
2134 27-04-2015 09:45:00 12 C 10.02 g/m*3 12 C 1.6 km/h
2135 27-04-2015 09:50:00 12.1 C 10.08 g/m*3 12.1 C 3.2 km/h
2136 27-04-2015 09:55:00 12.2 C 10.14 g/m*3 12.2 C 1.6 km/h
2137 27-04-2015 10:00:00 12.3 C 10.1 g/m*3 12.3 C 6.4 km/h
2138 27-04-2015 10:05:00 12.3 C 10.1 g/m*3 12.3 C 11.3 km/h
2139 27-04-2015 10:10:00 12.2 C 10.04 g/m*3 12.2 C 8.1 km/h
2140 27-04-2015 10:15:00 11.9 C 9.74 g/m*3 11.9 C 9.7 km/h
2141 27-04-2015 10:20:00 11.8 C 9.79 g/m*3 11.8 C 11.3 km/h
2142 27-04-2015 10:25:00 11.6 C 9.56 g/m*3 11.6 C 9.7 km/h
2143 27-04-2015 10:30:00 11.6 C 9.67 g/m*3 11.6 C 11.3 km/h
2144 27-04-2015 10:35:00 11.5 C 9.61 g/m*3 11.5 C 8.1 km/h
2145 27-04-2015 10:40:00 11.5 C 9.71 g/m*3 11.5 C 16.1 km/h
2146 27-04-2015 10:45:00 11.5 C 9.71 g/m*3 11.5 C 8.1 km/h
2147 27-04-2015 10:50:00 11.4 C 9.55 g/m*3 11.4 C 6.4 km/h
2148 27-04-2015 10:55:00 11.4 C 9.55 g/m*3 11.4 C 8.1 km/h
2149 27-04-2015 11:00:00 11.3 C 9.49 g/m*3 11.3 C 11.3 km/h
2150 27-04-2015 11:05:00 11.3 C 9.59 g/m*3 11.3 C 6.4 km/h
Sensor: Nr:Datum:Temp:Abs-Feuchte:Windchill:Wind:
Aussen-T/F 2151 27-04-2015 11:10:00 11.3 C 9.49 g/m*3 11.3 C 12.9 km/h
2152 27-04-2015 11:15:00 11.4 C 9.65 g/m*3 11.4 C 9.7 km/h
2153 27-04-2015 11:20:00 11.3 C 9.49 g/m*3 11.3 C 11.3 km/h
2154 27-04-2015 11:25:00 11.2 C 9.43 g/m*3 11.2 C 12.9 km/h
2155 27-04-2015 11:30:00 11.2 C 9.53 g/m*3 11.2 C 11.3 km/h
2156 27-04-2015 11:35:00 11.1 C 9.47 g/m*3 11.1 C 12.9 km/h
2157 27-04-2015 11:40:00 10.9 C 9.25 g/m*3 9.51 C 11.3 km/h
2158 27-04-2015 11:45:00 10.8 C 9.29 g/m*3 9.38 C 11.3 km/h
2159 27-04-2015 11:50:00 10.8 C 9.29 g/m*3 9.38 C 11.3 km/h
2160 27-04-2015 11:55:00 10.7 C 9.23 g/m*3 10.18 C 6.4 km/h
2161 27-04-2015 12:00:00 10.6 C 9.17 g/m*3 10.06 C 6.4 km/h
2162 27-04-2015 12:05:00 10.5 C 9.12 g/m*3 9.95 C 6.4 km/h
2163 27-04-2015 12:10:00 10.4 C 9.06 g/m*3 9.46 C 8.1 km/h
2164 27-04-2015 12:15:00 10.4 C 9.06 g/m*3 8.67 C 12.9 km/h
2165 27-04-2015 12:20:00 10.3 C 9 g/m*3 9.34 C 8.1 km/h
2166 27-04-2015 12:25:00 10.3 C 9 g/m*3 10.3 C 3.2 km/h
2167 27-04-2015 12:30:00 10.3 C 9 g/m*3 9.04 C 9.7 km/h
2168 27-04-2015 12:35:00 10.2 C 8.95 g/m*3 8.92 C 9.7 km/h
2169 27-04-2015 12:40:00 10.3 C 9.1 g/m*3 9.34 C 8.1 km/h
2170 27-04-2015 12:45:00 10.3 C 9 g/m*3 9.04 C 9.7 km/h
2171 27-04-2015 12:50:00 10.2 C 8.95 g/m*3 9.22 C 8.1 km/h
2172 27-04-2015 12:55:00 10.2 C 8.95 g/m*3 9.6 C 6.4 km/h
2173 27-04-2015 13:00:00 10.2 C 8.95 g/m*3 10.2 C 0 km/h
2174 27-04-2015 13:05:00 10.2 C 9.04 g/m*3 10.2 C 4.8 km/h
2175 27-04-2015 13:10:00 10.2 C 9.04 g/m*3 10.2 C 3.2 km/h
Sensor: Nr:Datum:Temp:Abs-Feuchte:Windchill:Wind:
Aussen-T/F 2176 27-04-2015 13:15:00 10.3 C 9.1 g/m*3 10.3 C 3.2 km/h
2177 27-04-2015 13:20:00 10.2 C 8.95 g/m*3 9.6 C 6.4 km/h
2178 27-04-2015 13:25:00 10.2 C 9.04 g/m*3 10.2 C 4.8 km/h
2179 27-04-2015 13:30:00 10.2 C 9.04 g/m*3 10.2 C 4.8 km/h
2180 27-04-2015 13:35:00 10.3 C 9.1 g/m*3 9.72 C 6.4 km/h
2181 27-04-2015 13:40:00 10.2 C 8.95 g/m*3 9.6 C 6.4 km/h
2182 27-04-2015 13:45:00 10.2 C 8.95 g/m*3 9.22 C 8.1 km/h
2183 27-04-2015 13:50:00 10.2 C 9.04 g/m*3 10.2 C 4.8 km/h
2184 27-04-2015 13:55:00 10.2 C 8.95 g/m*3 8.66 C 11.3 km/h
2185 27-04-2015 14:00:00 10.2 C 8.95 g/m*3 9.6 C 6.4 km/h
2186 27-04-2015 14:05:00 10.2 C 8.95 g/m*3 9.22 C 8.1 km/h
2187 27-04-2015 14:10:00 10.1 C 8.89 g/m*3 9.1 C 8.1 km/h
2188 27-04-2015 14:15:00 10.1 C 8.89 g/m*3 9.48 C 6.4 km/h
2189 27-04-2015 14:20:00 10.1 C 8.89 g/m*3 9.1 C 8.1 km/h
2190 27-04-2015 14:25:00 10.1 C 8.89 g/m*3 10.1 C 3.2 km/h
2191 27-04-2015 14:30:00 10.1 C 8.89 g/m*3 10.1 C 4.8 km/h
2192 27-04-2015 14:35:00 10 C 8.83 g/m*3 9.37 C 6.4 km/h
2193 27-04-2015 14:40:00 9.9 C 8.78 g/m*3 9.25 C 6.4 km/h
2194 27-04-2015 14:45:00 9.8 C 8.72 g/m*3 9.14 C 6.4 km/h
2195 27-04-2015 14:50:00 9.8 C 8.72 g/m*3 7.73 C 14.5 km/h
2196 27-04-2015 14:55:00 9.7 C 8.57 g/m*3 8.06 C 11.3 km/h
2197 27-04-2015 15:00:00 9.7 C 8.67 g/m*3 9.7 C 4.8 km/h
2198 27-04-2015 15:05:00 9.8 C 8.72 g/m*3 9.8 C 4.8 km/h
2199 27-04-2015 15:10:00 9.8 C 8.72 g/m*3 9.8 C 4.8 km/h
2200 27-04-2015 15:15:00 9.7 C 8.67 g/m*3 8.33 C 9.7 km/h
Sensor: Nr:Datum:Temp:Abs-Feuchte:Windchill:Wind:
Aussen-T/F 2201 27-04-2015 15:20:00 9.6 C 8.61 g/m*3 8.21 C 9.7 km/h
2202 27-04-2015 15:25:00 9.5 C 8.47 g/m*3 8.4 C 8.1 km/h
2203 27-04-2015 15:30:00 9.4 C 8.41 g/m*3 7.7 C 11.3 km/h
2204 27-04-2015 15:35:00 9.4 C 8.41 g/m*3 9.4 C 1.6 km/h
2205 27-04-2015 15:40:00 9.4 C 8.41 g/m*3 7.97 C 9.7 km/h
2206 27-04-2015 15:45:00 9.4 C 8.41 g/m*3 9.4 C 3.2 km/h
2207 27-04-2015 15:50:00 9.4 C 8.5 g/m*3 8.68 C 6.4 km/h
2208 27-04-2015 15:55:00 9.4 C 8.41 g/m*3 9.4 C 4.8 km/h
2209 27-04-2015 16:00:00 9.4 C 8.41 g/m*3 7.97 C 9.7 km/h
2210 27-04-2015 16:05:00 9.4 C 8.41 g/m*3 7.97 C 9.7 km/h
2211 27-04-2015 16:10:00 9.3 C 8.36 g/m*3 8.16 C 8.1 km/h
2212 27-04-2015 16:15:00 9.2 C 8.3 g/m*3 9.2 C 4.8 km/h
2213 27-04-2015 16:20:00 9.2 C 8.3 g/m*3 9.2 C 4.8 km/h
2214 27-04-2015 16:25:00 9.2 C 8.3 g/m*3 8.05 C 8.1 km/h
2215 27-04-2015 16:30:00 9.2 C 8.3 g/m*3 9.2 C 4.8 km/h
2216 27-04-2015 16:35:00 9.1 C 8.25 g/m*3 7.61 C 9.7 km/h
2217 27-04-2015 16:40:00 9.1 C 8.25 g/m*3 9.1 C 4.8 km/h
2218 27-04-2015 16:45:00 9.1 C 8.16 g/m*3 7.61 C 9.7 km/h
2219 27-04-2015 16:50:00 8.9 C 8.06 g/m*3 7.69 C 8.1 km/h
2220 27-04-2015 16:55:00 8.9 C 8.15 g/m*3 8.1 C 6.4 km/h
2221 27-04-2015 17:00:00 8.8 C 8.01 g/m*3 6.97 C 11.3 km/h
2222 27-04-2015 17:05:00 8.8 C 8.09 g/m*3 7.98 C 6.4 km/h
2223 27-04-2015 17:10:00 8.8 C 8.01 g/m*3 7.25 C 9.7 km/h
2224 27-04-2015 17:15:00 8.8 C 8.01 g/m*3 7.98 C 6.4 km/h
2225 27-04-2015 17:20:00 8.7 C 7.96 g/m*3 8.7 C 1.6 km/h
Sensor: Nr:Datum:Temp:Abs-Feuchte:Windchill:Wind:
Aussen-T/F 2226 27-04-2015 17:25:00 8.7 C 8.04 g/m*3 8.7 C 1.6 km/h
2227 27-04-2015 17:30:00 8.7 C 8.04 g/m*3 7.87 C 6.4 km/h
2228 27-04-2015 17:35:00 8.7 C 8.04 g/m*3 8.7 C 3.2 km/h
2229 27-04-2015 17:40:00 8.7 C 8.04 g/m*3 7.13 C 9.7 km/h
2230 27-04-2015 17:45:00 8.6 C 7.99 g/m*3 8.6 C 1.6 km/h
2231 27-04-2015 17:50:00 8.6 C 7.99 g/m*3 8.6 C 4.8 km/h
2232 27-04-2015 17:55:00 8.6 C 7.99 g/m*3 8.6 C 1.6 km/h
2233 27-04-2015 18:00:00 8.6 C 7.99 g/m*3 8.6 C 1.6 km/h
2234 27-04-2015 18:05:00 8.6 C 7.99 g/m*3 8.6 C 3.2 km/h
2235 27-04-2015 18:10:00 8.5 C 7.94 g/m*3 8.5 C 1.6 km/h
2236 27-04-2015 18:15:00 8.4 C 7.89 g/m*3 8.4 C 1.6 km/h
2237 27-04-2015 18:20:00 8.4 C 7.89 g/m*3 8.4 C 3.2 km/h
2238 27-04-2015 18:25:00 8.4 C 7.89 g/m*3 8.4 C 4.8 km/h
2239 27-04-2015 18:30:00 8.5 C 7.94 g/m*3 8.5 C 4.8 km/h
2240 27-04-2015 18:35:00 8.4 C 7.89 g/m*3 8.4 C 3.2 km/h
2241 27-04-2015 18:40:00 8.4 C 7.89 g/m*3 8.4 C 3.2 km/h
2242 27-04-2015 18:45:00 8.3 C 7.84 g/m*3 8.3 C 3.2 km/h
2243 27-04-2015 18:50:00 8.3 C 7.84 g/m*3 8.3 C 3.2 km/h
2244 27-04-2015 18:55:00 8.3 C 7.84 g/m*3 8.3 C 1.6 km/h
2245 27-04-2015 19:00:00 8.3 C 7.84 g/m*3 6.66 C 9.7 km/h
2246 27-04-2015 19:05:00 8.3 C 7.84 g/m*3 8.3 C 1.6 km/h
2247 27-04-2015 19:10:00 8.2 C 7.79 g/m*3 6.54 C 9.7 km/h
2248 27-04-2015 19:15:00 8.2 C 7.79 g/m*3 8.2 C 4.8 km/h
2249 27-04-2015 19:20:00 8.1 C 7.74 g/m*3 8.1 C 4.8 km/h
2250 27-04-2015 19:25:00 8.1 C 7.74 g/m*3 7.17 C 6.4 km/h
Sensor: Nr:Datum:Temp:Abs-Feuchte:Windchill:Wind:
Aussen-T/F 2251 27-04-2015 19:30:00 8.1 C 7.74 g/m*3 8.1 C 1.6 km/h
2252 27-04-2015 19:35:00 8.1 C 7.74 g/m*3 8.1 C 3.2 km/h
2253 27-04-2015 19:40:00 8 C 7.69 g/m*3 8 C 4.8 km/h
2254 27-04-2015 19:45:00 8 C 7.69 g/m*3 8 C 4.8 km/h
2255 27-04-2015 19:50:00 8 C 7.69 g/m*3 7.06 C 6.4 km/h
2256 27-04-2015 19:55:00 7.9 C 7.56 g/m*3 7.9 C 1.6 km/h
2257 27-04-2015 20:00:00 7.9 C 7.56 g/m*3 6.94 C 6.4 km/h
2258 27-04-2015 20:05:00 7.8 C 7.51 g/m*3 7.8 C 4.8 km/h
2259 27-04-2015 20:10:00 7.8 C 7.51 g/m*3 6.83 C 6.4 km/h
2260 27-04-2015 20:15:00 7.8 C 7.51 g/m*3 7.8 C 1.6 km/h
2261 27-04-2015 20:20:00 7.7 C 7.46 g/m*3 7.7 C 3.2 km/h
2262 27-04-2015 20:25:00 7.7 C 7.46 g/m*3 6.28 C 8.1 km/h
2263 27-04-2015 20:30:00 7.7 C 7.38 g/m*3 7.7 C 1.6 km/h
2264 27-04-2015 20:35:00 7.7 C 7.46 g/m*3 7.7 C 1.6 km/h
2265 27-04-2015 20:40:00 7.7 C 7.46 g/m*3 5.94 C 9.7 km/h
2266 27-04-2015 20:45:00 7.7 C 7.46 g/m*3 7.7 C 1.6 km/h
2267 27-04-2015 20:50:00 7.6 C 7.41 g/m*3 7.6 C 3.2 km/h
2268 27-04-2015 20:55:00 7.7 C 7.46 g/m*3 7.7 C 0 km/h
2269 27-04-2015 21:00:00 7.7 C 7.46 g/m*3 7.7 C 0 km/h
2270 27-04-2015 21:05:00 7.7 C 7.54 g/m*3 7.7 C 1.6 km/h
2271 27-04-2015 21:10:00 7.7 C 7.54 g/m*3 7.7 C 4.8 km/h
2272 27-04-2015 21:15:00 7.7 C 7.54 g/m*3 7.7 C 0 km/h
2273 27-04-2015 21:20:00 7.7 C 7.54 g/m*3 7.7 C 1.6 km/h
2274 27-04-2015 21:25:00 7.7 C 7.54 g/m*3 7.7 C 0 km/h
2275 27-04-2015 21:30:00 7.7 C 7.62 g/m*3 7.7 C 0 km/h
Sensor: Nr:Datum:Temp:Abs-Feuchte:Windchill:Wind:
Aussen-T/F 2276 27-04-2015 21:35:00 7.6 C 7.49 g/m*3 7.6 C 0 km/h
2277 27-04-2015 21:40:00 7.6 C 7.57 g/m*3 7.6 C 3.2 km/h
2278 27-04-2015 21:45:00 7.6 C 7.57 g/m*3 7.6 C 0 km/h
2279 27-04-2015 21:50:00 7.6 C 7.57 g/m*3 5.26 C 12.9 km/h
2280 27-04-2015 21:55:00 7.6 C 7.57 g/m*3 7.6 C 3.2 km/h
2281 27-04-2015 22:00:00 7.7 C 7.62 g/m*3 7.7 C 0 km/h
2282 27-04-2015 22:05:00 7.7 C 7.62 g/m*3 7.7 C 1.6 km/h
2283 27-04-2015 22:10:00 7.7 C 7.62 g/m*3 7.7 C 0 km/h
2284 27-04-2015 22:15:00 7.6 C 7.57 g/m*3 7.6 C 0 km/h
2285 27-04-2015 22:20:00 7.6 C 7.57 g/m*3 7.6 C 3.2 km/h
2286 27-04-2015 22:25:00 7.6 C 7.49 g/m*3 7.6 C 0 km/h
2287 27-04-2015 22:30:00 7.6 C 7.49 g/m*3 7.6 C 1.6 km/h
2288 27-04-2015 22:35:00 7.6 C 7.57 g/m*3 7.6 C 3.2 km/h
2289 27-04-2015 22:40:00 7.6 C 7.49 g/m*3 7.6 C 0 km/h
2290 27-04-2015 22:45:00 7.7 C 7.62 g/m*3 7.7 C 0 km/h
2291 27-04-2015 22:50:00 7.6 C 7.57 g/m*3 7.6 C 0 km/h
2292 27-04-2015 22:55:00 7.6 C 7.57 g/m*3 7.6 C 0 km/h
2293 27-04-2015 23:00:00 7.6 C 7.57 g/m*3 7.6 C 0 km/h
2294 27-04-2015 23:05:00 7.5 C 7.52 g/m*3 7.5 C 0 km/h
2295 27-04-2015 23:10:00 7.4 C 7.48 g/m*3 7.4 C 0 km/h
2296 27-04-2015 23:15:00 7.4 C 7.48 g/m*3 7.4 C 3.2 km/h
2297 27-04-2015 23:20:00 7.4 C 7.48 g/m*3 7.4 C 0 km/h
2298 27-04-2015 23:25:00 7.4 C 7.48 g/m*3 7.4 C 0 km/h
2299 27-04-2015 23:30:00 7.4 C 7.55 g/m*3 7.4 C 0 km/h
2300 27-04-2015 23:35:00 7.4 C 7.55 g/m*3 7.4 C 0 km/h
Sensor: Nr:Datum:Temp:Abs-Feuchte:Windchill:Wind:
Aussen-T/F 2301 27-04-2015 23:40:00 7.4 C 7.55 g/m*3 7.4 C 0 km/h
2302 27-04-2015 23:45:00 7.4 C 7.55 g/m*3 7.4 C 0 km/h
2303 27-04-2015 23:50:00 7.3 C 7.51 g/m*3 7.3 C 0 km/h
2304 27-04-2015 23:55:00 7.3 C 7.51 g/m*3 7.3 C 0 km/h
2305 28-04-2015 00:00:00 7.3 C 7.51 g/m*3 7.3 C 0 km/h
2306 28-04-2015 00:05:00 7.3 C 7.51 g/m*3 7.3 C 0 km/h
2307 28-04-2015 00:10:00 7.3 C 7.51 g/m*3 7.3 C 0 km/h
2308 28-04-2015 00:15:00 7.3 C 7.51 g/m*3 7.3 C 0 km/h
2309 28-04-2015 00:20:00 7.2 C 7.46 g/m*3 7.2 C 0 km/h
2310 28-04-2015 00:25:00 7.2 C 7.46 g/m*3 7.2 C 0 km/h
2311 28-04-2015 00:30:00 7.2 C 7.46 g/m*3 7.2 C 1.6 km/h
2312 28-04-2015 00:35:00 7.2 C 7.46 g/m*3 7.2 C 1.6 km/h
2313 28-04-2015 00:40:00 7.2 C 7.46 g/m*3 7.2 C 1.6 km/h
2314 28-04-2015 00:45:00 7.2 C 7.46 g/m*3 7.2 C 0 km/h
2315 28-04-2015 00:50:00 7.2 C 7.46 g/m*3 7.2 C 1.6 km/h
2316 28-04-2015 00:55:00 7.2 C 7.46 g/m*3 7.2 C 0 km/h
2317 28-04-2015 01:00:00 7.2 C 7.46 g/m*3 7.2 C 1.6 km/h
2318 28-04-2015 01:05:00 7.2 C 7.46 g/m*3 7.2 C 1.6 km/h
2319 28-04-2015 01:10:00 7.2 C 7.46 g/m*3 7.2 C 0 km/h
2320 28-04-2015 01:15:00 7.2 C 7.46 g/m*3 7.2 C 0 km/h
2321 28-04-2015 01:20:00 7.2 C 7.46 g/m*3 7.2 C 0 km/h
2322 28-04-2015 01:25:00 7.2 C 7.46 g/m*3 7.2 C 3.2 km/h
2323 28-04-2015 01:30:00 7.2 C 7.38 g/m*3 6.13 C 6.4 km/h
2324 28-04-2015 01:35:00 7.3 C 7.43 g/m*3 7.3 C 0 km/h
2325 28-04-2015 01:40:00 7.3 C 7.43 g/m*3 7.3 C 4.8 km/h
Sensor: Nr:Datum:Temp:Abs-Feuchte:Windchill:Wind:
Aussen-T/F 2326 28-04-2015 01:45:00 7.3 C 7.35 g/m*3 6.25 C 6.4 km/h
2327 28-04-2015 01:50:00 7.3 C 7.35 g/m*3 7.3 C 4.8 km/h
2328 28-04-2015 01:55:00 7.4 C 7.32 g/m*3 7.4 C 4.8 km/h
2329 28-04-2015 02:00:00 7.5 C 7.36 g/m*3 6.48 C 6.4 km/h
2330 28-04-2015 02:05:00 7.6 C 7.33 g/m*3 5.02 C 14.5 km/h
2331 28-04-2015 02:10:00 7.7 C 7.22 g/m*3 5.94 C 9.7 km/h
2332 28-04-2015 02:15:00 7.8 C 7.26 g/m*3 7.8 C 4.8 km/h
2333 28-04-2015 02:20:00 7.8 C 7.26 g/m*3 6.06 C 9.7 km/h
2334 28-04-2015 02:25:00 7.8 C 7.35 g/m*3 7.8 C 3.2 km/h
2335 28-04-2015 02:30:00 7.8 C 7.35 g/m*3 7.8 C 3.2 km/h
2336 28-04-2015 02:35:00 7.7 C 7.38 g/m*3 7.7 C 1.6 km/h
2337 28-04-2015 02:40:00 7.7 C 7.38 g/m*3 7.7 C 0 km/h
2338 28-04-2015 02:45:00 7.6 C 7.33 g/m*3 7.6 C 1.6 km/h
2339 28-04-2015 02:50:00 7.5 C 7.36 g/m*3 7.5 C 0 km/h
2340 28-04-2015 02:55:00 7.5 C 7.36 g/m*3 7.5 C 1.6 km/h
2341 28-04-2015 03:00:00 7.4 C 7.24 g/m*3 7.4 C 1.6 km/h
2342 28-04-2015 03:05:00 7.4 C 7.32 g/m*3 7.4 C 1.6 km/h
2343 28-04-2015 03:10:00 7.3 C 7.27 g/m*3 7.3 C 4.8 km/h
2344 28-04-2015 03:15:00 7.3 C 7.27 g/m*3 7.3 C 3.2 km/h
2345 28-04-2015 03:20:00 7.3 C 7.27 g/m*3 7.3 C 1.6 km/h
2346 28-04-2015 03:25:00 7.3 C 7.19 g/m*3 7.3 C 1.6 km/h
2347 28-04-2015 03:30:00 7.3 C 7.27 g/m*3 7.3 C 1.6 km/h
2348 28-04-2015 03:35:00 7.3 C 7.27 g/m*3 7.3 C 0 km/h
2349 28-04-2015 03:40:00 7.2 C 7.22 g/m*3 7.2 C 0 km/h
2350 28-04-2015 03:45:00 7.1 C 7.18 g/m*3 7.1 C 3.2 km/h
Sensor: Nr:Datum:Temp:Abs-Feuchte:Windchill:Wind:
Aussen-T/F 2351 28-04-2015 03:50:00 7 C 6.97 g/m*3 7 C 3.2 km/h
2352 28-04-2015 03:55:00 7 C 6.9 g/m*3 7 C 4.8 km/h
2353 28-04-2015 04:00:00 7 C 6.9 g/m*3 7 C 3.2 km/h
2354 28-04-2015 04:05:00 6.9 C 6.77 g/m*3 6.9 C 3.2 km/h
2355 28-04-2015 04:10:00 6.9 C 6.77 g/m*3 6.9 C 3.2 km/h
2356 28-04-2015 04:15:00 6.9 C 6.77 g/m*3 6.9 C 3.2 km/h
2357 28-04-2015 04:20:00 6.9 C 6.77 g/m*3 5.34 C 8.1 km/h
2358 28-04-2015 04:25:00 6.9 C 6.77 g/m*3 5.79 C 6.4 km/h
2359 28-04-2015 04:30:00 6.9 C 6.77 g/m*3 6.9 C 3.2 km/h
2360 28-04-2015 04:35:00 6.7 C 6.84 g/m*3 6.7 C 0 km/h
2361 28-04-2015 04:40:00 6.6 C 6.87 g/m*3 6.6 C 3.2 km/h
2362 28-04-2015 04:45:00 6.5 C 6.82 g/m*3 6.5 C 1.6 km/h
2363 28-04-2015 04:50:00 6.4 C 6.78 g/m*3 5.21 C 6.4 km/h
2364 28-04-2015 04:55:00 6.4 C 6.78 g/m*3 6.4 C 1.6 km/h
2365 28-04-2015 05:00:00 6.4 C 6.78 g/m*3 6.4 C 4.8 km/h
2366 28-04-2015 05:05:00 6.3 C 6.74 g/m*3 6.3 C 1.6 km/h
2367 28-04-2015 05:10:00 6.3 C 6.74 g/m*3 6.3 C 4.8 km/h
2368 28-04-2015 05:15:00 6.3 C 6.74 g/m*3 5.1 C 6.4 km/h
2369 28-04-2015 05:20:00 6.3 C 6.74 g/m*3 5.1 C 6.4 km/h
2370 28-04-2015 05:25:00 6.2 C 6.69 g/m*3 6.2 C 1.6 km/h
2371 28-04-2015 05:30:00 6.1 C 6.58 g/m*3 6.1 C 3.2 km/h
2372 28-04-2015 05:35:00 6.1 C 6.58 g/m*3 4.04 C 9.7 km/h
2373 28-04-2015 05:40:00 6 C 6.53 g/m*3 4.75 C 6.4 km/h
2374 28-04-2015 05:45:00 5.9 C 6.49 g/m*3 5.9 C 1.6 km/h
2375 28-04-2015 05:50:00 5.9 C 6.49 g/m*3 5.9 C 4.8 km/h
Sensor: Nr:Datum:Temp:Abs-Feuchte:Windchill:Wind:
Aussen-T/F 2376 28-04-2015 05:55:00 5.8 C 6.45 g/m*3 4.05 C 8.1 km/h
2377 28-04-2015 06:00:00 5.8 C 6.45 g/m*3 3.68 C 9.7 km/h
2378 28-04-2015 06:05:00 5.8 C 6.45 g/m*3 4.52 C 6.4 km/h
2379 28-04-2015 06:10:00 5.7 C 6.4 g/m*3 5.7 C 3.2 km/h
2380 28-04-2015 06:15:00 5.7 C 6.4 g/m*3 5.7 C 3.2 km/h
2381 28-04-2015 06:20:00 5.6 C 6.36 g/m*3 5.6 C 4.8 km/h
2382 28-04-2015 06:25:00 5.5 C 6.32 g/m*3 5.5 C 1.6 km/h
2383 28-04-2015 06:30:00 5.4 C 6.28 g/m*3 5.4 C 1.6 km/h
2384 28-04-2015 06:35:00 5.4 C 6.28 g/m*3 5.4 C 0 km/h
2385 28-04-2015 06:40:00 5.3 C 6.31 g/m*3 3.46 C 8.1 km/h
2386 28-04-2015 06:45:00 5.3 C 6.31 g/m*3 5.3 C 4.8 km/h
2387 28-04-2015 06:50:00 5.2 C 6.27 g/m*3 5.2 C 0 km/h
2388 28-04-2015 06:55:00 5.2 C 6.33 g/m*3 5.2 C 0 km/h
2389 28-04-2015 07:00:00 5.1 C 6.29 g/m*3 5.1 C 4.8 km/h
2390 28-04-2015 07:05:00 5.1 C 6.29 g/m*3 5.1 C 0 km/h
2391 28-04-2015 07:10:00 5.1 C 6.22 g/m*3 5.1 C 1.6 km/h
2392 28-04-2015 07:15:00 5.1 C 6.22 g/m*3 5.1 C 0 km/h
2393 28-04-2015 07:20:00 5.2 C 6.33 g/m*3 5.2 C 0 km/h
2394 28-04-2015 07:25:00 5.2 C 6.33 g/m*3 5.2 C 1.6 km/h
2395 28-04-2015 07:30:00 5.2 C 6.4 g/m*3 5.2 C 1.6 km/h
2396 28-04-2015 07:35:00 5.2 C 6.4 g/m*3 5.2 C 1.6 km/h
2397 28-04-2015 07:40:00 5.2 C 6.4 g/m*3 5.2 C 1.6 km/h
2398 28-04-2015 07:45:00 5.1 C 6.29 g/m*3 5.1 C 0 km/h
2399 28-04-2015 07:50:00 5.2 C 6.4 g/m*3 5.2 C 0 km/h
2400 28-04-2015 07:55:00 5.2 C 6.4 g/m*3 5.2 C 0 km/h
Sensor: Nr:Datum:Temp:Abs-Feuchte:Windchill:Wind:
Aussen-T/F 2401 28-04-2015 08:00:00 5.2 C 6.4 g/m*3 5.2 C 0 km/h
2402 28-04-2015 08:05:00 5.1 C 6.36 g/m*3 5.1 C 0 km/h
2403 28-04-2015 08:10:00 5.2 C 6.47 g/m*3 5.2 C 1.6 km/h
2404 28-04-2015 08:15:00 5.2 C 6.47 g/m*3 5.2 C 0 km/h
2405 28-04-2015 08:20:00 5.3 C 6.52 g/m*3 5.3 C 0 km/h
2406 28-04-2015 08:25:00 5.3 C 6.52 g/m*3 5.3 C 0 km/h
2407 28-04-2015 08:30:00 5.4 C 6.49 g/m*3 5.4 C 3.2 km/h
2408 28-04-2015 08:35:00 5.6 C 6.43 g/m*3 5.6 C 4.8 km/h
2409 28-04-2015 08:40:00 5.8 C 6.38 g/m*3 5.8 C 1.6 km/h
2410 28-04-2015 08:45:00 6 C 6.39 g/m*3 6 C 4.8 km/h
2411 28-04-2015 08:50:00 6.2 C 6.47 g/m*3 6.2 C 1.6 km/h
2412 28-04-2015 08:55:00 6.4 C 6.48 g/m*3 6.4 C 4.8 km/h
2413 28-04-2015 09:00:00 6.6 C 6.72 g/m*3 6.6 C 0 km/h
2414 28-04-2015 09:05:00 6.7 C 6.61 g/m*3 6.7 C 0 km/h
2415 28-04-2015 09:10:00 6.8 C 6.65 g/m*3 6.8 C 4.8 km/h
2416 28-04-2015 09:15:00 7 C 6.59 g/m*3 5.46 C 8.1 km/h
2417 28-04-2015 09:20:00 7.2 C 6.59 g/m*3 7.2 C 1.6 km/h
2418 28-04-2015 09:25:00 7.2 C 6.52 g/m*3 7.2 C 0 km/h
2419 28-04-2015 09:30:00 7.2 C 6.59 g/m*3 7.2 C 0 km/h
2420 28-04-2015 09:35:00 7.2 C 6.67 g/m*3 7.2 C 0 km/h
2421 28-04-2015 09:40:00 7.1 C 6.79 g/m*3 7.1 C 0 km/h
2422 28-04-2015 09:45:00 7 C 6.82 g/m*3 7 C 0 km/h
2423 28-04-2015 09:50:00 6.9 C 6.7 g/m*3 6.9 C 0 km/h
2424 28-04-2015 09:55:00 7 C 6.66 g/m*3 7 C 0 km/h
2425 28-04-2015 10:00:00 7.1 C 6.63 g/m*3 7.1 C 0 km/h
Sensor: Nr:Datum:Temp:Abs-Feuchte:Windchill:Wind:
Aussen-T/F 2426 28-04-2015 10:05:00 7.2 C 6.75 g/m*3 7.2 C 0 km/h
2427 28-04-2015 10:10:00 7.3 C 6.72 g/m*3 7.3 C 3.2 km/h
2428 28-04-2015 10:15:00 7.5 C 6.72 g/m*3 7.5 C 0 km/h
2429 28-04-2015 10:20:00 7.6 C 6.77 g/m*3 7.6 C 0 km/h
2430 28-04-2015 10:25:00 7.8 C 7.02 g/m*3 7.8 C 0 km/h
2431 28-04-2015 10:30:00 8 C 6.94 g/m*3 8 C 0 km/h
2432 28-04-2015 10:35:00 8.2 C 7.03 g/m*3 8.2 C 0 km/h
2433 28-04-2015 10:40:00 8.4 C 7.13 g/m*3 8.4 C 3.2 km/h
2434 28-04-2015 10:45:00 8.8 C 7.14 g/m*3 8.8 C 1.6 km/h
2435 28-04-2015 10:50:00 9.2 C 7.32 g/m*3 8.45 C 6.4 km/h
2436 28-04-2015 10:55:00 9.4 C 6.87 g/m*3 7.46 C 12.9 km/h
2437 28-04-2015 11:00:00 9.7 C 7.1 g/m*3 8.63 C 8.1 km/h
2438 28-04-2015 11:05:00 10.1 C 7.09 g/m*3 8.8 C 9.7 km/h
2439 28-04-2015 11:10:00 10.3 C 6.9 g/m*3 9.04 C 9.7 km/h
2440 28-04-2015 11:15:00 10.6 C 7.22 g/m*3 10.06 C 6.4 km/h
2441 28-04-2015 11:20:00 10.7 C 6.97 g/m*3 10.7 C 3.2 km/h
2442 28-04-2015 11:25:00 10.9 C 7.06 g/m*3 10.41 C 6.4 km/h
2443 28-04-2015 11:30:00 11.1 C 7.05 g/m*3 11.1 C 9.7 km/h
2444 28-04-2015 11:35:00 11.2 C 6.69 g/m*3 11.2 C 0 km/h
2445 28-04-2015 11:40:00 11.1 C 6.75 g/m*3 11.1 C 3.2 km/h
2446 28-04-2015 11:45:00 11.2 C 7.2 g/m*3 11.2 C 0 km/h
2447 28-04-2015 11:50:00 11.2 C 6.28 g/m*3 11.2 C 3.2 km/h
2448 28-04-2015 11:55:00 11.4 C 6.88 g/m*3 11.4 C 9.7 km/h
2449 28-04-2015 12:00:00 11.7 C 6.48 g/m*3 11.7 C 6.4 km/h
2450 28-04-2015 12:05:00 11.8 C 6.84 g/m*3 11.8 C 6.4 km/h
Sensor: Nr:Datum:Temp:Abs-Feuchte:Windchill:Wind:
Aussen-T/F 2451 28-04-2015 12:10:00 11.9 C 6.99 g/m*3 11.9 C 6.4 km/h
2452 28-04-2015 12:15:00 12.1 C 6.86 g/m*3 12.1 C 6.4 km/h
2453 28-04-2015 12:20:00 12.1 C 6.76 g/m*3 12.1 C 4.8 km/h
2454 28-04-2015 12:25:00 12.4 C 6.77 g/m*3 12.4 C 3.2 km/h
2455 28-04-2015 12:30:00 12.7 C 6.12 g/m*3 12.7 C 1.6 km/h
2456 28-04-2015 12:35:00 12.7 C 6.79 g/m*3 12.7 C 0 km/h
2457 28-04-2015 12:40:00 12.6 C 6.31 g/m*3 12.6 C 4.8 km/h
2458 28-04-2015 12:45:00 12.6 C 6.31 g/m*3 12.6 C 3.2 km/h
2459 28-04-2015 12:50:00 12.6 C 6.08 g/m*3 12.6 C 6.4 km/h
2460 28-04-2015 12:55:00 12.7 C 6.01 g/m*3 12.7 C 4.8 km/h
2461 28-04-2015 13:00:00 12.8 C 5.71 g/m*3 12.8 C 3.2 km/h
2462 28-04-2015 13:05:00 12.9 C 5.75 g/m*3 12.9 C 8.1 km/h
2463 28-04-2015 13:10:00 12.8 C 6.16 g/m*3 12.8 C 9.7 km/h
2464 28-04-2015 13:15:00 12.5 C 6.16 g/m*3 12.5 C 14.5 km/h
2465 28-04-2015 13:20:00 12.3 C 6.19 g/m*3 12.3 C 11.3 km/h
2466 28-04-2015 13:25:00 12.3 C 6.3 g/m*3 12.3 C 9.7 km/h
2467 28-04-2015 13:30:00 12.4 C 6.56 g/m*3 12.4 C 6.4 km/h
2468 28-04-2015 13:35:00 12.5 C 6.38 g/m*3 12.5 C 8.1 km/h
2469 28-04-2015 13:40:00 12.7 C 6.68 g/m*3 12.7 C 4.8 km/h
2470 28-04-2015 13:45:00 12.9 C 6.54 g/m*3 12.9 C 8.1 km/h
2471 28-04-2015 13:50:00 13.1 C 6.28 g/m*3 13.1 C 9.7 km/h
2472 28-04-2015 13:55:00 13.1 C 6.5 g/m*3 13.1 C 6.4 km/h
2473 28-04-2015 14:00:00 12.9 C 6.31 g/m*3 12.9 C 8.1 km/h
2474 28-04-2015 14:05:00 13.1 C 6.73 g/m*3 13.1 C 6.4 km/h
2475 28-04-2015 14:10:00 13.2 C 5.97 g/m*3 13.2 C 4.8 km/h
Sensor: Nr:Datum:Temp:Abs-Feuchte:Windchill:Wind:
Aussen-T/F 2476 28-04-2015 14:15:00 13 C 6.24 g/m*3 13 C 3.2 km/h
2477 28-04-2015 14:20:00 12.9 C 6.54 g/m*3 12.9 C 3.2 km/h
2478 28-04-2015 14:25:00 12.9 C 6.09 g/m*3 12.9 C 6.4 km/h
2479 28-04-2015 14:30:00 13.2 C 6.66 g/m*3 13.2 C 4.8 km/h
2480 28-04-2015 14:35:00 13.7 C 6.28 g/m*3 13.7 C 6.4 km/h
2481 28-04-2015 14:40:00 13.8 C 5.6 g/m*3 13.8 C 14.5 km/h
2482 28-04-2015 14:45:00 13.4 C 5.58 g/m*3 13.4 C 8.1 km/h
2483 28-04-2015 14:50:00 13.1 C 5.71 g/m*3 13.1 C 9.7 km/h
2484 28-04-2015 14:55:00 12.8 C 5.49 g/m*3 12.8 C 14.5 km/h
2485 28-04-2015 15:00:00 12.7 C 5.79 g/m*3 12.7 C 9.7 km/h
2486 28-04-2015 15:05:00 12.6 C 5.75 g/m*3 12.6 C 22.5 km/h
2487 28-04-2015 15:10:00 12.6 C 5.64 g/m*3 12.6 C 11.3 km/h
2488 28-04-2015 15:15:00 12.8 C 6.27 g/m*3 12.8 C 8.1 km/h
2489 28-04-2015 15:20:00 13.4 C 6.04 g/m*3 13.4 C 11.3 km/h
2490 28-04-2015 15:25:00 13.6 C 5.65 g/m*3 13.6 C 6.4 km/h
2491 28-04-2015 15:30:00 13.3 C 5.66 g/m*3 13.3 C 11.3 km/h
2492 28-04-2015 15:35:00 13.1 C 5.71 g/m*3 13.1 C 11.3 km/h
2493 28-04-2015 15:40:00 12.9 C 5.64 g/m*3 12.9 C 12.9 km/h
2494 28-04-2015 15:45:00 12.8 C 5.71 g/m*3 12.8 C 9.7 km/h
2495 28-04-2015 15:50:00 12.8 C 5.94 g/m*3 12.8 C 8.1 km/h
2496 28-04-2015 15:55:00 13.3 C 6.12 g/m*3 13.3 C 9.7 km/h
2497 28-04-2015 16:00:00 13.4 C 5.93 g/m*3 13.4 C 6.4 km/h
2498 28-04-2015 16:05:00 13.2 C 6.2 g/m*3 13.2 C 9.7 km/h
2499 28-04-2015 16:10:00 13.2 C 6.54 g/m*3 13.2 C 8.1 km/h
2500 28-04-2015 16:15:00 13.1 C 6.39 g/m*3 13.1 C 9.7 km/h
Sensor: Nr:Datum:Temp:Abs-Feuchte:Windchill:Wind:
Aussen-T/F 2501 28-04-2015 16:20:00 13.1 C 6.16 g/m*3 13.1 C 8.1 km/h
2502 28-04-2015 16:25:00 13.1 C 6.05 g/m*3 13.1 C 6.4 km/h
2503 28-04-2015 16:30:00 13.1 C 6.05 g/m*3 13.1 C 12.9 km/h
2504 28-04-2015 16:35:00 13.1 C 6.28 g/m*3 13.1 C 14.5 km/h
2505 28-04-2015 16:40:00 13.3 C 6.01 g/m*3 13.3 C 17.7 km/h
2506 28-04-2015 16:45:00 13.8 C 6.67 g/m*3 13.8 C 16.1 km/h
2507 28-04-2015 16:50:00 14.4 C 6.06 g/m*3 14.4 C 12.9 km/h
2508 28-04-2015 16:55:00 15 C 6.28 g/m*3 15 C 17.7 km/h
2509 28-04-2015 17:00:00 14.7 C 5.79 g/m*3 14.7 C 14.5 km/h
2510 28-04-2015 17:05:00 14.5 C 5.85 g/m*3 14.5 C 19.3 km/h
2511 28-04-2015 17:10:00 14.2 C 5.86 g/m*3 14.2 C 19.3 km/h
2512 28-04-2015 17:15:00 13.8 C 5.48 g/m*3 13.8 C 25.7 km/h
2513 28-04-2015 17:20:00 13.4 C 5.81 g/m*3 13.4 C 17.7 km/h
2514 28-04-2015 17:25:00 13.8 C 6.08 g/m*3 13.8 C 19.3 km/h
2515 28-04-2015 17:30:00 14.3 C 6.14 g/m*3 14.3 C 14.5 km/h
2516 28-04-2015 17:35:00 14.6 C 6.01 g/m*3 14.6 C 12.9 km/h
2517 28-04-2015 17:40:00 14.5 C 5.72 g/m*3 14.5 C 11.3 km/h
2518 28-04-2015 17:45:00 14.3 C 5.65 g/m*3 14.3 C 16.1 km/h
2519 28-04-2015 17:50:00 14.2 C 5.62 g/m*3 14.2 C 11.3 km/h
2520 28-04-2015 17:55:00 13.7 C 5.45 g/m*3 13.7 C 19.3 km/h
2521 28-04-2015 18:00:00 13.3 C 5.55 g/m*3 13.3 C 12.9 km/h
2522 28-04-2015 18:05:00 12.9 C 5.52 g/m*3 12.9 C 6.4 km/h
2523 28-04-2015 18:10:00 12.9 C 5.64 g/m*3 12.9 C 11.3 km/h
2524 28-04-2015 18:15:00 13 C 5.67 g/m*3 13 C 11.3 km/h
2525 28-04-2015 18:20:00 13.6 C 5.88 g/m*3 13.6 C 9.7 km/h
Sensor: Nr:Datum:Temp:Abs-Feuchte:Windchill:Wind:
Aussen-T/F 2526 28-04-2015 18:25:00 14.2 C 5.98 g/m*3 14.2 C 11.3 km/h
2527 28-04-2015 18:30:00 14.7 C 5.92 g/m*3 14.7 C 14.5 km/h
2528 28-04-2015 18:35:00 14.6 C 5.76 g/m*3 14.6 C 11.3 km/h
2529 28-04-2015 18:40:00 13.9 C 5.63 g/m*3 13.9 C 4.8 km/h
2530 28-04-2015 18:45:00 13.6 C 5.77 g/m*3 13.6 C 6.4 km/h
2531 28-04-2015 18:50:00 13.7 C 5.92 g/m*3 13.7 C 1.6 km/h
2532 28-04-2015 18:55:00 14.1 C 5.7 g/m*3 14.1 C 8.1 km/h
2533 28-04-2015 19:00:00 14.4 C 6.3 g/m*3 14.4 C 6.4 km/h
2534 28-04-2015 19:05:00 14.7 C 5.92 g/m*3 14.7 C 6.4 km/h
2535 28-04-2015 19:10:00 14.7 C 5.54 g/m*3 14.7 C 4.8 km/h
2536 28-04-2015 19:15:00 14.4 C 5.19 g/m*3 14.4 C 11.3 km/h
2537 28-04-2015 19:20:00 14.2 C 5.25 g/m*3 14.2 C 6.4 km/h
2538 28-04-2015 19:25:00 14.1 C 5.46 g/m*3 14.1 C 9.7 km/h
2539 28-04-2015 19:30:00 13.9 C 5.04 g/m*3 13.9 C 14.5 km/h
2540 28-04-2015 19:35:00 13.7 C 5.21 g/m*3 13.7 C 4.8 km/h
2541 28-04-2015 19:40:00 13.4 C 5.35 g/m*3 13.4 C 3.2 km/h
2542 28-04-2015 19:45:00 13.3 C 5.2 g/m*3 13.3 C 6.4 km/h
2543 28-04-2015 19:50:00 13 C 4.88 g/m*3 13 C 8.1 km/h
2544 28-04-2015 19:55:00 12.8 C 4.82 g/m*3 12.8 C 4.8 km/h
2545 28-04-2015 20:00:00 12.8 C 4.48 g/m*3 12.8 C 11.3 km/h
2546 28-04-2015 20:05:00 12.5 C 4.62 g/m*3 12.5 C 9.7 km/h
2547 28-04-2015 20:10:00 12.2 C 4.42 g/m*3 12.2 C 11.3 km/h
2548 28-04-2015 20:15:00 11.9 C 4.45 g/m*3 11.9 C 8.1 km/h
2549 28-04-2015 20:20:00 11.6 C 4.78 g/m*3 11.6 C 8.1 km/h
2550 28-04-2015 20:25:00 11.2 C 5.47 g/m*3 11.2 C 1.6 km/h
Sensor: Nr:Datum:Temp:Abs-Feuchte:Windchill:Wind:
Aussen-T/F 2551 28-04-2015 20:30:00 10.6 C 5.76 g/m*3 10.6 C 4.8 km/h
2552 28-04-2015 20:35:00 9.9 C 5.98 g/m*3 9.9 C 1.6 km/h
2553 28-04-2015 20:40:00 9.4 C 6.24 g/m*3 9.4 C 0 km/h
2554 28-04-2015 20:45:00 8.9 C 6.04 g/m*3 8.9 C 1.6 km/h
2555 28-04-2015 20:50:00 8.7 C 5.97 g/m*3 7.13 C 9.7 km/h
2556 28-04-2015 20:55:00 8.4 C 5.85 g/m*3 8.4 C 1.6 km/h
2557 28-04-2015 21:00:00 8.2 C 5.95 g/m*3 8.2 C 1.6 km/h
2558 28-04-2015 21:05:00 7.9 C 5.91 g/m*3 7.9 C 3.2 km/h
2559 28-04-2015 21:10:00 7.6 C 5.8 g/m*3 7.6 C 1.6 km/h
2560 28-04-2015 21:15:00 7.5 C 5.92 g/m*3 7.5 C 4.8 km/h
2561 28-04-2015 21:20:00 7.3 C 5.85 g/m*3 7.3 C 3.2 km/h
2562 28-04-2015 21:25:00 7.2 C 5.81 g/m*3 7.2 C 3.2 km/h
2563 28-04-2015 21:30:00 7.1 C 5.85 g/m*3 7.1 C 4.8 km/h
2564 28-04-2015 21:35:00 7.1 C 6.01 g/m*3 7.1 C 4.8 km/h
2565 28-04-2015 21:40:00 6.9 C 5.93 g/m*3 6.9 C 3.2 km/h
2566 28-04-2015 21:45:00 6.8 C 5.89 g/m*3 6.8 C 4.8 km/h
2567 28-04-2015 21:50:00 6.7 C 5.85 g/m*3 6.7 C 3.2 km/h
2568 28-04-2015 21:55:00 6.7 C 5.93 g/m*3 6.7 C 3.2 km/h
2569 28-04-2015 22:00:00 6.6 C 5.89 g/m*3 6.6 C 4.8 km/h
2570 28-04-2015 22:05:00 6.5 C 5.85 g/m*3 6.5 C 4.8 km/h
2571 28-04-2015 22:10:00 6.4 C 5.74 g/m*3 6.4 C 4.8 km/h
2572 28-04-2015 22:15:00 6.4 C 5.66 g/m*3 6.4 C 3.2 km/h
2573 28-04-2015 22:20:00 6.3 C 5.63 g/m*3 6.3 C 3.2 km/h
2574 28-04-2015 22:25:00 6.3 C 5.77 g/m*3 6.3 C 1.6 km/h
2575 28-04-2015 22:30:00 6.2 C 5.74 g/m*3 6.2 C 1.6 km/h
Sensor: Nr:Datum:Temp:Abs-Feuchte:Windchill:Wind:
Aussen-T/F 2576 28-04-2015 22:35:00 6.1 C 5.7 g/m*3 6.1 C 3.2 km/h
2577 28-04-2015 22:40:00 5.9 C 5.7 g/m*3 5.9 C 0 km/h
2578 28-04-2015 22:45:00 5.8 C 5.59 g/m*3 5.8 C 0 km/h
2579 28-04-2015 22:50:00 5.7 C 5.55 g/m*3 5.7 C 0 km/h
2580 28-04-2015 22:55:00 5.5 C 5.48 g/m*3 5.5 C 0 km/h
2581 28-04-2015 23:00:00 5.4 C 5.51 g/m*3 5.4 C 0 km/h
2582 28-04-2015 23:05:00 5.3 C 5.48 g/m*3 5.3 C 0 km/h
2583 28-04-2015 23:10:00 5.2 C 5.51 g/m*3 5.2 C 0 km/h
2584 28-04-2015 23:15:00 5.1 C 5.54 g/m*3 5.1 C 0 km/h
2585 28-04-2015 23:20:00 4.9 C 5.54 g/m*3 4.9 C 0 km/h
2586 28-04-2015 23:25:00 4.9 C 5.54 g/m*3 4.9 C 0 km/h
2587 28-04-2015 23:30:00 4.8 C 5.5 g/m*3 4.8 C 0 km/h
2588 28-04-2015 23:35:00 4.8 C 5.5 g/m*3 4.8 C 0 km/h
2589 28-04-2015 23:40:00 4.7 C 5.4 g/m*3 4.7 C 0 km/h
2590 28-04-2015 23:45:00 4.6 C 5.36 g/m*3 4.6 C 0 km/h
2591 28-04-2015 23:50:00 4.6 C 5.36 g/m*3 4.6 C 0 km/h
2592 28-04-2015 23:55:00 4.5 C 5.39 g/m*3 4.5 C 0 km/h
2593 29-04-2015 00:00:00 4.5 C 5.39 g/m*3 4.5 C 1.6 km/h
2594 29-04-2015 00:05:00 4.4 C 5.35 g/m*3 4.4 C 0 km/h
2595 29-04-2015 00:10:00 4.4 C 5.42 g/m*3 4.4 C 0 km/h
2596 29-04-2015 00:15:00 4.3 C 5.38 g/m*3 4.3 C 1.6 km/h
2597 29-04-2015 00:20:00 4.3 C 5.45 g/m*3 4.3 C 3.2 km/h
2598 29-04-2015 00:25:00 4.3 C 5.45 g/m*3 4.3 C 0 km/h
2599 29-04-2015 00:30:00 4.2 C 5.35 g/m*3 4.2 C 0 km/h
2600 29-04-2015 00:35:00 4.1 C 5.31 g/m*3 4.1 C 1.6 km/h
Sensor: Nr:Datum:Temp:Abs-Feuchte:Windchill:Wind:
Aussen-T/F 2601 29-04-2015 00:40:00 4.1 C 5.38 g/m*3 4.1 C 0 km/h
2602 29-04-2015 00:45:00 4.1 C 5.38 g/m*3 4.1 C 0 km/h
2603 29-04-2015 00:50:00 4 C 5.34 g/m*3 4 C 1.6 km/h
2604 29-04-2015 00:55:00 3.9 C 5.24 g/m*3 3.9 C 0 km/h
2605 29-04-2015 01:00:00 3.9 C 5.24 g/m*3 3.9 C 1.6 km/h
2606 29-04-2015 01:05:00 3.8 C 5.27 g/m*3 3.8 C 0 km/h
2607 29-04-2015 01:10:00 3.7 C 5.23 g/m*3 3.7 C 0 km/h
2608 29-04-2015 01:15:00 3.6 C 5.26 g/m*3 3.6 C 0 km/h
2609 29-04-2015 01:20:00 3.4 C 5.19 g/m*3 3.4 C 0 km/h
2610 29-04-2015 01:25:00 3.3 C 5.16 g/m*3 3.3 C 0 km/h
2611 29-04-2015 01:30:00 3.2 C 5.18 g/m*3 3.2 C 0 km/h
2612 29-04-2015 01:35:00 3.2 C 5.24 g/m*3 3.2 C 0 km/h
2613 29-04-2015 01:40:00 3.2 C 5.24 g/m*3 3.2 C 0 km/h
2614 29-04-2015 01:45:00 3.1 C 5.27 g/m*3 3.1 C 0 km/h
2615 29-04-2015 01:50:00 3.1 C 5.27 g/m*3 3.1 C 0 km/h
2616 29-04-2015 01:55:00 3 C 5.23 g/m*3 3 C 1.6 km/h
2617 29-04-2015 02:00:00 2.9 C 5.2 g/m*3 2.9 C 0 km/h
2618 29-04-2015 02:05:00 2.9 C 5.2 g/m*3 2.9 C 0 km/h
2619 29-04-2015 02:10:00 2.8 C 5.16 g/m*3 2.8 C 0 km/h
2620 29-04-2015 02:15:00 2.8 C 5.16 g/m*3 2.8 C 0 km/h
2621 29-04-2015 02:20:00 2.8 C 5.16 g/m*3 2.8 C 0 km/h
2622 29-04-2015 02:25:00 2.7 C 5.13 g/m*3 2.7 C 0 km/h
2623 29-04-2015 02:30:00 2.7 C 5.13 g/m*3 2.7 C 1.6 km/h
2624 29-04-2015 02:35:00 2.6 C 5.09 g/m*3 2.6 C 0 km/h
2625 29-04-2015 02:40:00 2.6 C 5.09 g/m*3 2.6 C 0 km/h
Sensor: Nr:Datum:Temp:Abs-Feuchte:Windchill:Wind:
Aussen-T/F 2626 29-04-2015 02:45:00 2.5 C 5.06 g/m*3 2.5 C 0 km/h
2627 29-04-2015 02:50:00 2.4 C 5.02 g/m*3 2.4 C 0 km/h
2628 29-04-2015 02:55:00 2.4 C 5.02 g/m*3 2.4 C 0 km/h
2629 29-04-2015 03:00:00 2.3 C 5.05 g/m*3 2.3 C 0 km/h
2630 29-04-2015 03:05:00 2.2 C 5.01 g/m*3 2.2 C 1.6 km/h
2631 29-04-2015 03:10:00 2.2 C 5.01 g/m*3 2.2 C 0 km/h
2632 29-04-2015 03:15:00 2.2 C 5.01 g/m*3 2.2 C 0 km/h
2633 29-04-2015 03:20:00 2.1 C 5.04 g/m*3 2.1 C 0 km/h
2634 29-04-2015 03:25:00 2 C 4.95 g/m*3 2 C 1.6 km/h
2635 29-04-2015 03:30:00 2 C 4.95 g/m*3 2 C 0 km/h
2636 29-04-2015 03:35:00 1.9 C 4.91 g/m*3 1.9 C 0 km/h
2637 29-04-2015 03:40:00 1.8 C 4.88 g/m*3 1.8 C 0 km/h
2638 29-04-2015 03:45:00 1.8 C 4.93 g/m*3 1.8 C 0 km/h
2639 29-04-2015 03:50:00 1.8 C 4.93 g/m*3 1.8 C 0 km/h
2640 29-04-2015 03:55:00 1.7 C 4.9 g/m*3 1.7 C 0 km/h
2641 29-04-2015 04:00:00 1.7 C 4.9 g/m*3 1.7 C 0 km/h
2642 29-04-2015 04:05:00 1.7 C 4.9 g/m*3 1.7 C 0 km/h
2643 29-04-2015 04:10:00 1.6 C 4.87 g/m*3 1.6 C 0 km/h
2644 29-04-2015 04:15:00 1.6 C 4.87 g/m*3 1.6 C 0 km/h
2645 29-04-2015 04:20:00 1.5 C 4.83 g/m*3 1.5 C 0 km/h
2646 29-04-2015 04:25:00 1.4 C 4.8 g/m*3 1.4 C 0 km/h
2647 29-04-2015 04:30:00 1.4 C 4.85 g/m*3 1.4 C 0 km/h
2648 29-04-2015 04:35:00 1.4 C 4.85 g/m*3 1.4 C 0 km/h
2649 29-04-2015 04:40:00 1.3 C 4.82 g/m*3 1.3 C 0 km/h
2650 29-04-2015 04:45:00 1.3 C 4.82 g/m*3 1.3 C 0 km/h
Sensor: Nr:Datum:Temp:Abs-Feuchte:Windchill:Wind:
Aussen-T/F 2651 29-04-2015 04:50:00 1.3 C 4.82 g/m*3 1.3 C 0 km/h
2652 29-04-2015 04:55:00 1.2 C 4.79 g/m*3 1.2 C 0 km/h
2653 29-04-2015 05:00:00 1.2 C 4.79 g/m*3 1.2 C 0 km/h
2654 29-04-2015 05:05:00 1.2 C 4.79 g/m*3 1.2 C 1.6 km/h
2655 29-04-2015 05:10:00 1.2 C 4.79 g/m*3 1.2 C 0 km/h
2656 29-04-2015 05:15:00 1.1 C 4.76 g/m*3 1.1 C 0 km/h
2657 29-04-2015 05:20:00 1.1 C 4.76 g/m*3 1.1 C 0 km/h
2658 29-04-2015 05:25:00 1.1 C 4.76 g/m*3 1.1 C 0 km/h
2659 29-04-2015 05:30:00 1 C 4.72 g/m*3 1 C 0 km/h
2660 29-04-2015 05:35:00 0.9 C 4.74 g/m*3 0.9 C 0 km/h
2661 29-04-2015 05:40:00 0.9 C 4.74 g/m*3 0.9 C 0 km/h
2662 29-04-2015 05:45:00 0.9 C 4.74 g/m*3 0.9 C 1.6 km/h
2663 29-04-2015 05:50:00 0.9 C 4.74 g/m*3 0.9 C 0 km/h
2664 29-04-2015 05:55:00 0.9 C 4.74 g/m*3 0.9 C 0 km/h
2665 29-04-2015 06:00:00 0.8 C 4.71 g/m*3 0.8 C 0 km/h
2666 29-04-2015 06:05:00 0.8 C 4.71 g/m*3 0.8 C 0 km/h
2667 29-04-2015 06:10:00 0.7 C 4.68 g/m*3 0.7 C 0 km/h
2668 29-04-2015 06:15:00 0.7 C 4.68 g/m*3 0.7 C 0 km/h
2669 29-04-2015 06:20:00 0.7 C 4.73 g/m*3 0.7 C 0 km/h
2670 29-04-2015 06:25:00 0.7 C 4.73 g/m*3 0.7 C 0 km/h
2671 29-04-2015 06:30:00 0.7 C 4.73 g/m*3 0.7 C 0 km/h
2672 29-04-2015 06:35:00 0.7 C 4.73 g/m*3 0.7 C 0 km/h
2673 29-04-2015 06:40:00 0.7 C 4.73 g/m*3 0.7 C 0 km/h
2674 29-04-2015 06:45:00 0.7 C 4.73 g/m*3 0.7 C 0 km/h
2675 29-04-2015 06:50:00 0.7 C 4.73 g/m*3 0.7 C 0 km/h
Sensor: Nr:Datum:Temp:Abs-Feuchte:Windchill:Wind:
Aussen-T/F 2676 29-04-2015 06:55:00 0.8 C 4.76 g/m*3 0.8 C 0 km/h
2677 29-04-2015 07:00:00 0.8 C 4.76 g/m*3 0.8 C 0 km/h
2678 29-04-2015 07:05:00 0.8 C 4.76 g/m*3 0.8 C 0 km/h
2679 29-04-2015 07:10:00 0.8 C 4.76 g/m*3 0.8 C 0 km/h
2680 29-04-2015 07:15:00 0.9 C 4.79 g/m*3 0.9 C 0 km/h
2681 29-04-2015 07:20:00 0.9 C 4.79 g/m*3 0.9 C 0 km/h
2682 29-04-2015 07:25:00 0.9 C 4.79 g/m*3 0.9 C 0 km/h
2683 29-04-2015 07:30:00 1 C 4.83 g/m*3 1 C 0 km/h
2684 29-04-2015 07:35:00 1.1 C 4.86 g/m*3 1.1 C 0 km/h
2685 29-04-2015 07:40:00 1.1 C 4.86 g/m*3 1.1 C 0 km/h
2686 29-04-2015 07:45:00 1.2 C 4.89 g/m*3 1.2 C 0 km/h
2687 29-04-2015 07:50:00 1.3 C 4.98 g/m*3 1.3 C 0 km/h
2688 29-04-2015 07:55:00 1.4 C 4.96 g/m*3 1.4 C 0 km/h
2689 29-04-2015 08:00:00 1.5 C 5.05 g/m*3 1.5 C 0 km/h
2690 29-04-2015 08:05:00 1.7 C 5.12 g/m*3 1.7 C 0 km/h
2691 29-04-2015 08:10:00 1.8 C 5.1 g/m*3 1.8 C 0 km/h
2692 29-04-2015 08:15:00 1.8 C 5.1 g/m*3 1.8 C 0 km/h
2693 29-04-2015 08:20:00 2 C 5.17 g/m*3 2 C 0 km/h
2694 29-04-2015 08:25:00 2.2 C 5.24 g/m*3 2.2 C 0 km/h
2695 29-04-2015 08:30:00 2.3 C 5.27 g/m*3 2.3 C 0 km/h
2696 29-04-2015 08:35:00 2.5 C 5.29 g/m*3 2.5 C 0 km/h
2697 29-04-2015 08:40:00 2.7 C 5.36 g/m*3 2.7 C 0 km/h
2698 29-04-2015 08:45:00 2.8 C 5.4 g/m*3 2.8 C 0 km/h
2699 29-04-2015 08:50:00 3 C 5.47 g/m*3 3 C 0 km/h
2700 29-04-2015 08:55:00 3.2 C 5.48 g/m*3 3.2 C 0 km/h
Sensor: Nr:Datum:Temp:Abs-Feuchte:Windchill:Wind:
Aussen-T/F 2701 29-04-2015 09:00:00 3.4 C 5.44 g/m*3 3.4 C 0 km/h
2702 29-04-2015 09:05:00 3.6 C 5.51 g/m*3 3.6 C 0 km/h
2703 29-04-2015 09:10:00 3.9 C 5.62 g/m*3 3.9 C 0 km/h
2704 29-04-2015 09:15:00 4.1 C 5.63 g/m*3 4.1 C 0 km/h
2705 29-04-2015 09:20:00 4.3 C 5.64 g/m*3 4.3 C 0 km/h
2706 29-04-2015 09:25:00 4.5 C 5.72 g/m*3 4.5 C 0 km/h
2707 29-04-2015 09:30:00 4.7 C 5.73 g/m*3 4.7 C 0 km/h
2708 29-04-2015 09:35:00 4.9 C 5.74 g/m*3 4.9 C 0 km/h
2709 29-04-2015 09:40:00 5.2 C 5.92 g/m*3 5.2 C 0 km/h
2710 29-04-2015 09:45:00 5.4 C 5.93 g/m*3 5.4 C 0 km/h
2711 29-04-2015 09:50:00 5.7 C 5.98 g/m*3 5.7 C 0 km/h
2712 29-04-2015 09:55:00 5.9 C 5.98 g/m*3 5.9 C 0 km/h
2713 29-04-2015 10:00:00 6.1 C 5.92 g/m*3 6.1 C 1.6 km/h
2714 29-04-2015 10:05:00 6.2 C 5.96 g/m*3 6.2 C 0 km/h
2715 29-04-2015 10:10:00 6.4 C 6.11 g/m*3 6.4 C 0 km/h
2716 29-04-2015 10:15:00 6.7 C 6.23 g/m*3 6.7 C 0 km/h
2717 29-04-2015 10:20:00 6.9 C 6.24 g/m*3 6.9 C 1.6 km/h
2718 29-04-2015 10:25:00 7.2 C 6.36 g/m*3 7.2 C 1.6 km/h
2719 29-04-2015 10:30:00 7.4 C 6.36 g/m*3 7.4 C 1.6 km/h
2720 29-04-2015 10:35:00 7.6 C 6.36 g/m*3 7.6 C 1.6 km/h
2721 29-04-2015 10:40:00 7.9 C 6.57 g/m*3 7.9 C 1.6 km/h
2722 29-04-2015 10:45:00 8.2 C 6.7 g/m*3 8.2 C 1.6 km/h
2723 29-04-2015 10:50:00 8.5 C 6.74 g/m*3 8.5 C 1.6 km/h
2724 29-04-2015 10:55:00 8.8 C 6.7 g/m*3 8.8 C 1.6 km/h
2725 29-04-2015 11:00:00 9.1 C 6.65 g/m*3 9.1 C 1.6 km/h
Sensor: Nr:Datum:Temp:Abs-Feuchte:Windchill:Wind:
Aussen-T/F 2726 29-04-2015 11:05:00 9.3 C 6.56 g/m*3 9.3 C 3.2 km/h
2727 29-04-2015 11:10:00 9.7 C 7.1 g/m*3 9.7 C 1.6 km/h
2728 29-04-2015 11:15:00 10 C 6.77 g/m*3 10 C 3.2 km/h
2729 29-04-2015 11:20:00 10.3 C 6.61 g/m*3 10.3 C 1.6 km/h
2730 29-04-2015 11:25:00 10.5 C 6.69 g/m*3 10.5 C 0 km/h
2731 29-04-2015 11:30:00 10.7 C 6.97 g/m*3 10.7 C 1.6 km/h
2732 29-04-2015 11:35:00 10.9 C 6.56 g/m*3 10.9 C 1.6 km/h
2733 29-04-2015 11:40:00 11.1 C 6.75 g/m*3 11.1 C 1.6 km/h
2734 29-04-2015 11:45:00 11.2 C 6.69 g/m*3 11.2 C 4.8 km/h
2735 29-04-2015 11:50:00 11.4 C 6.16 g/m*3 11.4 C 4.8 km/h
2736 29-04-2015 11:55:00 11.7 C 6.17 g/m*3 11.7 C 1.6 km/h
2737 29-04-2015 12:00:00 12 C 6.07 g/m*3 12 C 4.8 km/h
2738 29-04-2015 12:05:00 12.2 C 5.5 g/m*3 12.2 C 3.2 km/h
2739 29-04-2015 12:10:00 12.5 C 5.94 g/m*3 12.5 C 3.2 km/h
2740 29-04-2015 12:15:00 12.7 C 5.79 g/m*3 12.7 C 1.6 km/h
2741 29-04-2015 12:20:00 13 C 6.12 g/m*3 13 C 9.7 km/h
2742 29-04-2015 12:25:00 13.3 C 5.89 g/m*3 13.3 C 9.7 km/h
2743 29-04-2015 12:30:00 13.6 C 6.24 g/m*3 13.6 C 4.8 km/h
2744 29-04-2015 12:35:00 13.9 C 5.99 g/m*3 13.9 C 4.8 km/h
2745 29-04-2015 12:40:00 14.4 C 6.18 g/m*3 14.4 C 6.4 km/h
2746 29-04-2015 12:45:00 14.7 C 6.3 g/m*3 14.7 C 6.4 km/h
2747 29-04-2015 12:50:00 14.9 C 6.12 g/m*3 14.9 C 9.7 km/h
2748 29-04-2015 12:55:00 14.8 C 5.83 g/m*3 14.8 C 4.8 km/h
2749 29-04-2015 13:00:00 14.9 C 6.12 g/m*3 14.9 C 3.2 km/h
2750 29-04-2015 13:05:00 15.1 C 5.29 g/m*3 15.1 C 9.7 km/h
Sensor: Nr:Datum:Temp:Abs-Feuchte:Windchill:Wind:
Aussen-T/F 2751 29-04-2015 13:10:00 14.8 C 5.7 g/m*3 14.8 C 9.7 km/h
2752 29-04-2015 13:15:00 14.7 C 5.67 g/m*3 14.7 C 4.8 km/h
2753 29-04-2015 13:20:00 14.7 C 6.17 g/m*3 14.7 C 3.2 km/h
2754 29-04-2015 13:25:00 14.7 C 5.16 g/m*3 14.7 C 12.9 km/h
2755 29-04-2015 13:30:00 14.7 C 5.54 g/m*3 14.7 C 11.3 km/h
2756 29-04-2015 13:35:00 14.8 C 5.7 g/m*3 14.8 C 9.7 km/h
2757 29-04-2015 13:40:00 14.9 C 5.48 g/m*3 14.9 C 11.3 km/h
2758 29-04-2015 13:45:00 14.8 C 5.45 g/m*3 14.8 C 6.4 km/h
2759 29-04-2015 13:50:00 14.7 C 5.92 g/m*3 14.7 C 4.8 km/h
2760 29-04-2015 13:55:00 14.8 C 6.33 g/m*3 14.8 C 9.7 km/h
2761 29-04-2015 14:00:00 14.9 C 5.35 g/m*3 14.9 C 9.7 km/h
2762 29-04-2015 14:05:00 14.7 C 5.67 g/m*3 14.7 C 4.8 km/h
2763 29-04-2015 14:10:00 14.5 C 5.72 g/m*3 14.5 C 9.7 km/h
2764 29-04-2015 14:15:00 14.4 C 5.44 g/m*3 14.4 C 11.3 km/h
2765 29-04-2015 14:20:00 14.4 C 5.69 g/m*3 14.4 C 12.9 km/h
2766 29-04-2015 14:25:00 14.7 C 6.04 g/m*3 14.7 C 1.6 km/h
2767 29-04-2015 14:30:00 14.8 C 5.95 g/m*3 14.8 C 4.8 km/h
2768 29-04-2015 14:35:00 15.1 C 6.32 g/m*3 15.1 C 6.4 km/h
2769 29-04-2015 14:40:00 15.7 C 6.42 g/m*3 15.7 C 11.3 km/h
2770 29-04-2015 14:45:00 16.1 C 5.76 g/m*3 16.1 C 4.8 km/h
2771 29-04-2015 14:50:00 16.2 C 5.65 g/m*3 16.2 C 9.7 km/h
2772 29-04-2015 14:55:00 16.3 C 5.83 g/m*3 16.3 C 9.7 km/h
2773 29-04-2015 15:00:00 16.3 C 5.41 g/m*3 16.3 C 9.7 km/h
2774 29-04-2015 15:05:00 16.2 C 5.38 g/m*3 16.2 C 8.1 km/h
2775 29-04-2015 15:10:00 16.1 C 5.48 g/m*3 16.1 C 6.4 km/h
Sensor: Nr:Datum:Temp:Abs-Feuchte:Windchill:Wind:
Aussen-T/F 2776 29-04-2015 15:15:00 15.8 C 5.79 g/m*3 15.8 C 6.4 km/h
2777 29-04-2015 15:20:00 15.7 C 5.89 g/m*3 15.7 C 4.8 km/h
2778 29-04-2015 15:25:00 15.5 C 5.68 g/m*3 15.5 C 6.4 km/h
2779 29-04-2015 15:30:00 15.4 C 5.78 g/m*3 15.4 C 3.2 km/h
2780 29-04-2015 15:35:00 15.3 C 6.01 g/m*3 15.3 C 6.4 km/h
2781 29-04-2015 15:40:00 15.4 C 5.65 g/m*3 15.4 C 6.4 km/h
2782 29-04-2015 15:45:00 15.7 C 6.29 g/m*3 15.7 C 4.8 km/h
2783 29-04-2015 15:50:00 15.7 C 5.89 g/m*3 15.7 C 8.1 km/h
2784 29-04-2015 15:55:00 15.8 C 6.06 g/m*3 15.8 C 1.6 km/h
2785 29-04-2015 16:00:00 15.8 C 5.92 g/m*3 15.8 C 3.2 km/h
2786 29-04-2015 16:05:00 15.9 C 5.82 g/m*3 15.9 C 8.1 km/h
2787 29-04-2015 16:10:00 15.8 C 5.65 g/m*3 15.8 C 9.7 km/h
2788 29-04-2015 16:15:00 15.5 C 5.68 g/m*3 15.5 C 6.4 km/h
2789 29-04-2015 16:20:00 15.4 C 6.31 g/m*3 15.4 C 4.8 km/h
2790 29-04-2015 16:25:00 15.4 C 5.78 g/m*3 15.4 C 3.2 km/h
2791 29-04-2015 16:30:00 15.5 C 5.95 g/m*3 15.5 C 6.4 km/h
2792 29-04-2015 16:35:00 15.6 C 6.25 g/m*3 15.6 C 6.4 km/h
2793 29-04-2015 16:40:00 15.8 C 6.46 g/m*3 15.8 C 4.8 km/h
2794 29-04-2015 16:45:00 16 C 5.59 g/m*3 16 C 4.8 km/h
2795 29-04-2015 16:50:00 16 C 6.27 g/m*3 16 C 4.8 km/h
2796 29-04-2015 16:55:00 16 C 6.13 g/m*3 16 C 1.6 km/h
2797 29-04-2015 17:00:00 16.1 C 6.31 g/m*3 16.1 C 3.2 km/h
2798 29-04-2015 17:05:00 16 C 5.99 g/m*3 16 C 4.8 km/h
2799 29-04-2015 17:10:00 15.8 C 6.06 g/m*3 15.8 C 3.2 km/h
2800 29-04-2015 17:15:00 15.5 C 5.82 g/m*3 15.5 C 3.2 km/h
Sensor: Nr:Datum:Temp:Abs-Feuchte:Windchill:Wind:
Aussen-T/F 2801 29-04-2015 17:20:00 15.3 C 6.01 g/m*3 15.3 C 4.8 km/h
2802 29-04-2015 17:25:00 15.3 C 6.4 g/m*3 15.3 C 4.8 km/h
2803 29-04-2015 17:30:00 15.2 C 5.97 g/m*3 15.2 C 1.6 km/h
2804 29-04-2015 17:35:00 15.2 C 7.14 g/m*3 15.2 C 1.6 km/h
2805 29-04-2015 17:40:00 15.3 C 6.79 g/m*3 15.3 C 3.2 km/h
2806 29-04-2015 17:45:00 15.3 C 6.14 g/m*3 15.3 C 6.4 km/h
2807 29-04-2015 17:50:00 15.4 C 6.44 g/m*3 15.4 C 3.2 km/h
2808 29-04-2015 17:55:00 15.5 C 6.48 g/m*3 15.5 C 3.2 km/h
2809 29-04-2015 18:00:00 15.5 C 6.08 g/m*3 15.5 C 3.2 km/h
2810 29-04-2015 18:05:00 15.4 C 6.18 g/m*3 15.4 C 1.6 km/h
2811 29-04-2015 18:10:00 15.3 C 7.84 g/m*3 15.3 C 0 km/h
2812 29-04-2015 18:15:00 15 C 8.46 g/m*3 15 C 3.2 km/h
2813 29-04-2015 18:20:00 14.6 C 8.51 g/m*3 14.6 C 3.2 km/h
2814 29-04-2015 18:25:00 14.3 C 8.72 g/m*3 14.3 C 0 km/h
2815 29-04-2015 18:30:00 14.1 C 8.62 g/m*3 14.1 C 1.6 km/h
2816 29-04-2015 18:35:00 14.1 C 8.74 g/m*3 14.1 C 0 km/h
2817 29-04-2015 18:40:00 14.1 C 8.62 g/m*3 14.1 C 0 km/h
2818 29-04-2015 18:45:00 14.1 C 8.98 g/m*3 14.1 C 1.6 km/h
2819 29-04-2015 18:50:00 14.2 C 8.91 g/m*3 14.2 C 0 km/h
2820 29-04-2015 18:55:00 14.2 C 8.55 g/m*3 14.2 C 0 km/h
2821 29-04-2015 19:00:00 14 C 8.56 g/m*3 14 C 1.6 km/h
2822 29-04-2015 19:05:00 13.8 C 8.58 g/m*3 13.8 C 1.6 km/h
2823 29-04-2015 19:10:00 13.5 C 7.02 g/m*3 13.5 C 3.2 km/h
2824 29-04-2015 19:15:00 13.5 C 6.55 g/m*3 13.5 C 6.4 km/h
2825 29-04-2015 19:20:00 13.6 C 7.41 g/m*3 13.6 C 3.2 km/h
Sensor: Nr:Datum:Temp:Abs-Feuchte:Windchill:Wind:
Aussen-T/F 2826 29-04-2015 19:25:00 13.6 C 7.53 g/m*3 13.6 C 3.2 km/h
2827 29-04-2015 19:30:00 13.4 C 7.21 g/m*3 13.4 C 9.7 km/h
2828 29-04-2015 19:35:00 13.3 C 7.39 g/m*3 13.3 C 3.2 km/h
2829 29-04-2015 19:40:00 13.2 C 7.58 g/m*3 13.2 C 3.2 km/h
2830 29-04-2015 19:45:00 12.9 C 7.66 g/m*3 12.9 C 3.2 km/h
2831 29-04-2015 19:50:00 12.7 C 7.57 g/m*3 12.7 C 1.6 km/h
2832 29-04-2015 19:55:00 12.5 C 7.81 g/m*3 12.5 C 3.2 km/h
2833 29-04-2015 20:00:00 12.3 C 7.38 g/m*3 12.3 C 1.6 km/h
2834 29-04-2015 20:05:00 12.2 C 7.55 g/m*3 12.2 C 3.2 km/h
2835 29-04-2015 20:10:00 12.1 C 7.72 g/m*3 12.1 C 3.2 km/h
2836 29-04-2015 20:15:00 11.8 C 7.68 g/m*3 11.8 C 3.2 km/h
2837 29-04-2015 20:20:00 11.5 C 7.33 g/m*3 11.5 C 3.2 km/h
2838 29-04-2015 20:25:00 11.3 C 7.55 g/m*3 11.3 C 4.8 km/h
2839 29-04-2015 20:30:00 11.2 C 7.5 g/m*3 11.2 C 3.2 km/h
2840 29-04-2015 20:35:00 11 C 7.41 g/m*3 11 C 3.2 km/h
2841 29-04-2015 20:40:00 10.9 C 7.46 g/m*3 10.9 C 3.2 km/h
2842 29-04-2015 20:45:00 10.7 C 7.27 g/m*3 10.7 C 3.2 km/h
2843 29-04-2015 20:50:00 10.7 C 7.46 g/m*3 10.7 C 3.2 km/h
2844 29-04-2015 20:55:00 10.5 C 7.37 g/m*3 10.5 C 4.8 km/h
2845 29-04-2015 21:00:00 10.4 C 7.32 g/m*3 10.4 C 3.2 km/h
2846 29-04-2015 21:05:00 10.4 C 7.32 g/m*3 10.4 C 1.6 km/h
2847 29-04-2015 21:10:00 10.3 C 7.28 g/m*3 10.3 C 1.6 km/h
2848 29-04-2015 21:15:00 10.3 C 7.37 g/m*3 10.3 C 3.2 km/h
2849 29-04-2015 21:20:00 10.3 C 7.37 g/m*3 10.3 C 1.6 km/h
2850 29-04-2015 21:25:00 10.2 C 7.33 g/m*3 10.2 C 1.6 km/h
Sensor: Nr:Datum:Temp:Abs-Feuchte:Windchill:Wind:
Aussen-T/F 2851 29-04-2015 21:30:00 10.2 C 7.42 g/m*3 10.2 C 1.6 km/h
2852 29-04-2015 21:35:00 10 C 7.24 g/m*3 10 C 1.6 km/h
2853 29-04-2015 21:40:00 9.9 C 7.28 g/m*3 9.9 C 0 km/h
2854 29-04-2015 21:45:00 9.8 C 7.14 g/m*3 9.8 C 1.6 km/h
2855 29-04-2015 21:50:00 9.8 C 7.24 g/m*3 9.8 C 1.6 km/h
2856 29-04-2015 21:55:00 9.7 C 7.19 g/m*3 9.7 C 1.6 km/h
2857 29-04-2015 22:00:00 9.6 C 7.15 g/m*3 9.6 C 0 km/h
2858 29-04-2015 22:05:00 9.6 C 7.15 g/m*3 9.6 C 1.6 km/h
2859 29-04-2015 22:10:00 9.4 C 7.05 g/m*3 9.4 C 1.6 km/h
2860 29-04-2015 22:15:00 9.4 C 7.05 g/m*3 9.4 C 1.6 km/h
2861 29-04-2015 22:20:00 9.3 C 7.19 g/m*3 9.3 C 1.6 km/h
2862 29-04-2015 22:25:00 9.3 C 7.1 g/m*3 9.3 C 0 km/h
2863 29-04-2015 22:30:00 9.3 C 7.1 g/m*3 9.3 C 0 km/h
2864 29-04-2015 22:35:00 9.3 C 7.19 g/m*3 9.3 C 1.6 km/h
2865 29-04-2015 22:40:00 9.2 C 7.05 g/m*3 9.2 C 0 km/h
2866 29-04-2015 22:45:00 9.2 C 7.14 g/m*3 9.2 C 0 km/h
2867 29-04-2015 22:50:00 9.1 C 7.1 g/m*3 9.1 C 0 km/h
2868 29-04-2015 22:55:00 9 C 7.05 g/m*3 9 C 0 km/h
2869 29-04-2015 23:00:00 8.9 C 7.01 g/m*3 8.9 C 0 km/h
2870 29-04-2015 23:05:00 8.9 C 7.01 g/m*3 8.9 C 1.6 km/h
2871 29-04-2015 23:10:00 8.9 C 6.92 g/m*3 8.9 C 1.6 km/h
2872 29-04-2015 23:15:00 9.1 C 7.1 g/m*3 9.1 C 3.2 km/h
2873 29-04-2015 23:20:00 9.2 C 7.14 g/m*3 9.2 C 1.6 km/h
2874 29-04-2015 23:25:00 9.2 C 7.05 g/m*3 9.2 C 0 km/h
2875 29-04-2015 23:30:00 9.1 C 7.19 g/m*3 9.1 C 1.6 km/h
Sensor: Nr:Datum:Temp:Abs-Feuchte:Windchill:Wind:
Aussen-T/F 2876 29-04-2015 23:35:00 9.1 C 7.1 g/m*3 9.1 C 3.2 km/h
2877 29-04-2015 23:40:00 9.1 C 7.1 g/m*3 9.1 C 1.6 km/h
2878 29-04-2015 23:45:00 9 C 7.05 g/m*3 9 C 0 km/h
2879 29-04-2015 23:50:00 8.9 C 6.83 g/m*3 8.9 C 0 km/h
2880 29-04-2015 23:55:00 8.9 C 6.92 g/m*3 8.9 C 0 km/h
2881 30-04-2015 00:00:00 8.9 C 6.92 g/m*3 8.9 C 0 km/h
2882 30-04-2015 00:05:00 8.9 C 6.83 g/m*3 8.9 C 1.6 km/h
2883 30-04-2015 00:10:00 8.9 C 6.83 g/m*3 8.9 C 1.6 km/h
2884 30-04-2015 00:15:00 8.9 C 6.83 g/m*3 8.9 C 1.6 km/h
2885 30-04-2015 00:20:00 8.9 C 6.92 g/m*3 8.9 C 0 km/h
2886 30-04-2015 00:25:00 8.9 C 6.83 g/m*3 8.9 C 1.6 km/h
2887 30-04-2015 00:30:00 8.9 C 6.75 g/m*3 8.9 C 0 km/h
2888 30-04-2015 00:35:00 8.9 C 6.75 g/m*3 8.9 C 0 km/h
2889 30-04-2015 00:40:00 9 C 6.79 g/m*3 9 C 1.6 km/h
2890 30-04-2015 00:45:00 9 C 6.79 g/m*3 9 C 0 km/h
2891 30-04-2015 00:50:00 8.9 C 6.83 g/m*3 8.9 C 1.6 km/h
2892 30-04-2015 00:55:00 8.9 C 6.83 g/m*3 8.9 C 1.6 km/h
2893 30-04-2015 01:00:00 8.9 C 6.83 g/m*3 8.9 C 1.6 km/h
2894 30-04-2015 01:05:00 8.9 C 6.92 g/m*3 8.9 C 1.6 km/h
2895 30-04-2015 01:10:00 8.8 C 6.88 g/m*3 8.8 C 1.6 km/h
2896 30-04-2015 01:15:00 8.8 C 6.79 g/m*3 8.8 C 3.2 km/h
2897 30-04-2015 01:20:00 8.8 C 6.88 g/m*3 8.8 C 1.6 km/h
2898 30-04-2015 01:25:00 8.8 C 6.79 g/m*3 8.8 C 1.6 km/h
2899 30-04-2015 01:30:00 8.8 C 6.88 g/m*3 8.8 C 1.6 km/h
2900 30-04-2015 01:35:00 8.8 C 6.79 g/m*3 8.8 C 0 km/h
Sensor: Nr:Datum:Temp:Abs-Feuchte:Windchill:Wind:
Aussen-T/F 2901 30-04-2015 01:40:00 8.7 C 6.92 g/m*3 8.7 C 0 km/h
2902 30-04-2015 01:45:00 8.6 C 6.96 g/m*3 8.6 C 0 km/h
2903 30-04-2015 01:50:00 8.6 C 6.79 g/m*3 8.6 C 0 km/h
2904 30-04-2015 01:55:00 8.5 C 6.92 g/m*3 8.5 C 1.6 km/h
2905 30-04-2015 02:00:00 8.5 C 6.74 g/m*3 8.5 C 1.6 km/h
2906 30-04-2015 02:05:00 8.4 C 6.87 g/m*3 8.4 C 0 km/h
2907 30-04-2015 02:10:00 8.4 C 6.79 g/m*3 8.4 C 1.6 km/h
2908 30-04-2015 02:15:00 8.4 C 6.79 g/m*3 8.4 C 0 km/h
2909 30-04-2015 02:20:00 8.4 C 6.79 g/m*3 8.4 C 1.6 km/h
2910 30-04-2015 02:25:00 8.4 C 6.79 g/m*3 8.4 C 1.6 km/h
2911 30-04-2015 02:30:00 8.3 C 6.74 g/m*3 8.3 C 0 km/h
2912 30-04-2015 02:35:00 8.3 C 6.74 g/m*3 8.3 C 1.6 km/h
2913 30-04-2015 02:40:00 8.3 C 6.74 g/m*3 8.3 C 1.6 km/h
2914 30-04-2015 02:45:00 8.3 C 6.74 g/m*3 8.3 C 0 km/h
2915 30-04-2015 02:50:00 8.3 C 6.83 g/m*3 8.3 C 3.2 km/h
2916 30-04-2015 02:55:00 8.2 C 6.78 g/m*3 8.2 C 0 km/h
2917 30-04-2015 03:00:00 8.1 C 6.74 g/m*3 8.1 C 1.6 km/h
2918 30-04-2015 03:05:00 8.1 C 6.82 g/m*3 8.1 C 1.6 km/h
2919 30-04-2015 03:10:00 7.9 C 6.74 g/m*3 7.9 C 0 km/h
2920 30-04-2015 03:15:00 7.9 C 6.74 g/m*3 7.9 C 1.6 km/h
2921 30-04-2015 03:20:00 7.9 C 6.74 g/m*3 7.9 C 1.6 km/h
2922 30-04-2015 03:25:00 7.9 C 6.74 g/m*3 7.9 C 1.6 km/h
2923 30-04-2015 03:30:00 7.9 C 6.82 g/m*3 7.9 C 0 km/h
2924 30-04-2015 03:35:00 7.8 C 6.77 g/m*3 7.8 C 0 km/h
2925 30-04-2015 03:40:00 7.8 C 6.69 g/m*3 7.8 C 0 km/h
Sensor: Nr:Datum:Temp:Abs-Feuchte:Windchill:Wind:
Aussen-T/F 2926 30-04-2015 03:45:00 7.9 C 6.74 g/m*3 7.9 C 0 km/h
2927 30-04-2015 03:50:00 7.9 C 6.82 g/m*3 7.9 C 0 km/h
2928 30-04-2015 03:55:00 7.8 C 6.77 g/m*3 7.8 C 0 km/h
2929 30-04-2015 04:00:00 7.8 C 6.86 g/m*3 7.8 C 0 km/h
2930 30-04-2015 04:05:00 7.7 C 6.73 g/m*3 7.7 C 1.6 km/h
2931 30-04-2015 04:10:00 7.7 C 6.73 g/m*3 7.7 C 0 km/h
2932 30-04-2015 04:15:00 7.6 C 6.69 g/m*3 7.6 C 0 km/h
2933 30-04-2015 04:20:00 7.4 C 6.68 g/m*3 7.4 C 1.6 km/h
2934 30-04-2015 04:25:00 7.3 C 6.72 g/m*3 7.3 C 1.6 km/h
2935 30-04-2015 04:30:00 7.2 C 6.67 g/m*3 7.2 C 0 km/h
2936 30-04-2015 04:35:00 7.1 C 6.71 g/m*3 7.1 C 1.6 km/h
2937 30-04-2015 04:40:00 7.1 C 6.71 g/m*3 7.1 C 1.6 km/h
2938 30-04-2015 04:45:00 7.2 C 6.67 g/m*3 7.2 C 0 km/h
2939 30-04-2015 04:50:00 7.3 C 6.72 g/m*3 7.3 C 1.6 km/h
2940 30-04-2015 04:55:00 7.3 C 6.72 g/m*3 7.3 C 1.6 km/h
2941 30-04-2015 05:00:00 7.4 C 6.76 g/m*3 7.4 C 1.6 km/h
2942 30-04-2015 05:05:00 7.4 C 6.68 g/m*3 7.4 C 1.6 km/h
2943 30-04-2015 05:10:00 7.4 C 6.68 g/m*3 7.4 C 1.6 km/h
2944 30-04-2015 05:15:00 7.4 C 6.68 g/m*3 7.4 C 1.6 km/h
2945 30-04-2015 05:20:00 7.4 C 6.68 g/m*3 7.4 C 1.6 km/h
2946 30-04-2015 05:25:00 7.3 C 6.72 g/m*3 7.3 C 0 km/h
2947 30-04-2015 05:30:00 7.2 C 6.67 g/m*3 7.2 C 0 km/h
2948 30-04-2015 05:35:00 7.2 C 6.67 g/m*3 7.2 C 1.6 km/h
2949 30-04-2015 05:40:00 7.1 C 6.63 g/m*3 7.1 C 3.2 km/h
2950 30-04-2015 05:45:00 7.2 C 6.67 g/m*3 7.2 C 4.8 km/h
Sensor: Nr:Datum:Temp:Abs-Feuchte:Windchill:Wind:
Aussen-T/F 2951 30-04-2015 05:50:00 7.2 C 6.67 g/m*3 7.2 C 1.6 km/h
2952 30-04-2015 05:55:00 7.2 C 6.67 g/m*3 7.2 C 0 km/h
2953 30-04-2015 06:00:00 7.3 C 6.79 g/m*3 7.3 C 0 km/h
2954 30-04-2015 06:05:00 7.3 C 6.79 g/m*3 7.3 C 0 km/h
2955 30-04-2015 06:10:00 7.3 C 6.79 g/m*3 7.3 C 0 km/h
2956 30-04-2015 06:15:00 7.2 C 6.83 g/m*3 7.2 C 1.6 km/h
2957 30-04-2015 06:20:00 7.1 C 6.79 g/m*3 7.1 C 1.6 km/h
2958 30-04-2015 06:25:00 7.1 C 6.79 g/m*3 7.1 C 0 km/h
2959 30-04-2015 06:30:00 7.1 C 6.86 g/m*3 7.1 C 0 km/h
2960 30-04-2015 06:35:00 7 C 6.82 g/m*3 7 C 0 km/h
2961 30-04-2015 06:40:00 6.9 C 6.77 g/m*3 6.9 C 0 km/h
2962 30-04-2015 06:45:00 6.9 C 6.77 g/m*3 6.9 C 0 km/h
2963 30-04-2015 06:50:00 6.9 C 6.77 g/m*3 6.9 C 0 km/h
2964 30-04-2015 06:55:00 6.8 C 6.73 g/m*3 6.8 C 0 km/h
2965 30-04-2015 07:00:00 6.7 C 6.76 g/m*3 6.7 C 0 km/h
2966 30-04-2015 07:05:00 6.7 C 6.76 g/m*3 6.7 C 1.6 km/h
2967 30-04-2015 07:10:00 6.6 C 6.72 g/m*3 6.6 C 1.6 km/h
2968 30-04-2015 07:15:00 6.6 C 6.72 g/m*3 6.6 C 1.6 km/h
2969 30-04-2015 07:20:00 6.5 C 6.67 g/m*3 6.5 C 0 km/h
2970 30-04-2015 07:25:00 6.6 C 6.79 g/m*3 6.6 C 0 km/h
2971 30-04-2015 07:30:00 6.8 C 6.88 g/m*3 6.8 C 0 km/h
2972 30-04-2015 07:35:00 7 C 6.9 g/m*3 7 C 0 km/h
2973 30-04-2015 07:40:00 7.3 C 7.03 g/m*3 7.3 C 4.8 km/h
2974 30-04-2015 07:45:00 7.5 C 7.04 g/m*3 7.5 C 3.2 km/h
2975 30-04-2015 07:50:00 7.8 C 7.1 g/m*3 7.8 C 0 km/h
Sensor: Nr:Datum:Temp:Abs-Feuchte:Windchill:Wind:
Aussen-T/F 2976 30-04-2015 07:55:00 8.1 C 7.16 g/m*3 8.1 C 4.8 km/h
2977 30-04-2015 08:00:00 8.3 C 7.08 g/m*3 6.66 C 9.7 km/h
2978 30-04-2015 08:05:00 8.6 C 7.13 g/m*3 7.01 C 9.7 km/h
2979 30-04-2015 08:10:00 8.8 C 7.05 g/m*3 6.11 C 17.7 km/h
2980 30-04-2015 08:15:00 9.1 C 7.19 g/m*3 6.48 C 17.7 km/h
2981 30-04-2015 08:20:00 9.2 C 7.14 g/m*3 7.46 C 11.3 km/h
2982 30-04-2015 08:25:00 9.3 C 7.19 g/m*3 7.12 C 14.5 km/h
2983 30-04-2015 08:30:00 9.4 C 7.15 g/m*3 7.46 C 12.9 km/h
2984 30-04-2015 08:35:00 9.6 C 7.24 g/m*3 8.21 C 9.7 km/h
2985 30-04-2015 08:40:00 9.7 C 7.19 g/m*3 8.06 C 11.3 km/h
2986 30-04-2015 08:45:00 9.8 C 7.14 g/m*3 7.94 C 12.9 km/h
2987 30-04-2015 08:50:00 9.8 C 7.14 g/m*3 7.73 C 14.5 km/h
2988 30-04-2015 08:55:00 9.9 C 7.1 g/m*3 8.3 C 11.3 km/h
2989 30-04-2015 09:00:00 9.9 C 7.19 g/m*3 8.87 C 8.1 km/h
2990 30-04-2015 09:05:00 10 C 7.14 g/m*3 8.42 C 11.3 km/h
2991 30-04-2015 09:10:00 9.9 C 7.1 g/m*3 8.56 C 9.7 km/h
2992 30-04-2015 09:15:00 9.8 C 7.05 g/m*3 7.36 C 17.7 km/h
2993 30-04-2015 09:20:00 9.8 C 7.05 g/m*3 8.18 C 11.3 km/h
2994 30-04-2015 09:25:00 9.9 C 7.1 g/m*3 7.16 C 20.9 km/h
2995 30-04-2015 09:30:00 10.1 C 7.09 g/m*3 7.91 C 16.1 km/h
2996 30-04-2015 09:35:00 10.2 C 7.23 g/m*3 8.66 C 11.3 km/h
2997 30-04-2015 09:40:00 10.3 C 7.09 g/m*3 8.34 C 14.5 km/h
2998 30-04-2015 09:45:00 10.5 C 7.18 g/m*3 8.23 C 17.7 km/h
2999 30-04-2015 09:50:00 10.6 C 7.12 g/m*3 8.92 C 12.9 km/h
3000 30-04-2015 09:55:00 10.8 C 7.22 g/m*3 8.96 C 14.5 km/h
Sensor: Nr:Datum:Temp:Abs-Feuchte:Windchill:Wind:
Aussen-T/F 3001 30-04-2015 10:00:00 10.8 C 7.12 g/m*3 8.96 C 14.5 km/h
3002 30-04-2015 10:05:00 10.8 C 7.22 g/m*3 8.78 C 16.1 km/h
3003 30-04-2015 10:10:00 11.1 C 7.35 g/m*3 11.1 C 16.1 km/h
3004 30-04-2015 10:15:00 11.3 C 7.34 g/m*3 11.3 C 14.5 km/h
3005 30-04-2015 10:20:00 11.4 C 7.29 g/m*3 11.4 C 11.3 km/h
3006 30-04-2015 10:25:00 11.4 C 7.29 g/m*3 11.4 C 14.5 km/h
3007 30-04-2015 10:30:00 11.6 C 7.38 g/m*3 11.6 C 9.7 km/h
3008 30-04-2015 10:35:00 11.6 C 7.38 g/m*3 11.6 C 16.1 km/h
3009 30-04-2015 10:40:00 11.7 C 7.32 g/m*3 11.7 C 16.1 km/h
3010 30-04-2015 10:45:00 11.8 C 7.47 g/m*3 11.8 C 12.9 km/h
3011 30-04-2015 10:50:00 11.9 C 7.41 g/m*3 11.9 C 12.9 km/h
3012 30-04-2015 10:55:00 11.9 C 7.52 g/m*3 11.9 C 8.1 km/h
3013 30-04-2015 11:00:00 12 C 7.46 g/m*3 12 C 12.9 km/h
3014 30-04-2015 11:05:00 12.1 C 7.61 g/m*3 12.1 C 11.3 km/h
3015 30-04-2015 11:10:00 12.1 C 7.61 g/m*3 12.1 C 8.1 km/h
3016 30-04-2015 11:15:00 12.2 C 7.66 g/m*3 12.2 C 4.8 km/h
3017 30-04-2015 11:20:00 12.2 C 7.66 g/m*3 12.2 C 9.7 km/h
3018 30-04-2015 11:25:00 12.4 C 7.65 g/m*3 12.4 C 9.7 km/h
3019 30-04-2015 11:30:00 12.6 C 7.63 g/m*3 12.6 C 14.5 km/h
3020 30-04-2015 11:35:00 12.7 C 7.68 g/m*3 12.7 C 11.3 km/h
3021 30-04-2015 11:40:00 12.8 C 7.62 g/m*3 12.8 C 12.9 km/h
3022 30-04-2015 11:45:00 12.9 C 7.66 g/m*3 12.9 C 12.9 km/h
3023 30-04-2015 11:50:00 13.1 C 7.76 g/m*3 13.1 C 9.7 km/h
3024 30-04-2015 11:55:00 13.2 C 7.69 g/m*3 13.2 C 14.5 km/h
3025 30-04-2015 12:00:00 13.3 C 7.39 g/m*3 13.3 C 14.5 km/h
Sensor: Nr:Datum:Temp:Abs-Feuchte:Windchill:Wind:
Aussen-T/F 3026 30-04-2015 12:05:00 13.3 C 7.63 g/m*3 13.3 C 12.9 km/h
3027 30-04-2015 12:10:00 13.2 C 7.58 g/m*3 13.2 C 12.9 km/h
3028 30-04-2015 12:15:00 13.2 C 7.58 g/m*3 13.2 C 14.5 km/h
3029 30-04-2015 12:20:00 13.2 C 7.58 g/m*3 13.2 C 19.3 km/h
3030 30-04-2015 12:25:00 13.1 C 7.53 g/m*3 13.1 C 9.7 km/h
3031 30-04-2015 12:30:00 13.1 C 7.53 g/m*3 13.1 C 17.7 km/h
3032 30-04-2015 12:35:00 13.2 C 7.58 g/m*3 13.2 C 12.9 km/h
3033 30-04-2015 12:40:00 13.3 C 7.63 g/m*3 13.3 C 11.3 km/h
3034 30-04-2015 12:45:00 13.9 C 8.03 g/m*3 13.9 C 12.9 km/h
3035 30-04-2015 12:50:00 14.3 C 7.99 g/m*3 14.3 C 20.9 km/h
3036 30-04-2015 12:55:00 14.4 C 7.91 g/m*3 14.4 C 9.7 km/h
3037 30-04-2015 13:00:00 14.6 C 8.01 g/m*3 14.6 C 14.5 km/h
3038 30-04-2015 13:05:00 14.5 C 7.84 g/m*3 14.5 C 17.7 km/h
3039 30-04-2015 13:10:00 14.4 C 7.91 g/m*3 14.4 C 14.5 km/h
3040 30-04-2015 13:15:00 14.5 C 7.96 g/m*3 14.5 C 20.9 km/h
3041 30-04-2015 13:20:00 14.4 C 7.79 g/m*3 14.4 C 11.3 km/h
3042 30-04-2015 13:25:00 14.2 C 8.06 g/m*3 14.2 C 20.9 km/h
3043 30-04-2015 13:30:00 14 C 8.08 g/m*3 14 C 19.3 km/h
3044 30-04-2015 13:35:00 13.8 C 8.22 g/m*3 13.8 C 19.3 km/h
3045 30-04-2015 13:40:00 13.7 C 8.05 g/m*3 13.7 C 12.9 km/h
3046 30-04-2015 13:45:00 13.6 C 8 g/m*3 13.6 C 17.7 km/h
3047 30-04-2015 13:50:00 13.8 C 8.58 g/m*3 13.8 C 19.3 km/h
3048 30-04-2015 13:55:00 13.8 C 8.34 g/m*3 13.8 C 11.3 km/h
3049 30-04-2015 14:00:00 13.7 C 8.53 g/m*3 13.7 C 11.3 km/h
3050 30-04-2015 14:05:00 13.7 C 8.53 g/m*3 13.7 C 12.9 km/h
Sensor: Nr:Datum:Temp:Abs-Feuchte:Windchill:Wind:
Aussen-T/F 3051 30-04-2015 14:10:00 13.7 C 8.41 g/m*3 13.7 C 12.9 km/h
3052 30-04-2015 14:15:00 13.6 C 8.47 g/m*3 13.6 C 6.4 km/h
3053 30-04-2015 14:20:00 13.3 C 8.55 g/m*3 13.3 C 9.7 km/h
3054 30-04-2015 14:25:00 13.1 C 8.79 g/m*3 13.1 C 4.8 km/h
3055 30-04-2015 14:30:00 12.9 C 8.68 g/m*3 12.9 C 8.1 km/h
3056 30-04-2015 14:35:00 12.4 C 8.74 g/m*3 12.4 C 14.5 km/h
3057 30-04-2015 14:40:00 11.4 C 8.42 g/m*3 11.4 C 12.9 km/h
3058 30-04-2015 14:45:00 11.1 C 8.56 g/m*3 11.1 C 9.7 km/h
3059 30-04-2015 14:50:00 11.1 C 8.66 g/m*3 11.1 C 9.7 km/h
3060 30-04-2015 14:55:00 11.2 C 8.82 g/m*3 11.2 C 4.8 km/h
3061 30-04-2015 15:00:00 11.3 C 8.77 g/m*3 11.3 C 6.4 km/h
3062 30-04-2015 15:05:00 11.4 C 8.72 g/m*3 11.4 C 14.5 km/h
3063 30-04-2015 15:10:00 11.6 C 8.94 g/m*3 11.6 C 12.9 km/h
3064 30-04-2015 15:15:00 11.9 C 9 g/m*3 11.9 C 12.9 km/h
3065 30-04-2015 15:20:00 12.2 C 8.85 g/m*3 12.2 C 16.1 km/h
3066 30-04-2015 15:25:00 12.3 C 9.01 g/m*3 12.3 C 16.1 km/h
3067 30-04-2015 15:30:00 12.4 C 8.63 g/m*3 12.4 C 16.1 km/h
3068 30-04-2015 15:35:00 12.4 C 8.74 g/m*3 12.4 C 14.5 km/h
3069 30-04-2015 15:40:00 12.3 C 8.58 g/m*3 12.3 C 16.1 km/h
3070 30-04-2015 15:45:00 12.2 C 8.31 g/m*3 12.2 C 17.7 km/h
3071 30-04-2015 15:50:00 12 C 8.21 g/m*3 12 C 19.3 km/h
3072 30-04-2015 15:55:00 11.8 C 8.42 g/m*3 11.8 C 12.9 km/h
3073 30-04-2015 16:00:00 11.6 C 8.63 g/m*3 11.6 C 4.8 km/h
3074 30-04-2015 16:05:00 11.5 C 8.47 g/m*3 11.5 C 6.4 km/h
3075 30-04-2015 16:10:00 11.5 C 8.57 g/m*3 11.5 C 11.3 km/h
Sensor: Nr:Datum:Temp:Abs-Feuchte:Windchill:Wind:
Aussen-T/F 3076 30-04-2015 16:15:00 11.6 C 8.63 g/m*3 11.6 C 17.7 km/h
3077 30-04-2015 16:20:00 11.9 C 8.58 g/m*3 11.9 C 17.7 km/h
3078 30-04-2015 16:25:00 12.1 C 8.69 g/m*3 12.1 C 8.1 km/h
3079 30-04-2015 16:30:00 12.1 C 8.58 g/m*3 12.1 C 11.3 km/h
3080 30-04-2015 16:35:00 12.1 C 8.47 g/m*3 12.1 C 19.3 km/h
3081 30-04-2015 16:40:00 12 C 8.31 g/m*3 12 C 16.1 km/h
3082 30-04-2015 16:45:00 11.9 C 8.37 g/m*3 11.9 C 12.9 km/h
3083 30-04-2015 16:50:00 11.8 C 8.42 g/m*3 11.8 C 14.5 km/h
3084 30-04-2015 16:55:00 11.8 C 8.42 g/m*3 11.8 C 14.5 km/h
3085 30-04-2015 17:00:00 11.7 C 8.37 g/m*3 11.7 C 16.1 km/h
3086 30-04-2015 17:05:00 11.6 C 8.32 g/m*3 11.6 C 8.1 km/h
3087 30-04-2015 17:10:00 11.4 C 8.31 g/m*3 11.4 C 16.1 km/h
3088 30-04-2015 17:15:00 11.3 C 8.26 g/m*3 11.3 C 6.4 km/h
3089 30-04-2015 17:20:00 11.3 C 8.26 g/m*3 11.3 C 19.3 km/h
3090 30-04-2015 17:25:00 11.2 C 8.21 g/m*3 11.2 C 14.5 km/h
3091 30-04-2015 17:30:00 11.1 C 8.16 g/m*3 11.1 C 9.7 km/h
3092 30-04-2015 17:35:00 11.1 C 8.16 g/m*3 11.1 C 14.5 km/h
3093 30-04-2015 17:40:00 10.9 C 8.16 g/m*3 9.51 C 11.3 km/h
3094 30-04-2015 17:45:00 10.9 C 8.26 g/m*3 9.51 C 11.3 km/h
3095 30-04-2015 17:50:00 10.8 C 8.2 g/m*3 9.16 C 12.9 km/h
3096 30-04-2015 17:55:00 10.8 C 8.2 g/m*3 9.93 C 8.1 km/h
3097 30-04-2015 18:00:00 10.8 C 8.2 g/m*3 9.38 C 11.3 km/h
3098 30-04-2015 18:05:00 10.7 C 8.05 g/m*3 8.84 C 14.5 km/h
3099 30-04-2015 18:10:00 10.6 C 7.91 g/m*3 8.71 C 14.5 km/h
3100 30-04-2015 18:15:00 10.6 C 8 g/m*3 8.53 C 16.1 km/h
Sensor: Nr:Datum:Temp:Abs-Feuchte:Windchill:Wind:
Aussen-T/F 3101 30-04-2015 18:20:00 10.5 C 7.95 g/m*3 8.59 C 14.5 km/h
3102 30-04-2015 18:25:00 10.4 C 7.9 g/m*3 8.67 C 12.9 km/h
3103 30-04-2015 18:30:00 10.4 C 8 g/m*3 9.16 C 9.7 km/h
3104 30-04-2015 18:35:00 10.3 C 7.95 g/m*3 8.34 C 14.5 km/h
3105 30-04-2015 18:40:00 10.3 C 7.95 g/m*3 8.78 C 11.3 km/h
3106 30-04-2015 18:45:00 10.3 C 7.85 g/m*3 9.04 C 9.7 km/h
3107 30-04-2015 18:50:00 10.3 C 7.95 g/m*3 8.55 C 12.9 km/h
3108 30-04-2015 18:55:00 10.3 C 7.85 g/m*3 8.55 C 12.9 km/h
3109 30-04-2015 19:00:00 10.3 C 7.85 g/m*3 9.04 C 9.7 km/h
3110 30-04-2015 19:05:00 10.2 C 7.8 g/m*3 8.22 C 14.5 km/h
3111 30-04-2015 19:10:00 10.2 C 7.9 g/m*3 8.92 C 9.7 km/h
3112 30-04-2015 19:15:00 10.1 C 7.94 g/m*3 8.54 C 11.3 km/h
3113 30-04-2015 19:20:00 10.1 C 7.94 g/m*3 9.48 C 6.4 km/h
3114 30-04-2015 19:25:00 10 C 7.89 g/m*3 9.37 C 6.4 km/h
3115 30-04-2015 19:30:00 10 C 7.89 g/m*3 8.42 C 11.3 km/h
3116 30-04-2015 19:35:00 10 C 7.89 g/m*3 10 C 3.2 km/h
3117 30-04-2015 19:40:00 10 C 7.89 g/m*3 8.68 C 9.7 km/h
3118 30-04-2015 19:45:00 10 C 7.8 g/m*3 8.19 C 12.9 km/h
3119 30-04-2015 19:50:00 10 C 7.89 g/m*3 9.37 C 6.4 km/h
3120 30-04-2015 19:55:00 9.9 C 7.84 g/m*3 9.25 C 6.4 km/h
3121 30-04-2015 20:00:00 9.9 C 7.94 g/m*3 9.25 C 6.4 km/h
3122 30-04-2015 20:05:00 9.8 C 7.89 g/m*3 9.8 C 4.8 km/h
3123 30-04-2015 20:10:00 9.8 C 7.89 g/m*3 8.75 C 8.1 km/h
3124 30-04-2015 20:15:00 9.7 C 7.93 g/m*3 9.7 C 4.8 km/h
3125 30-04-2015 20:20:00 9.7 C 7.84 g/m*3 8.63 C 8.1 km/h
Sensor: Nr:Datum:Temp:Abs-Feuchte:Windchill:Wind:
Aussen-T/F 3126 30-04-2015 20:25:00 9.7 C 7.84 g/m*3 9.7 C 3.2 km/h
3127 30-04-2015 20:30:00 9.7 C 7.93 g/m*3 9.7 C 4.8 km/h
3128 30-04-2015 20:35:00 9.7 C 8.02 g/m*3 9.7 C 3.2 km/h
3129 30-04-2015 20:40:00 9.6 C 7.97 g/m*3 9.6 C 1.6 km/h
3130 30-04-2015 20:45:00 9.4 C 7.96 g/m*3 9.4 C 0 km/h
3131 30-04-2015 20:50:00 9.3 C 8 g/m*3 9.3 C 3.2 km/h
3132 30-04-2015 20:55:00 9.2 C 7.95 g/m*3 9.2 C 1.6 km/h
3133 30-04-2015 21:00:00 9.2 C 7.95 g/m*3 9.2 C 1.6 km/h
3134 30-04-2015 21:05:00 9.1 C 7.99 g/m*3 9.1 C 0 km/h
3135 30-04-2015 21:10:00 9.1 C 7.99 g/m*3 9.1 C 1.6 km/h
3136 30-04-2015 21:15:00 9.1 C 7.9 g/m*3 7.61 C 9.7 km/h
3137 30-04-2015 21:20:00 9.1 C 7.9 g/m*3 9.1 C 3.2 km/h
3138 30-04-2015 21:25:00 9 C 7.93 g/m*3 9 C 0 km/h
3139 30-04-2015 21:30:00 9 C 7.93 g/m*3 9 C 1.6 km/h
3140 30-04-2015 21:35:00 9 C 7.93 g/m*3 9 C 0 km/h
3141 30-04-2015 21:40:00 8.9 C 7.97 g/m*3 8.9 C 0 km/h
3142 30-04-2015 21:45:00 8.9 C 7.97 g/m*3 8.9 C 3.2 km/h
3143 30-04-2015 21:50:00 8.9 C 7.97 g/m*3 8.9 C 1.6 km/h
3144 30-04-2015 21:55:00 8.9 C 8.06 g/m*3 8.9 C 1.6 km/h
3145 30-04-2015 22:00:00 8.8 C 8.01 g/m*3 8.8 C 1.6 km/h
3146 30-04-2015 22:05:00 8.8 C 8.01 g/m*3 8.8 C 0 km/h
3147 30-04-2015 22:10:00 8.7 C 7.96 g/m*3 8.7 C 3.2 km/h
3148 30-04-2015 22:15:00 8.7 C 8.04 g/m*3 8.7 C 1.6 km/h
3149 30-04-2015 22:20:00 8.6 C 7.99 g/m*3 8.6 C 1.6 km/h
3150 30-04-2015 22:25:00 8.6 C 7.99 g/m*3 8.6 C 3.2 km/h
Sensor: Nr:Datum:Temp:Abs-Feuchte:Windchill:Wind:
Aussen-T/F 3151 30-04-2015 22:30:00 8.4 C 7.89 g/m*3 8.4 C 3.2 km/h
3152 30-04-2015 22:35:00 8.3 C 7.75 g/m*3 8.3 C 3.2 km/h
3153 30-04-2015 22:40:00 8.3 C 7.75 g/m*3 8.3 C 3.2 km/h
3154 30-04-2015 22:45:00 8.2 C 7.7 g/m*3 8.2 C 3.2 km/h
3155 30-04-2015 22:50:00 8.2 C 7.7 g/m*3 8.2 C 1.6 km/h
3156 30-04-2015 22:55:00 8.2 C 7.7 g/m*3 8.2 C 3.2 km/h
3157 30-04-2015 23:00:00 8.2 C 7.7 g/m*3 8.2 C 3.2 km/h
3158 30-04-2015 23:05:00 8.1 C 7.66 g/m*3 8.1 C 1.6 km/h
3159 30-04-2015 23:10:00 8.1 C 7.66 g/m*3 8.1 C 4.8 km/h
3160 30-04-2015 23:15:00 8 C 7.61 g/m*3 8 C 0 km/h
3161 30-04-2015 23:20:00 7.9 C 7.64 g/m*3 7.9 C 1.6 km/h
3162 30-04-2015 23:25:00 7.8 C 7.59 g/m*3 7.8 C 1.6 km/h
3163 30-04-2015 23:30:00 7.7 C 7.54 g/m*3 7.7 C 1.6 km/h
3164 30-04-2015 23:35:00 7.5 C 7.44 g/m*3 7.5 C 1.6 km/h
3165 30-04-2015 23:40:00 7.4 C 7.4 g/m*3 7.4 C 1.6 km/h
3166 30-04-2015 23:45:00 7.3 C 7.35 g/m*3 7.3 C 1.6 km/h
3167 30-04-2015 23:50:00 7.2 C 7.3 g/m*3 7.2 C 3.2 km/h
3168 30-04-2015 23:55:00 7 C 7.21 g/m*3 7 C 0 km/h
3169 01-05-2015 00:00:00 6.8 C 7.11 g/m*3 6.8 C 1.6 km/h
3170 01-05-2015 00:05:00 6.7 C 7.07 g/m*3 6.7 C 1.6 km/h
3171 01-05-2015 00:10:00 6.6 C 7.02 g/m*3 6.6 C 0 km/h
3172 01-05-2015 00:15:00 6.5 C 6.97 g/m*3 6.5 C 0 km/h
3173 01-05-2015 00:20:00 6.3 C 6.88 g/m*3 6.3 C 0 km/h
3174 01-05-2015 00:25:00 6.2 C 6.84 g/m*3 6.2 C 0 km/h
3175 01-05-2015 00:30:00 6.1 C 6.87 g/m*3 6.1 C 0 km/h
Sensor: Nr:Datum:Temp:Abs-Feuchte:Windchill:Wind:
Aussen-T/F 3176 01-05-2015 00:35:00 6.1 C 6.87 g/m*3 6.1 C 3.2 km/h
3177 01-05-2015 00:40:00 6 C 6.82 g/m*3 6 C 3.2 km/h
3178 01-05-2015 00:45:00 6 C 6.82 g/m*3 6 C 0 km/h
3179 01-05-2015 00:50:00 5.9 C 6.78 g/m*3 5.9 C 1.6 km/h
3180 01-05-2015 00:55:00 6 C 6.82 g/m*3 6 C 1.6 km/h
3181 01-05-2015 01:00:00 6.1 C 6.94 g/m*3 6.1 C 0 km/h
3182 01-05-2015 01:05:00 6.2 C 6.99 g/m*3 6.2 C 1.6 km/h
3183 01-05-2015 01:10:00 6.1 C 6.94 g/m*3 6.1 C 0 km/h
3184 01-05-2015 01:15:00 6 C 6.82 g/m*3 6 C 0 km/h
3185 01-05-2015 01:20:00 6 C 6.9 g/m*3 6 C 0 km/h
3186 01-05-2015 01:25:00 5.9 C 6.85 g/m*3 5.9 C 0 km/h
3187 01-05-2015 01:30:00 6 C 6.9 g/m*3 6 C 0 km/h
3188 01-05-2015 01:35:00 6 C 6.9 g/m*3 6 C 0 km/h
3189 01-05-2015 01:40:00 6 C 6.9 g/m*3 6 C 0 km/h
3190 01-05-2015 01:45:00 5.9 C 6.85 g/m*3 5.9 C 0 km/h
3191 01-05-2015 01:50:00 5.8 C 6.81 g/m*3 5.8 C 0 km/h
3192 01-05-2015 01:55:00 5.7 C 6.76 g/m*3 5.7 C 0 km/h
3193 01-05-2015 02:00:00 5.7 C 6.76 g/m*3 5.7 C 0 km/h
3194 01-05-2015 02:05:00 5.7 C 6.76 g/m*3 5.7 C 0 km/h
3195 01-05-2015 02:10:00 5.7 C 6.76 g/m*3 5.7 C 0 km/h
3196 01-05-2015 02:15:00 5.7 C 6.76 g/m*3 5.7 C 1.6 km/h
3197 01-05-2015 02:20:00 5.7 C 6.76 g/m*3 5.7 C 0 km/h
3198 01-05-2015 02:25:00 5.7 C 6.76 g/m*3 5.7 C 1.6 km/h
3199 01-05-2015 02:30:00 5.6 C 6.72 g/m*3 5.6 C 0 km/h
3200 01-05-2015 02:35:00 5.5 C 6.67 g/m*3 5.5 C 1.6 km/h
Sensor: Nr:Datum:Temp:Abs-Feuchte:Windchill:Wind:
Aussen-T/F 3201 01-05-2015 02:40:00 5.5 C 6.67 g/m*3 5.5 C 0 km/h
3202 01-05-2015 02:45:00 5.5 C 6.67 g/m*3 5.5 C 0 km/h
3203 01-05-2015 02:50:00 5.5 C 6.67 g/m*3 5.5 C 0 km/h
3204 01-05-2015 02:55:00 5.4 C 6.63 g/m*3 5.4 C 3.2 km/h
3205 01-05-2015 03:00:00 5.4 C 6.63 g/m*3 5.4 C 1.6 km/h
3206 01-05-2015 03:05:00 5.2 C 6.54 g/m*3 5.2 C 0 km/h
3207 01-05-2015 03:10:00 5.1 C 6.5 g/m*3 5.1 C 0 km/h
3208 01-05-2015 03:15:00 4.9 C 6.41 g/m*3 4.9 C 0 km/h
3209 01-05-2015 03:20:00 4.8 C 6.37 g/m*3 4.8 C 0 km/h
3210 01-05-2015 03:25:00 4.8 C 6.37 g/m*3 4.8 C 0 km/h
3211 01-05-2015 03:30:00 4.7 C 6.33 g/m*3 4.7 C 0 km/h
3212 01-05-2015 03:35:00 4.7 C 6.33 g/m*3 4.7 C 0 km/h
3213 01-05-2015 03:40:00 4.6 C 6.29 g/m*3 4.6 C 0 km/h
3214 01-05-2015 03:45:00 4.6 C 6.29 g/m*3 4.6 C 0 km/h
3215 01-05-2015 03:50:00 4.5 C 6.24 g/m*3 4.5 C 0 km/h
3216 01-05-2015 03:55:00 4.4 C 6.2 g/m*3 4.4 C 0 km/h
3217 01-05-2015 04:00:00 4.3 C 6.16 g/m*3 4.3 C 0 km/h
3218 01-05-2015 04:05:00 4.3 C 6.16 g/m*3 4.3 C 0 km/h
3219 01-05-2015 04:10:00 4.3 C 6.16 g/m*3 4.3 C 0 km/h
3220 01-05-2015 04:15:00 4.2 C 6.12 g/m*3 4.2 C 0 km/h
3221 01-05-2015 04:20:00 4.1 C 6.08 g/m*3 4.1 C 0 km/h
3222 01-05-2015 04:25:00 4.1 C 6.08 g/m*3 4.1 C 0 km/h